<?xml version="1.0" encoding="UTF-8" standalone="no" ?>
<gpx xmlns="http://www.topografix.com/GPX/1/1" xmlns:xsi="http://www.w3.org/2001/XMLSchema-instance" xsi:schemaLocation="http://www.topografix.com/GPX/1/1 http://www.topografix.com/GPX/1/1/gpx.xsd" version="1.1" creator="VisuGPX - https://www.visugpx.com">
  <metadata>
    <name>Trace Cougoir</name>
    <desc><![CDATA[Sortie du 19 mai 2011 effectuée par 13 randonneurs du SCLapalud]]></desc>
  </metadata>
  <trk>
    <name><![CDATA[ACTIVE LOG]]></name>
    <trkseg>
      <trkpt lat="44.45317" lon="5.15526">
        <ele>606.248535</ele>
        <time>2011-05-19T09:26:16Z</time>
      </trkpt>
      <trkpt lat="44.45317" lon="5.15526">
        <ele>609.613281</ele>
        <time>2011-05-19T09:26:22Z</time>
      </trkpt>
      <trkpt lat="44.45317" lon="5.15526">
        <ele>613.458496</ele>
        <time>2011-05-19T09:26:26Z</time>
      </trkpt>
      <trkpt lat="44.45317" lon="5.15526">
        <ele>616.822998</ele>
        <time>2011-05-19T09:26:30Z</time>
      </trkpt>
      <trkpt lat="44.45317" lon="5.15526">
        <ele>619.707031</ele>
        <time>2011-05-19T09:26:35Z</time>
      </trkpt>
      <trkpt lat="44.45316" lon="5.15526">
        <ele>621.629639</ele>
        <time>2011-05-19T09:26:38Z</time>
      </trkpt>
      <trkpt lat="44.45316" lon="5.15526">
        <ele>624.513672</ele>
        <time>2011-05-19T09:26:44Z</time>
      </trkpt>
      <trkpt lat="44.45317" lon="5.15525">
        <ele>628.358887</ele>
        <time>2011-05-19T09:26:52Z</time>
      </trkpt>
      <trkpt lat="44.45317" lon="5.15525">
        <ele>628.358887</ele>
        <time>2011-05-19T09:26:53Z</time>
      </trkpt>
      <trkpt lat="44.45317" lon="5.15525">
        <ele>631.24292</ele>
        <time>2011-05-19T09:27:04Z</time>
      </trkpt>
      <trkpt lat="44.45316" lon="5.15526">
        <ele>635.088135</ele>
        <time>2011-05-19T09:27:20Z</time>
      </trkpt>
      <trkpt lat="44.45319" lon="5.15527">
        <ele>636.530273</ele>
        <time>2011-05-19T09:27:54Z</time>
      </trkpt>
      <trkpt lat="44.45318" lon="5.1553">
        <ele>636.530273</ele>
        <time>2011-05-19T09:28:19Z</time>
      </trkpt>
      <trkpt lat="44.45318" lon="5.15529">
        <ele>636.530273</ele>
        <time>2011-05-19T09:31:07Z</time>
      </trkpt>
      <trkpt lat="44.45324" lon="5.15533">
        <ele>636.530273</ele>
        <time>2011-05-19T09:32:02Z</time>
      </trkpt>
      <trkpt lat="44.45327" lon="5.15546">
        <ele>638.452881</ele>
        <time>2011-05-19T09:32:15Z</time>
      </trkpt>
      <trkpt lat="44.45337" lon="5.1556">
        <ele>640.375488</ele>
        <time>2011-05-19T09:32:33Z</time>
      </trkpt>
      <trkpt lat="44.45349" lon="5.15573">
        <ele>642.778809</ele>
        <time>2011-05-19T09:32:53Z</time>
      </trkpt>
      <trkpt lat="44.45364" lon="5.15575">
        <ele>646.143311</ele>
        <time>2011-05-19T09:33:13Z</time>
      </trkpt>
      <trkpt lat="44.4537" lon="5.15585">
        <ele>647.585205</ele>
        <time>2011-05-19T09:33:27Z</time>
      </trkpt>
      <trkpt lat="44.45363" lon="5.15592">
        <ele>650.469238</ele>
        <time>2011-05-19T09:33:45Z</time>
      </trkpt>
      <trkpt lat="44.45352" lon="5.15598">
        <ele>652.872559</ele>
        <time>2011-05-19T09:34:05Z</time>
      </trkpt>
      <trkpt lat="44.45341" lon="5.15615">
        <ele>655.756592</ele>
        <time>2011-05-19T09:34:26Z</time>
      </trkpt>
      <trkpt lat="44.45345" lon="5.15639">
        <ele>659.121094</ele>
        <time>2011-05-19T09:34:47Z</time>
      </trkpt>
      <trkpt lat="44.45347" lon="5.15656">
        <ele>662.005127</ele>
        <time>2011-05-19T09:35:06Z</time>
      </trkpt>
      <trkpt lat="44.4534" lon="5.15675">
        <ele>664.888916</ele>
        <time>2011-05-19T09:35:28Z</time>
      </trkpt>
      <trkpt lat="44.45333" lon="5.15689">
        <ele>667.772705</ele>
        <time>2011-05-19T09:35:48Z</time>
      </trkpt>
      <trkpt lat="44.45323" lon="5.15704">
        <ele>670.656982</ele>
        <time>2011-05-19T09:36:12Z</time>
      </trkpt>
      <trkpt lat="44.45313" lon="5.15712">
        <ele>674.021484</ele>
        <time>2011-05-19T09:36:31Z</time>
      </trkpt>
      <trkpt lat="44.45302" lon="5.15717">
        <ele>675.944092</ele>
        <time>2011-05-19T09:36:47Z</time>
      </trkpt>
      <trkpt lat="44.45293" lon="5.15723">
        <ele>677.38623</ele>
        <time>2011-05-19T09:37:01Z</time>
      </trkpt>
      <trkpt lat="44.45282" lon="5.15732">
        <ele>678.828125</ele>
        <time>2011-05-19T09:37:18Z</time>
      </trkpt>
      <trkpt lat="44.45267" lon="5.15744">
        <ele>681.231445</ele>
        <time>2011-05-19T09:37:40Z</time>
      </trkpt>
      <trkpt lat="44.45266" lon="5.15747">
        <ele>681.711914</ele>
        <time>2011-05-19T09:37:44Z</time>
      </trkpt>
      <trkpt lat="44.45257" lon="5.15752">
        <ele>683.634521</ele>
        <time>2011-05-19T09:37:57Z</time>
      </trkpt>
      <trkpt lat="44.4525" lon="5.15757">
        <ele>684.596191</ele>
        <time>2011-05-19T09:38:07Z</time>
      </trkpt>
      <trkpt lat="44.45238" lon="5.15763">
        <ele>686.999268</ele>
        <time>2011-05-19T09:38:23Z</time>
      </trkpt>
      <trkpt lat="44.45228" lon="5.15768">
        <ele>688.922119</ele>
        <time>2011-05-19T09:38:37Z</time>
      </trkpt>
      <trkpt lat="44.45213" lon="5.15776">
        <ele>691.805908</ele>
        <time>2011-05-19T09:38:59Z</time>
      </trkpt>
      <trkpt lat="44.45203" lon="5.15778">
        <ele>693.728516</ele>
        <time>2011-05-19T09:39:13Z</time>
      </trkpt>
      <trkpt lat="44.45188" lon="5.15779">
        <ele>696.612549</ele>
        <time>2011-05-19T09:39:33Z</time>
      </trkpt>
      <trkpt lat="44.45177" lon="5.15781">
        <ele>698.054443</ele>
        <time>2011-05-19T09:39:46Z</time>
      </trkpt>
      <trkpt lat="44.45156" lon="5.15786">
        <ele>699.015625</ele>
        <time>2011-05-19T09:40:09Z</time>
      </trkpt>
      <trkpt lat="44.45143" lon="5.15787">
        <ele>700.458008</ele>
        <time>2011-05-19T09:40:24Z</time>
      </trkpt>
      <trkpt lat="44.45125" lon="5.15793">
        <ele>702.380371</ele>
        <time>2011-05-19T09:40:44Z</time>
      </trkpt>
      <trkpt lat="44.45116" lon="5.15796">
        <ele>703.82251</ele>
        <time>2011-05-19T09:40:56Z</time>
      </trkpt>
      <trkpt lat="44.45102" lon="5.15805">
        <ele>705.264404</ele>
        <time>2011-05-19T09:41:13Z</time>
      </trkpt>
      <trkpt lat="44.45099" lon="5.15808">
        <ele>705.745117</ele>
        <time>2011-05-19T09:41:18Z</time>
      </trkpt>
      <trkpt lat="44.45087" lon="5.1583">
        <ele>707.187012</ele>
        <time>2011-05-19T09:41:38Z</time>
      </trkpt>
      <trkpt lat="44.45083" lon="5.15836">
        <ele>708.148438</ele>
        <time>2011-05-19T09:41:44Z</time>
      </trkpt>
      <trkpt lat="44.45073" lon="5.15845">
        <ele>709.109619</ele>
        <time>2011-05-19T09:42:02Z</time>
      </trkpt>
      <trkpt lat="44.45057" lon="5.15864">
        <ele>711.032227</ele>
        <time>2011-05-19T09:42:24Z</time>
      </trkpt>
      <trkpt lat="44.45043" lon="5.1588">
        <ele>713.916016</ele>
        <time>2011-05-19T09:42:48Z</time>
      </trkpt>
      <trkpt lat="44.45029" lon="5.15894">
        <ele>716.31958</ele>
        <time>2011-05-19T09:43:08Z</time>
      </trkpt>
      <trkpt lat="44.45017" lon="5.15894">
        <ele>717.281006</ele>
        <time>2011-05-19T09:43:22Z</time>
      </trkpt>
      <trkpt lat="44.45" lon="5.15887">
        <ele>719.684326</ele>
        <time>2011-05-19T09:43:42Z</time>
      </trkpt>
      <trkpt lat="44.44993" lon="5.15891">
        <ele>720.164795</ele>
        <time>2011-05-19T09:43:48Z</time>
      </trkpt>
      <trkpt lat="44.44979" lon="5.15907">
        <ele>721.606689</ele>
        <time>2011-05-19T09:44:10Z</time>
      </trkpt>
      <trkpt lat="44.44972" lon="5.15917">
        <ele>723.529541</ele>
        <time>2011-05-19T09:44:25Z</time>
      </trkpt>
      <trkpt lat="44.44957" lon="5.1593">
        <ele>725.451904</ele>
        <time>2011-05-19T09:44:44Z</time>
      </trkpt>
      <trkpt lat="44.44954" lon="5.15934">
        <ele>725.932617</ele>
        <time>2011-05-19T09:44:50Z</time>
      </trkpt>
      <trkpt lat="44.44942" lon="5.15944">
        <ele>727.374756</ele>
        <time>2011-05-19T09:45:04Z</time>
      </trkpt>
      <trkpt lat="44.44931" lon="5.15959">
        <ele>729.297119</ele>
        <time>2011-05-19T09:45:21Z</time>
      </trkpt>
      <trkpt lat="44.44925" lon="5.15978">
        <ele>732.181396</ele>
        <time>2011-05-19T09:45:39Z</time>
      </trkpt>
      <trkpt lat="44.44916" lon="5.15991">
        <ele>734.584717</ele>
        <time>2011-05-19T09:45:57Z</time>
      </trkpt>
      <trkpt lat="44.44909" lon="5.16">
        <ele>736.026611</ele>
        <time>2011-05-19T09:46:15Z</time>
      </trkpt>
      <trkpt lat="44.44907" lon="5.15999">
        <ele>736.026611</ele>
        <time>2011-05-19T09:46:43Z</time>
      </trkpt>
      <trkpt lat="44.44907" lon="5.16002">
        <ele>736.026611</ele>
        <time>2011-05-19T09:49:22Z</time>
      </trkpt>
      <trkpt lat="44.44908" lon="5.16004">
        <ele>735.545898</ele>
        <time>2011-05-19T09:50:15Z</time>
      </trkpt>
      <trkpt lat="44.44906" lon="5.16007">
        <ele>735.06543</ele>
        <time>2011-05-19T09:50:46Z</time>
      </trkpt>
      <trkpt lat="44.44893" lon="5.16005">
        <ele>736.026611</ele>
        <time>2011-05-19T09:51:00Z</time>
      </trkpt>
      <trkpt lat="44.44883" lon="5.16016">
        <ele>737.949219</ele>
        <time>2011-05-19T09:51:14Z</time>
      </trkpt>
      <trkpt lat="44.44883" lon="5.16016">
        <ele>737.949219</ele>
        <time>2011-05-19T09:51:15Z</time>
      </trkpt>
      <trkpt lat="44.44875" lon="5.16029">
        <ele>739.391113</ele>
        <time>2011-05-19T09:51:28Z</time>
      </trkpt>
      <trkpt lat="44.4487" lon="5.16042">
        <ele>740.833008</ele>
        <time>2011-05-19T09:51:40Z</time>
      </trkpt>
      <trkpt lat="44.44868" lon="5.16046">
        <ele>741.794434</ele>
        <time>2011-05-19T09:51:45Z</time>
      </trkpt>
      <trkpt lat="44.4486" lon="5.1605">
        <ele>744.197754</ele>
        <time>2011-05-19T09:52:00Z</time>
      </trkpt>
      <trkpt lat="44.44858" lon="5.16047">
        <ele>745.639648</ele>
        <time>2011-05-19T09:52:08Z</time>
      </trkpt>
      <trkpt lat="44.44852" lon="5.16031">
        <ele>747.562256</ele>
        <time>2011-05-19T09:52:24Z</time>
      </trkpt>
      <trkpt lat="44.44847" lon="5.16022">
        <ele>749.485107</ele>
        <time>2011-05-19T09:52:39Z</time>
      </trkpt>
      <trkpt lat="44.4484" lon="5.16013">
        <ele>751.407715</ele>
        <time>2011-05-19T09:52:51Z</time>
      </trkpt>
      <trkpt lat="44.44827" lon="5.16009">
        <ele>754.291748</ele>
        <time>2011-05-19T09:53:06Z</time>
      </trkpt>
      <trkpt lat="44.44817" lon="5.16001">
        <ele>756.214111</ele>
        <time>2011-05-19T09:53:21Z</time>
      </trkpt>
      <trkpt lat="44.44806" lon="5.15993">
        <ele>757.65625</ele>
        <time>2011-05-19T09:53:34Z</time>
      </trkpt>
      <trkpt lat="44.44803" lon="5.15991">
        <ele>757.65625</ele>
        <time>2011-05-19T09:53:37Z</time>
      </trkpt>
      <trkpt lat="44.44797" lon="5.15992">
        <ele>758.136963</ele>
        <time>2011-05-19T09:53:41Z</time>
      </trkpt>
      <trkpt lat="44.44789" lon="5.15996">
        <ele>759.098145</ele>
        <time>2011-05-19T09:53:48Z</time>
      </trkpt>
      <trkpt lat="44.44783" lon="5.15999">
        <ele>759.578857</ele>
        <time>2011-05-19T09:53:55Z</time>
      </trkpt>
      <trkpt lat="44.44781" lon="5.16001">
        <ele>760.059326</ele>
        <time>2011-05-19T09:53:58Z</time>
      </trkpt>
      <trkpt lat="44.44776" lon="5.16006">
        <ele>761.020752</ele>
        <time>2011-05-19T09:54:05Z</time>
      </trkpt>
      <trkpt lat="44.44763" lon="5.1601">
        <ele>763.424072</ele>
        <time>2011-05-19T09:54:20Z</time>
      </trkpt>
      <trkpt lat="44.44751" lon="5.16015">
        <ele>764.385498</ele>
        <time>2011-05-19T09:54:32Z</time>
      </trkpt>
      <trkpt lat="44.44744" lon="5.16021">
        <ele>765.346924</ele>
        <time>2011-05-19T09:54:41Z</time>
      </trkpt>
      <trkpt lat="44.44741" lon="5.16027">
        <ele>765.827637</ele>
        <time>2011-05-19T09:54:46Z</time>
      </trkpt>
      <trkpt lat="44.44738" lon="5.16029">
        <ele>766.308105</ele>
        <time>2011-05-19T09:54:50Z</time>
      </trkpt>
      <trkpt lat="44.44731" lon="5.16029">
        <ele>767.269531</ele>
        <time>2011-05-19T09:54:57Z</time>
      </trkpt>
      <trkpt lat="44.4472" lon="5.16029">
        <ele>768.230713</ele>
        <time>2011-05-19T09:55:07Z</time>
      </trkpt>
      <trkpt lat="44.44713" lon="5.16041">
        <ele>770.634033</ele>
        <time>2011-05-19T09:55:20Z</time>
      </trkpt>
      <trkpt lat="44.44703" lon="5.16054">
        <ele>772.556641</ele>
        <time>2011-05-19T09:55:38Z</time>
      </trkpt>
      <trkpt lat="44.44703" lon="5.16058">
        <ele>772.556641</ele>
        <time>2011-05-19T09:56:03Z</time>
      </trkpt>
      <trkpt lat="44.44705" lon="5.1606">
        <ele>772.556641</ele>
        <time>2011-05-19T09:58:50Z</time>
      </trkpt>
      <trkpt lat="44.44705" lon="5.16058">
        <ele>772.556641</ele>
        <time>2011-05-19T09:58:55Z</time>
      </trkpt>
      <trkpt lat="44.44698" lon="5.16036">
        <ele>775.921143</ele>
        <time>2011-05-19T09:59:18Z</time>
      </trkpt>
      <trkpt lat="44.44692" lon="5.16021">
        <ele>778.805176</ele>
        <time>2011-05-19T09:59:36Z</time>
      </trkpt>
      <trkpt lat="44.44686" lon="5.16006">
        <ele>781.689209</ele>
        <time>2011-05-19T09:59:56Z</time>
      </trkpt>
      <trkpt lat="44.44678" lon="5.15989">
        <ele>784.573242</ele>
        <time>2011-05-19T10:00:18Z</time>
      </trkpt>
      <trkpt lat="44.44668" lon="5.15979">
        <ele>787.457031</ele>
        <time>2011-05-19T10:00:38Z</time>
      </trkpt>
      <trkpt lat="44.44661" lon="5.15972">
        <ele>788.89917</ele>
        <time>2011-05-19T10:00:53Z</time>
      </trkpt>
      <trkpt lat="44.44655" lon="5.15964">
        <ele>791.302246</ele>
        <time>2011-05-19T10:01:08Z</time>
      </trkpt>
      <trkpt lat="44.44652" lon="5.15959">
        <ele>792.744385</ele>
        <time>2011-05-19T10:01:21Z</time>
      </trkpt>
      <trkpt lat="44.44644" lon="5.15952">
        <ele>794.666748</ele>
        <time>2011-05-19T10:01:35Z</time>
      </trkpt>
      <trkpt lat="44.44632" lon="5.15937">
        <ele>797.551025</ele>
        <time>2011-05-19T10:01:55Z</time>
      </trkpt>
      <trkpt lat="44.44623" lon="5.15924">
        <ele>800.435059</ele>
        <time>2011-05-19T10:02:15Z</time>
      </trkpt>
      <trkpt lat="44.44619" lon="5.15913">
        <ele>802.357422</ele>
        <time>2011-05-19T10:02:30Z</time>
      </trkpt>
      <trkpt lat="44.44613" lon="5.159">
        <ele>804.760742</ele>
        <time>2011-05-19T10:02:47Z</time>
      </trkpt>
      <trkpt lat="44.44606" lon="5.15885">
        <ele>806.68335</ele>
        <time>2011-05-19T10:03:06Z</time>
      </trkpt>
      <trkpt lat="44.44604" lon="5.15869">
        <ele>808.605957</ele>
        <time>2011-05-19T10:03:25Z</time>
      </trkpt>
      <trkpt lat="44.44604" lon="5.15856">
        <ele>810.528564</ele>
        <time>2011-05-19T10:03:40Z</time>
      </trkpt>
      <trkpt lat="44.44602" lon="5.15847">
        <ele>812.451416</ele>
        <time>2011-05-19T10:03:54Z</time>
      </trkpt>
      <trkpt lat="44.44599" lon="5.15833">
        <ele>814.854736</ele>
        <time>2011-05-19T10:04:14Z</time>
      </trkpt>
      <trkpt lat="44.44598" lon="5.15822">
        <ele>816.777344</ele>
        <time>2011-05-19T10:04:29Z</time>
      </trkpt>
      <trkpt lat="44.44592" lon="5.15803">
        <ele>818.699951</ele>
        <time>2011-05-19T10:04:50Z</time>
      </trkpt>
      <trkpt lat="44.44593" lon="5.15786">
        <ele>822.064453</ele>
        <time>2011-05-19T10:05:12Z</time>
      </trkpt>
      <trkpt lat="44.44597" lon="5.1577">
        <ele>824.467773</ele>
        <time>2011-05-19T10:05:34Z</time>
      </trkpt>
      <trkpt lat="44.44599" lon="5.15761">
        <ele>826.871094</ele>
        <time>2011-05-19T10:05:54Z</time>
      </trkpt>
      <trkpt lat="44.44602" lon="5.15756">
        <ele>829.755127</ele>
        <time>2011-05-19T10:08:06Z</time>
      </trkpt>
      <trkpt lat="44.44605" lon="5.15745">
        <ele>833.119629</ele>
        <time>2011-05-19T10:08:24Z</time>
      </trkpt>
      <trkpt lat="44.44605" lon="5.15742">
        <ele>833.600342</ele>
        <time>2011-05-19T10:09:12Z</time>
      </trkpt>
      <trkpt lat="44.44601" lon="5.1573">
        <ele>836.484375</ele>
        <time>2011-05-19T10:10:41Z</time>
      </trkpt>
      <trkpt lat="44.44595" lon="5.15723">
        <ele>838.406982</ele>
        <time>2011-05-19T10:10:57Z</time>
      </trkpt>
      <trkpt lat="44.44585" lon="5.1572">
        <ele>839.848877</ele>
        <time>2011-05-19T10:11:10Z</time>
      </trkpt>
      <trkpt lat="44.44576" lon="5.15718">
        <ele>841.290771</ele>
        <time>2011-05-19T10:11:25Z</time>
      </trkpt>
      <trkpt lat="44.44568" lon="5.15714">
        <ele>842.73291</ele>
        <time>2011-05-19T10:11:37Z</time>
      </trkpt>
      <trkpt lat="44.44562" lon="5.15708">
        <ele>843.213379</ele>
        <time>2011-05-19T10:11:50Z</time>
      </trkpt>
      <trkpt lat="44.44554" lon="5.15703">
        <ele>844.175049</ele>
        <time>2011-05-19T10:12:03Z</time>
      </trkpt>
      <trkpt lat="44.44549" lon="5.15699">
        <ele>845.13623</ele>
        <time>2011-05-19T10:12:13Z</time>
      </trkpt>
      <trkpt lat="44.44537" lon="5.15691">
        <ele>846.578369</ele>
        <time>2011-05-19T10:12:32Z</time>
      </trkpt>
      <trkpt lat="44.44529" lon="5.15684">
        <ele>848.500732</ele>
        <time>2011-05-19T10:12:46Z</time>
      </trkpt>
      <trkpt lat="44.44522" lon="5.15678">
        <ele>850.423584</ele>
        <time>2011-05-19T10:13:02Z</time>
      </trkpt>
      <trkpt lat="44.44516" lon="5.15674">
        <ele>851.384766</ele>
        <time>2011-05-19T10:13:14Z</time>
      </trkpt>
      <trkpt lat="44.44505" lon="5.15665">
        <ele>853.307373</ele>
        <time>2011-05-19T10:13:29Z</time>
      </trkpt>
      <trkpt lat="44.44498" lon="5.15664">
        <ele>855.22998</ele>
        <time>2011-05-19T10:13:43Z</time>
      </trkpt>
      <trkpt lat="44.44491" lon="5.15662">
        <ele>857.152588</ele>
        <time>2011-05-19T10:13:58Z</time>
      </trkpt>
      <trkpt lat="44.44488" lon="5.1566">
        <ele>858.594482</ele>
        <time>2011-05-19T10:14:11Z</time>
      </trkpt>
      <trkpt lat="44.44486" lon="5.15659">
        <ele>860.036621</ele>
        <time>2011-05-19T10:14:22Z</time>
      </trkpt>
      <trkpt lat="44.44483" lon="5.15659">
        <ele>860.517334</ele>
        <time>2011-05-19T10:14:38Z</time>
      </trkpt>
      <trkpt lat="44.44476" lon="5.15656">
        <ele>863.881836</ele>
        <time>2011-05-19T10:16:17Z</time>
      </trkpt>
      <trkpt lat="44.44464" lon="5.15651">
        <ele>866.765869</ele>
        <time>2011-05-19T10:16:33Z</time>
      </trkpt>
      <trkpt lat="44.44454" lon="5.15644">
        <ele>869.649902</ele>
        <time>2011-05-19T10:16:51Z</time>
      </trkpt>
      <trkpt lat="44.44442" lon="5.15643">
        <ele>872.052979</ele>
        <time>2011-05-19T10:17:06Z</time>
      </trkpt>
      <trkpt lat="44.44439" lon="5.15639">
        <ele>873.975586</ele>
        <time>2011-05-19T10:17:23Z</time>
      </trkpt>
      <trkpt lat="44.44431" lon="5.15632">
        <ele>877.340576</ele>
        <time>2011-05-19T10:17:48Z</time>
      </trkpt>
      <trkpt lat="44.44421" lon="5.15627">
        <ele>880.224365</ele>
        <time>2011-05-19T10:18:11Z</time>
      </trkpt>
      <trkpt lat="44.44418" lon="5.15622">
        <ele>881.66626</ele>
        <time>2011-05-19T10:18:35Z</time>
      </trkpt>
      <trkpt lat="44.44418" lon="5.15624">
        <ele>882.627686</ele>
        <time>2011-05-19T10:21:44Z</time>
      </trkpt>
      <trkpt lat="44.44417" lon="5.15624">
        <ele>883.108154</ele>
        <time>2011-05-19T10:23:41Z</time>
      </trkpt>
      <trkpt lat="44.44418" lon="5.15618">
        <ele>885.031006</ele>
        <time>2011-05-19T10:24:14Z</time>
      </trkpt>
      <trkpt lat="44.4441" lon="5.15613">
        <ele>887.434082</ele>
        <time>2011-05-19T10:24:28Z</time>
      </trkpt>
      <trkpt lat="44.44403" lon="5.1561">
        <ele>889.837402</ele>
        <time>2011-05-19T10:24:45Z</time>
      </trkpt>
      <trkpt lat="44.44399" lon="5.15605">
        <ele>893.202148</ele>
        <time>2011-05-19T10:25:09Z</time>
      </trkpt>
      <trkpt lat="44.44386" lon="5.15598">
        <ele>896.086182</ele>
        <time>2011-05-19T10:25:33Z</time>
      </trkpt>
      <trkpt lat="44.44384" lon="5.15591">
        <ele>898.489258</ele>
        <time>2011-05-19T10:25:56Z</time>
      </trkpt>
      <trkpt lat="44.44384" lon="5.15585">
        <ele>901.373291</ele>
        <time>2011-05-19T10:26:17Z</time>
      </trkpt>
      <trkpt lat="44.44381" lon="5.15578">
        <ele>902.815186</ele>
        <time>2011-05-19T10:26:33Z</time>
      </trkpt>
      <trkpt lat="44.44372" lon="5.15575">
        <ele>905.218506</ele>
        <time>2011-05-19T10:26:50Z</time>
      </trkpt>
      <trkpt lat="44.44366" lon="5.1557">
        <ele>907.621826</ele>
        <time>2011-05-19T10:27:07Z</time>
      </trkpt>
      <trkpt lat="44.44365" lon="5.15566">
        <ele>909.063965</ele>
        <time>2011-05-19T10:27:19Z</time>
      </trkpt>
      <trkpt lat="44.44362" lon="5.15566">
        <ele>911.467285</ele>
        <time>2011-05-19T10:27:38Z</time>
      </trkpt>
      <trkpt lat="44.44357" lon="5.15562">
        <ele>912.90918</ele>
        <time>2011-05-19T10:27:54Z</time>
      </trkpt>
      <trkpt lat="44.44352" lon="5.15557">
        <ele>914.831787</ele>
        <time>2011-05-19T10:28:08Z</time>
      </trkpt>
      <trkpt lat="44.44344" lon="5.15552">
        <ele>917.715576</ele>
        <time>2011-05-19T10:28:29Z</time>
      </trkpt>
      <trkpt lat="44.44343" lon="5.15544">
        <ele>919.638428</ele>
        <time>2011-05-19T10:28:48Z</time>
      </trkpt>
      <trkpt lat="44.44333" lon="5.15536">
        <ele>922.522217</ele>
        <time>2011-05-19T10:29:29Z</time>
      </trkpt>
      <trkpt lat="44.44325" lon="5.15528">
        <ele>925.40625</ele>
        <time>2011-05-19T10:29:52Z</time>
      </trkpt>
      <trkpt lat="44.44321" lon="5.15525">
        <ele>926.367676</ele>
        <time>2011-05-19T10:30:06Z</time>
      </trkpt>
      <trkpt lat="44.44319" lon="5.15521">
        <ele>927.329102</ele>
        <time>2011-05-19T10:30:24Z</time>
      </trkpt>
      <trkpt lat="44.44312" lon="5.15511">
        <ele>928.770996</ele>
        <time>2011-05-19T10:31:03Z</time>
      </trkpt>
      <trkpt lat="44.44311" lon="5.15509">
        <ele>928.770996</ele>
        <time>2011-05-19T10:31:06Z</time>
      </trkpt>
      <trkpt lat="44.443" lon="5.15497">
        <ele>930.212891</ele>
        <time>2011-05-19T10:31:18Z</time>
      </trkpt>
      <trkpt lat="44.44289" lon="5.15484">
        <ele>931.654785</ele>
        <time>2011-05-19T10:31:36Z</time>
      </trkpt>
      <trkpt lat="44.44285" lon="5.15481">
        <ele>932.616211</ele>
        <time>2011-05-19T10:31:53Z</time>
      </trkpt>
      <trkpt lat="44.44285" lon="5.15478">
        <ele>932.616211</ele>
        <time>2011-05-19T10:32:44Z</time>
      </trkpt>
      <trkpt lat="44.44281" lon="5.15466">
        <ele>932.135498</ele>
        <time>2011-05-19T10:32:59Z</time>
      </trkpt>
      <trkpt lat="44.4428" lon="5.15463">
        <ele>932.135498</ele>
        <time>2011-05-19T10:33:02Z</time>
      </trkpt>
      <trkpt lat="44.44275" lon="5.15454">
        <ele>933.09668</ele>
        <time>2011-05-19T10:33:13Z</time>
      </trkpt>
      <trkpt lat="44.44267" lon="5.1544">
        <ele>934.058105</ele>
        <time>2011-05-19T10:33:27Z</time>
      </trkpt>
      <trkpt lat="44.4426" lon="5.15428">
        <ele>935.5</ele>
        <time>2011-05-19T10:33:42Z</time>
      </trkpt>
      <trkpt lat="44.44255" lon="5.15423">
        <ele>935.5</ele>
        <time>2011-05-19T10:34:00Z</time>
      </trkpt>
      <trkpt lat="44.44252" lon="5.15422">
        <ele>935.5</ele>
        <time>2011-05-19T10:34:25Z</time>
      </trkpt>
      <trkpt lat="44.4425" lon="5.15418">
        <ele>935.019531</ele>
        <time>2011-05-19T10:34:43Z</time>
      </trkpt>
      <trkpt lat="44.44245" lon="5.15412">
        <ele>935.980713</ele>
        <time>2011-05-19T10:35:04Z</time>
      </trkpt>
      <trkpt lat="44.44242" lon="5.154">
        <ele>934.538818</ele>
        <time>2011-05-19T10:35:21Z</time>
      </trkpt>
      <trkpt lat="44.4424" lon="5.15393">
        <ele>935.019531</ele>
        <time>2011-05-19T10:35:45Z</time>
      </trkpt>
      <trkpt lat="44.44236" lon="5.15389">
        <ele>936.461426</ele>
        <time>2011-05-19T10:36:41Z</time>
      </trkpt>
      <trkpt lat="44.44228" lon="5.15377">
        <ele>937.90332</ele>
        <time>2011-05-19T10:36:53Z</time>
      </trkpt>
      <trkpt lat="44.44221" lon="5.15364">
        <ele>938.384033</ele>
        <time>2011-05-19T10:37:05Z</time>
      </trkpt>
      <trkpt lat="44.44213" lon="5.15352">
        <ele>938.384033</ele>
        <time>2011-05-19T10:37:17Z</time>
      </trkpt>
      <trkpt lat="44.44205" lon="5.15341">
        <ele>938.384033</ele>
        <time>2011-05-19T10:37:29Z</time>
      </trkpt>
      <trkpt lat="44.44202" lon="5.15333">
        <ele>937.90332</ele>
        <time>2011-05-19T10:37:36Z</time>
      </trkpt>
      <trkpt lat="44.44195" lon="5.15317">
        <ele>937.422607</ele>
        <time>2011-05-19T10:37:51Z</time>
      </trkpt>
      <trkpt lat="44.44186" lon="5.15304">
        <ele>938.384033</ele>
        <time>2011-05-19T10:38:05Z</time>
      </trkpt>
      <trkpt lat="44.44183" lon="5.15298">
        <ele>937.90332</ele>
        <time>2011-05-19T10:38:11Z</time>
      </trkpt>
      <trkpt lat="44.4418" lon="5.15295">
        <ele>937.90332</ele>
        <time>2011-05-19T10:38:14Z</time>
      </trkpt>
      <trkpt lat="44.4418" lon="5.15293">
        <ele>938.384033</ele>
        <time>2011-05-19T10:38:16Z</time>
      </trkpt>
      <trkpt lat="44.44171" lon="5.15282">
        <ele>938.384033</ele>
        <time>2011-05-19T10:38:29Z</time>
      </trkpt>
      <trkpt lat="44.44167" lon="5.15276">
        <ele>939.345215</ele>
        <time>2011-05-19T10:38:36Z</time>
      </trkpt>
      <trkpt lat="44.4416" lon="5.15264">
        <ele>939.825928</ele>
        <time>2011-05-19T10:38:47Z</time>
      </trkpt>
      <trkpt lat="44.44159" lon="5.15263">
        <ele>939.825928</ele>
        <time>2011-05-19T10:38:48Z</time>
      </trkpt>
      <trkpt lat="44.4415" lon="5.1525">
        <ele>941.268066</ele>
        <time>2011-05-19T10:39:01Z</time>
      </trkpt>
      <trkpt lat="44.44142" lon="5.1524">
        <ele>942.229492</ele>
        <time>2011-05-19T10:39:13Z</time>
      </trkpt>
      <trkpt lat="44.44141" lon="5.1524">
        <ele>942.229492</ele>
        <time>2011-05-19T10:39:14Z</time>
      </trkpt>
      <trkpt lat="44.44135" lon="5.1523">
        <ele>943.190674</ele>
        <time>2011-05-19T10:39:25Z</time>
      </trkpt>
      <trkpt lat="44.44127" lon="5.15219">
        <ele>943.671387</ele>
        <time>2011-05-19T10:39:37Z</time>
      </trkpt>
      <trkpt lat="44.4412" lon="5.15208">
        <ele>944.632568</ele>
        <time>2011-05-19T10:39:52Z</time>
      </trkpt>
      <trkpt lat="44.44115" lon="5.152">
        <ele>945.113281</ele>
        <time>2011-05-19T10:40:06Z</time>
      </trkpt>
      <trkpt lat="44.44112" lon="5.15192">
        <ele>945.113281</ele>
        <time>2011-05-19T10:40:29Z</time>
      </trkpt>
      <trkpt lat="44.44109" lon="5.15185">
        <ele>945.113281</ele>
        <time>2011-05-19T10:40:50Z</time>
      </trkpt>
      <trkpt lat="44.44104" lon="5.1518">
        <ele>946.55542</ele>
        <time>2011-05-19T10:40:57Z</time>
      </trkpt>
      <trkpt lat="44.44101" lon="5.15176">
        <ele>946.55542</ele>
        <time>2011-05-19T10:41:14Z</time>
      </trkpt>
      <trkpt lat="44.44094" lon="5.15164">
        <ele>947.516602</ele>
        <time>2011-05-19T10:41:29Z</time>
      </trkpt>
      <trkpt lat="44.44087" lon="5.15156">
        <ele>948.958496</ele>
        <time>2011-05-19T10:41:44Z</time>
      </trkpt>
      <trkpt lat="44.44083" lon="5.1515">
        <ele>948.477783</ele>
        <time>2011-05-19T10:42:22Z</time>
      </trkpt>
      <trkpt lat="44.44078" lon="5.15143">
        <ele>948.477783</ele>
        <time>2011-05-19T10:42:31Z</time>
      </trkpt>
      <trkpt lat="44.44074" lon="5.1514">
        <ele>948.958496</ele>
        <time>2011-05-19T10:42:49Z</time>
      </trkpt>
      <trkpt lat="44.4407" lon="5.1513">
        <ele>949.439209</ele>
        <time>2011-05-19T10:43:07Z</time>
      </trkpt>
      <trkpt lat="44.44065" lon="5.15117">
        <ele>949.919922</ele>
        <time>2011-05-19T10:43:24Z</time>
      </trkpt>
      <trkpt lat="44.44061" lon="5.15108">
        <ele>949.919922</ele>
        <time>2011-05-19T10:43:39Z</time>
      </trkpt>
      <trkpt lat="44.44057" lon="5.15096">
        <ele>950.400635</ele>
        <time>2011-05-19T10:43:53Z</time>
      </trkpt>
      <trkpt lat="44.44049" lon="5.15083">
        <ele>951.842529</ele>
        <time>2011-05-19T10:44:09Z</time>
      </trkpt>
      <trkpt lat="44.44039" lon="5.15075">
        <ele>953.284424</ele>
        <time>2011-05-19T10:44:23Z</time>
      </trkpt>
      <trkpt lat="44.44029" lon="5.15071">
        <ele>954.726318</ele>
        <time>2011-05-19T10:44:38Z</time>
      </trkpt>
      <trkpt lat="44.44023" lon="5.15057">
        <ele>955.687744</ele>
        <time>2011-05-19T10:44:53Z</time>
      </trkpt>
      <trkpt lat="44.44016" lon="5.15045">
        <ele>956.168457</ele>
        <time>2011-05-19T10:45:06Z</time>
      </trkpt>
      <trkpt lat="44.44007" lon="5.15041">
        <ele>959.05249</ele>
        <time>2011-05-19T10:45:26Z</time>
      </trkpt>
      <trkpt lat="44.43999" lon="5.15036">
        <ele>960.975098</ele>
        <time>2011-05-19T10:45:41Z</time>
      </trkpt>
      <trkpt lat="44.43997" lon="5.15035">
        <ele>961.455811</ele>
        <time>2011-05-19T10:46:00Z</time>
      </trkpt>
      <trkpt lat="44.43994" lon="5.15032">
        <ele>961.936523</ele>
        <time>2011-05-19T10:46:12Z</time>
      </trkpt>
      <trkpt lat="44.43985" lon="5.15025">
        <ele>963.378418</ele>
        <time>2011-05-19T10:46:30Z</time>
      </trkpt>
      <trkpt lat="44.43979" lon="5.15021">
        <ele>963.858887</ele>
        <time>2011-05-19T10:46:44Z</time>
      </trkpt>
      <trkpt lat="44.43973" lon="5.15013">
        <ele>964.3396</ele>
        <time>2011-05-19T10:47:00Z</time>
      </trkpt>
      <trkpt lat="44.43968" lon="5.15007">
        <ele>965.781738</ele>
        <time>2011-05-19T10:47:13Z</time>
      </trkpt>
      <trkpt lat="44.43962" lon="5.15001">
        <ele>966.262207</ele>
        <time>2011-05-19T10:47:26Z</time>
      </trkpt>
      <trkpt lat="44.43957" lon="5.14993">
        <ele>967.223633</ele>
        <time>2011-05-19T10:47:39Z</time>
      </trkpt>
      <trkpt lat="44.43951" lon="5.1499">
        <ele>967.704102</ele>
        <time>2011-05-19T10:47:52Z</time>
      </trkpt>
      <trkpt lat="44.43943" lon="5.14979">
        <ele>968.665527</ele>
        <time>2011-05-19T10:48:05Z</time>
      </trkpt>
      <trkpt lat="44.43936" lon="5.14968">
        <ele>969.14624</ele>
        <time>2011-05-19T10:48:18Z</time>
      </trkpt>
      <trkpt lat="44.43927" lon="5.14953">
        <ele>968.665527</ele>
        <time>2011-05-19T10:48:36Z</time>
      </trkpt>
      <trkpt lat="44.43921" lon="5.14943">
        <ele>968.665527</ele>
        <time>2011-05-19T10:48:49Z</time>
      </trkpt>
      <trkpt lat="44.43914" lon="5.14931">
        <ele>968.184814</ele>
        <time>2011-05-19T10:49:02Z</time>
      </trkpt>
      <trkpt lat="44.43901" lon="5.14927">
        <ele>968.665527</ele>
        <time>2011-05-19T10:49:15Z</time>
      </trkpt>
      <trkpt lat="44.43893" lon="5.14924">
        <ele>969.14624</ele>
        <time>2011-05-19T10:49:36Z</time>
      </trkpt>
      <trkpt lat="44.43886" lon="5.14918">
        <ele>969.14624</ele>
        <time>2011-05-19T10:49:59Z</time>
      </trkpt>
      <trkpt lat="44.43879" lon="5.14912">
        <ele>968.665527</ele>
        <time>2011-05-19T10:50:16Z</time>
      </trkpt>
      <trkpt lat="44.43874" lon="5.14909">
        <ele>968.665527</ele>
        <time>2011-05-19T10:50:35Z</time>
      </trkpt>
      <trkpt lat="44.43871" lon="5.14909">
        <ele>968.665527</ele>
        <time>2011-05-19T10:51:11Z</time>
      </trkpt>
      <trkpt lat="44.43872" lon="5.14899">
        <ele>966.74292</ele>
        <time>2011-05-19T10:51:37Z</time>
      </trkpt>
      <trkpt lat="44.43871" lon="5.14883">
        <ele>963.858887</ele>
        <time>2011-05-19T10:51:58Z</time>
      </trkpt>
      <trkpt lat="44.43867" lon="5.14872">
        <ele>961.936523</ele>
        <time>2011-05-19T10:52:14Z</time>
      </trkpt>
      <trkpt lat="44.43854" lon="5.14864">
        <ele>960.975098</ele>
        <time>2011-05-19T10:52:30Z</time>
      </trkpt>
      <trkpt lat="44.43843" lon="5.14857">
        <ele>960.013672</ele>
        <time>2011-05-19T10:52:45Z</time>
      </trkpt>
      <trkpt lat="44.43836" lon="5.14856">
        <ele>960.013672</ele>
        <time>2011-05-19T10:52:54Z</time>
      </trkpt>
      <trkpt lat="44.43823" lon="5.1486">
        <ele>960.975098</ele>
        <time>2011-05-19T10:53:10Z</time>
      </trkpt>
      <trkpt lat="44.4382" lon="5.14859">
        <ele>960.975098</ele>
        <time>2011-05-19T10:53:14Z</time>
      </trkpt>
      <trkpt lat="44.43811" lon="5.14852">
        <ele>961.455811</ele>
        <time>2011-05-19T10:53:28Z</time>
      </trkpt>
      <trkpt lat="44.43808" lon="5.14848">
        <ele>961.936523</ele>
        <time>2011-05-19T10:53:31Z</time>
      </trkpt>
      <trkpt lat="44.43805" lon="5.14846">
        <ele>961.936523</ele>
        <time>2011-05-19T10:53:34Z</time>
      </trkpt>
      <trkpt lat="44.43806" lon="5.14833">
        <ele>962.897705</ele>
        <time>2011-05-19T10:53:44Z</time>
      </trkpt>
      <trkpt lat="44.4381" lon="5.14807">
        <ele>964.3396</ele>
        <time>2011-05-19T10:54:05Z</time>
      </trkpt>
      <trkpt lat="44.43808" lon="5.14788">
        <ele>965.781738</ele>
        <time>2011-05-19T10:54:21Z</time>
      </trkpt>
      <trkpt lat="44.43803" lon="5.1477">
        <ele>966.74292</ele>
        <time>2011-05-19T10:54:42Z</time>
      </trkpt>
      <trkpt lat="44.43798" lon="5.1476">
        <ele>967.223633</ele>
        <time>2011-05-19T10:54:57Z</time>
      </trkpt>
      <trkpt lat="44.4379" lon="5.14755">
        <ele>969.14624</ele>
        <time>2011-05-19T10:55:14Z</time>
      </trkpt>
      <trkpt lat="44.43785" lon="5.1475">
        <ele>970.107422</ele>
        <time>2011-05-19T10:55:31Z</time>
      </trkpt>
      <trkpt lat="44.43788" lon="5.14743">
        <ele>972.030273</ele>
        <time>2011-05-19T10:55:44Z</time>
      </trkpt>
      <trkpt lat="44.43784" lon="5.14736">
        <ele>973.952881</ele>
        <time>2011-05-19T10:56:01Z</time>
      </trkpt>
      <trkpt lat="44.4378" lon="5.14733">
        <ele>975.394775</ele>
        <time>2011-05-19T10:56:21Z</time>
      </trkpt>
      <trkpt lat="44.43775" lon="5.1473">
        <ele>977.317627</ele>
        <time>2011-05-19T10:56:34Z</time>
      </trkpt>
      <trkpt lat="44.43769" lon="5.14724">
        <ele>979.720703</ele>
        <time>2011-05-19T10:56:52Z</time>
      </trkpt>
      <trkpt lat="44.4377" lon="5.14717">
        <ele>981.643311</ele>
        <time>2011-05-19T10:57:12Z</time>
      </trkpt>
      <trkpt lat="44.43765" lon="5.14709">
        <ele>983.565918</ele>
        <time>2011-05-19T10:57:33Z</time>
      </trkpt>
      <trkpt lat="44.43763" lon="5.14698">
        <ele>985.969238</ele>
        <time>2011-05-19T10:58:00Z</time>
      </trkpt>
      <trkpt lat="44.43765" lon="5.14698">
        <ele>985.969238</ele>
        <time>2011-05-19T10:58:48Z</time>
      </trkpt>
      <trkpt lat="44.43761" lon="5.14695">
        <ele>988.372803</ele>
        <time>2011-05-19T11:00:22Z</time>
      </trkpt>
      <trkpt lat="44.43756" lon="5.14699">
        <ele>989.333984</ele>
        <time>2011-05-19T11:00:44Z</time>
      </trkpt>
      <trkpt lat="44.43751" lon="5.14701">
        <ele>991.737305</ele>
        <time>2011-05-19T11:01:03Z</time>
      </trkpt>
      <trkpt lat="44.43748" lon="5.14708">
        <ele>994.140625</ele>
        <time>2011-05-19T11:01:20Z</time>
      </trkpt>
      <trkpt lat="44.43744" lon="5.14714">
        <ele>995.101807</ele>
        <time>2011-05-19T11:01:37Z</time>
      </trkpt>
      <trkpt lat="44.4374" lon="5.1472">
        <ele>997.505127</ele>
        <time>2011-05-19T11:02:05Z</time>
      </trkpt>
      <trkpt lat="44.43739" lon="5.14726">
        <ele>998.947021</ele>
        <time>2011-05-19T11:02:33Z</time>
      </trkpt>
      <trkpt lat="44.43733" lon="5.14737">
        <ele>999.427734</ele>
        <time>2011-05-19T11:02:53Z</time>
      </trkpt>
      <trkpt lat="44.43733" lon="5.14735">
        <ele>1001.350342</ele>
        <time>2011-05-19T11:03:09Z</time>
      </trkpt>
      <trkpt lat="44.43734" lon="5.14733">
        <ele>1002.792236</ele>
        <time>2011-05-19T11:03:29Z</time>
      </trkpt>
      <trkpt lat="44.43734" lon="5.14729">
        <ele>1004.234619</ele>
        <time>2011-05-19T11:03:50Z</time>
      </trkpt>
      <trkpt lat="44.43733" lon="5.14727">
        <ele>1005.676514</ele>
        <time>2011-05-19T11:04:06Z</time>
      </trkpt>
      <trkpt lat="44.4373" lon="5.14725">
        <ele>1007.599121</ele>
        <time>2011-05-19T11:04:21Z</time>
      </trkpt>
      <trkpt lat="44.43728" lon="5.14726">
        <ele>1008.560303</ele>
        <time>2011-05-19T11:04:52Z</time>
      </trkpt>
      <trkpt lat="44.43727" lon="5.14724">
        <ele>1010.002197</ele>
        <time>2011-05-19T11:05:17Z</time>
      </trkpt>
      <trkpt lat="44.43729" lon="5.14716">
        <ele>1012.405518</ele>
        <time>2011-05-19T11:05:36Z</time>
      </trkpt>
      <trkpt lat="44.43725" lon="5.14714">
        <ele>1014.328125</ele>
        <time>2011-05-19T11:05:51Z</time>
      </trkpt>
      <trkpt lat="44.43726" lon="5.14709">
        <ele>1016.731445</ele>
        <time>2011-05-19T11:06:06Z</time>
      </trkpt>
      <trkpt lat="44.43732" lon="5.14702">
        <ele>1016.731445</ele>
        <time>2011-05-19T11:06:20Z</time>
      </trkpt>
      <trkpt lat="44.43736" lon="5.14692">
        <ele>1018.17334</ele>
        <time>2011-05-19T11:06:35Z</time>
      </trkpt>
      <trkpt lat="44.43737" lon="5.14687">
        <ele>1019.615479</ele>
        <time>2011-05-19T11:06:52Z</time>
      </trkpt>
      <trkpt lat="44.4374" lon="5.14675">
        <ele>1021.057617</ele>
        <time>2011-05-19T11:07:18Z</time>
      </trkpt>
      <trkpt lat="44.43739" lon="5.14667">
        <ele>1024.422119</ele>
        <time>2011-05-19T11:07:34Z</time>
      </trkpt>
      <trkpt lat="44.43739" lon="5.14669">
        <ele>1023.460938</ele>
        <time>2011-05-19T11:07:50Z</time>
      </trkpt>
      <trkpt lat="44.43739" lon="5.14671">
        <ele>1022.499512</ele>
        <time>2011-05-19T11:08:08Z</time>
      </trkpt>
      <trkpt lat="44.43734" lon="5.14682">
        <ele>1022.499512</ele>
        <time>2011-05-19T11:08:21Z</time>
      </trkpt>
      <trkpt lat="44.43731" lon="5.14685">
        <ele>1022.980225</ele>
        <time>2011-05-19T11:08:25Z</time>
      </trkpt>
      <trkpt lat="44.4372" lon="5.14694">
        <ele>1024.902832</ele>
        <time>2011-05-19T11:08:39Z</time>
      </trkpt>
      <trkpt lat="44.43718" lon="5.14691">
        <ele>1027.786621</ele>
        <time>2011-05-19T11:08:53Z</time>
      </trkpt>
      <trkpt lat="44.43723" lon="5.1468">
        <ele>1029.709229</ele>
        <time>2011-05-19T11:09:09Z</time>
      </trkpt>
      <trkpt lat="44.43721" lon="5.14673">
        <ele>1032.112549</ele>
        <time>2011-05-19T11:09:26Z</time>
      </trkpt>
      <trkpt lat="44.4372" lon="5.14673">
        <ele>1034.035156</ele>
        <time>2011-05-19T11:10:07Z</time>
      </trkpt>
      <trkpt lat="44.4372" lon="5.14673">
        <ele>1034.515869</ele>
        <time>2011-05-19T11:10:34Z</time>
      </trkpt>
      <trkpt lat="44.43721" lon="5.14666">
        <ele>1036.919189</ele>
        <time>2011-05-19T11:10:51Z</time>
      </trkpt>
      <trkpt lat="44.43721" lon="5.14659">
        <ele>1039.803223</ele>
        <time>2011-05-19T11:11:11Z</time>
      </trkpt>
      <trkpt lat="44.43722" lon="5.1465">
        <ele>1042.687256</ele>
        <time>2011-05-19T11:11:25Z</time>
      </trkpt>
      <trkpt lat="44.43721" lon="5.14645">
        <ele>1044.12915</ele>
        <time>2011-05-19T11:11:45Z</time>
      </trkpt>
      <trkpt lat="44.43718" lon="5.14638">
        <ele>1047.493652</ele>
        <time>2011-05-19T11:12:47Z</time>
      </trkpt>
      <trkpt lat="44.43715" lon="5.14641">
        <ele>1048.454834</ele>
        <time>2011-05-19T11:13:10Z</time>
      </trkpt>
      <trkpt lat="44.4371" lon="5.14647">
        <ele>1049.896973</ele>
        <time>2011-05-19T11:13:32Z</time>
      </trkpt>
      <trkpt lat="44.43708" lon="5.14648">
        <ele>1051.338867</ele>
        <time>2011-05-19T11:13:57Z</time>
      </trkpt>
      <trkpt lat="44.43699" lon="5.14646">
        <ele>1054.223145</ele>
        <time>2011-05-19T11:14:11Z</time>
      </trkpt>
      <trkpt lat="44.437" lon="5.14643">
        <ele>1057.106934</ele>
        <time>2011-05-19T11:14:27Z</time>
      </trkpt>
      <trkpt lat="44.437" lon="5.14636">
        <ele>1059.990723</ele>
        <time>2011-05-19T11:14:57Z</time>
      </trkpt>
      <trkpt lat="44.43698" lon="5.14628">
        <ele>1062.874756</ele>
        <time>2011-05-19T11:15:18Z</time>
      </trkpt>
      <trkpt lat="44.43698" lon="5.14619">
        <ele>1065.758789</ele>
        <time>2011-05-19T11:15:42Z</time>
      </trkpt>
      <trkpt lat="44.43695" lon="5.14609">
        <ele>1068.642822</ele>
        <time>2011-05-19T11:16:24Z</time>
      </trkpt>
      <trkpt lat="44.43685" lon="5.14604">
        <ele>1071.046143</ele>
        <time>2011-05-19T11:16:45Z</time>
      </trkpt>
      <trkpt lat="44.43674" lon="5.14598">
        <ele>1072.007324</ele>
        <time>2011-05-19T11:17:05Z</time>
      </trkpt>
      <trkpt lat="44.43666" lon="5.14594">
        <ele>1072.488037</ele>
        <time>2011-05-19T11:17:30Z</time>
      </trkpt>
      <trkpt lat="44.43671" lon="5.14597">
        <ele>1072.488037</ele>
        <time>2011-05-19T11:18:04Z</time>
      </trkpt>
      <trkpt lat="44.43673" lon="5.14597">
        <ele>1072.007324</ele>
        <time>2011-05-19T11:18:26Z</time>
      </trkpt>
      <trkpt lat="44.43669" lon="5.14596">
        <ele>1072.488037</ele>
        <time>2011-05-19T11:19:05Z</time>
      </trkpt>
      <trkpt lat="44.43668" lon="5.14596">
        <ele>1072.488037</ele>
        <time>2011-05-19T11:19:41Z</time>
      </trkpt>
      <trkpt lat="44.43668" lon="5.14596">
        <ele>1072.96875</ele>
        <time>2011-05-19T11:20:36Z</time>
      </trkpt>
      <trkpt lat="44.43668" lon="5.14595">
        <ele>1072.96875</ele>
        <time>2011-05-19T11:22:13Z</time>
      </trkpt>
      <trkpt lat="44.43667" lon="5.14598">
        <ele>1073.449463</ele>
        <time>2011-05-19T11:23:45Z</time>
      </trkpt>
      <trkpt lat="44.43667" lon="5.14598">
        <ele>1072.96875</ele>
        <time>2011-05-19T11:24:25Z</time>
      </trkpt>
      <trkpt lat="44.43667" lon="5.14597">
        <ele>1068.162109</ele>
        <time>2011-05-19T11:24:39Z</time>
      </trkpt>
      <trkpt lat="44.43667" lon="5.14597">
        <ele>1072.007324</ele>
        <time>2011-05-19T11:24:41Z</time>
      </trkpt>
      <trkpt lat="44.43667" lon="5.14598">
        <ele>1072.96875</ele>
        <time>2011-05-19T11:26:22Z</time>
      </trkpt>
      <trkpt lat="44.4366" lon="5.14597">
        <ele>1073.929932</ele>
        <time>2011-05-19T11:27:48Z</time>
      </trkpt>
      <trkpt lat="44.43643" lon="5.14593">
        <ele>1074.891357</ele>
        <time>2011-05-19T11:28:12Z</time>
      </trkpt>
      <trkpt lat="44.43629" lon="5.14592">
        <ele>1076.333252</ele>
        <time>2011-05-19T11:28:31Z</time>
      </trkpt>
      <trkpt lat="44.43609" lon="5.14587">
        <ele>1076.813965</ele>
        <time>2011-05-19T11:28:58Z</time>
      </trkpt>
      <trkpt lat="44.43588" lon="5.14583">
        <ele>1077.775146</ele>
        <time>2011-05-19T11:29:23Z</time>
      </trkpt>
      <trkpt lat="44.43562" lon="5.14581">
        <ele>1078.255859</ele>
        <time>2011-05-19T11:29:52Z</time>
      </trkpt>
      <trkpt lat="44.43544" lon="5.14579">
        <ele>1079.697754</ele>
        <time>2011-05-19T11:30:12Z</time>
      </trkpt>
      <trkpt lat="44.43521" lon="5.14576">
        <ele>1081.139893</ele>
        <time>2011-05-19T11:30:37Z</time>
      </trkpt>
      <trkpt lat="44.43513" lon="5.14576">
        <ele>1081.620361</ele>
        <time>2011-05-19T11:30:54Z</time>
      </trkpt>
      <trkpt lat="44.43501" lon="5.14575">
        <ele>1083.062256</ele>
        <time>2011-05-19T11:31:10Z</time>
      </trkpt>
      <trkpt lat="44.43486" lon="5.1457">
        <ele>1085.46582</ele>
        <time>2011-05-19T11:31:31Z</time>
      </trkpt>
      <trkpt lat="44.43466" lon="5.1456">
        <ele>1087.388428</ele>
        <time>2011-05-19T11:31:55Z</time>
      </trkpt>
      <trkpt lat="44.43451" lon="5.14553">
        <ele>1089.311035</ele>
        <time>2011-05-19T11:32:16Z</time>
      </trkpt>
      <trkpt lat="44.4343" lon="5.14541">
        <ele>1090.272461</ele>
        <time>2011-05-19T11:32:42Z</time>
      </trkpt>
      <trkpt lat="44.43431" lon="5.14541">
        <ele>1084.504639</ele>
        <time>2011-05-19T11:32:53Z</time>
      </trkpt>
      <trkpt lat="44.4343" lon="5.14542">
        <ele>1079.697754</ele>
        <time>2011-05-19T11:32:54Z</time>
      </trkpt>
      <trkpt lat="44.43431" lon="5.14543">
        <ele>1089.791748</ele>
        <time>2011-05-19T11:32:55Z</time>
      </trkpt>
      <trkpt lat="44.43431" lon="5.14543">
        <ele>1086.427246</ele>
        <time>2011-05-19T11:32:56Z</time>
      </trkpt>
      <trkpt lat="44.43431" lon="5.14544">
        <ele>1091.714355</ele>
        <time>2011-05-19T11:32:57Z</time>
      </trkpt>
      <trkpt lat="44.43431" lon="5.14544">
        <ele>1088.349854</ele>
        <time>2011-05-19T11:32:59Z</time>
      </trkpt>
      <trkpt lat="44.43432" lon="5.14542">
        <ele>1087.869141</ele>
        <time>2011-05-19T11:33:07Z</time>
      </trkpt>
      <trkpt lat="44.43433" lon="5.14542">
        <ele>1092.195068</ele>
        <time>2011-05-19T11:33:11Z</time>
      </trkpt>
      <trkpt lat="44.43434" lon="5.14544">
        <ele>1089.311035</ele>
        <time>2011-05-19T11:33:12Z</time>
      </trkpt>
      <trkpt lat="44.43433" lon="5.14545">
        <ele>1084.023926</ele>
        <time>2011-05-19T11:33:14Z</time>
      </trkpt>
      <trkpt lat="44.43434" lon="5.14544">
        <ele>1091.714355</ele>
        <time>2011-05-19T11:33:15Z</time>
      </trkpt>
      <trkpt lat="44.43426" lon="5.14533">
        <ele>1089.791748</ele>
        <time>2011-05-19T11:33:30Z</time>
      </trkpt>
      <trkpt lat="44.43419" lon="5.14527">
        <ele>1089.791748</ele>
        <time>2011-05-19T11:33:39Z</time>
      </trkpt>
      <trkpt lat="44.43405" lon="5.14516">
        <ele>1089.791748</ele>
        <time>2011-05-19T11:33:55Z</time>
      </trkpt>
      <trkpt lat="44.43402" lon="5.14512">
        <ele>1089.791748</ele>
        <time>2011-05-19T11:33:58Z</time>
      </trkpt>
      <trkpt lat="44.43394" lon="5.14505">
        <ele>1090.272461</ele>
        <time>2011-05-19T11:34:12Z</time>
      </trkpt>
      <trkpt lat="44.43389" lon="5.14501">
        <ele>1090.272461</ele>
        <time>2011-05-19T11:34:27Z</time>
      </trkpt>
      <trkpt lat="44.43387" lon="5.14502">
        <ele>1057.106934</ele>
        <time>2011-05-19T11:34:40Z</time>
      </trkpt>
      <trkpt lat="44.43387" lon="5.14501">
        <ele>1089.791748</ele>
        <time>2011-05-19T11:34:41Z</time>
      </trkpt>
      <trkpt lat="44.43388" lon="5.14502">
        <ele>1086.427246</ele>
        <time>2011-05-19T11:34:47Z</time>
      </trkpt>
      <trkpt lat="44.43388" lon="5.14502">
        <ele>1089.791748</ele>
        <time>2011-05-19T11:34:48Z</time>
      </trkpt>
      <trkpt lat="44.43389" lon="5.14503">
        <ele>1081.139893</ele>
        <time>2011-05-19T11:34:58Z</time>
      </trkpt>
      <trkpt lat="44.43389" lon="5.145">
        <ele>1087.388428</ele>
        <time>2011-05-19T11:34:59Z</time>
      </trkpt>
      <trkpt lat="44.43386" lon="5.14503">
        <ele>1089.791748</ele>
        <time>2011-05-19T11:35:01Z</time>
      </trkpt>
      <trkpt lat="44.43379" lon="5.14494">
        <ele>1089.791748</ele>
        <time>2011-05-19T11:35:16Z</time>
      </trkpt>
      <trkpt lat="44.43369" lon="5.14484">
        <ele>1077.775146</ele>
        <time>2011-05-19T11:35:33Z</time>
      </trkpt>
      <trkpt lat="44.43368" lon="5.14483">
        <ele>1089.311035</ele>
        <time>2011-05-19T11:35:34Z</time>
      </trkpt>
      <trkpt lat="44.43367" lon="5.14481">
        <ele>1090.272461</ele>
        <time>2011-05-19T11:35:36Z</time>
      </trkpt>
      <trkpt lat="44.43353" lon="5.14462">
        <ele>1089.311035</ele>
        <time>2011-05-19T11:35:58Z</time>
      </trkpt>
      <trkpt lat="44.4334" lon="5.14442">
        <ele>1088.830566</ele>
        <time>2011-05-19T11:36:19Z</time>
      </trkpt>
      <trkpt lat="44.43325" lon="5.14423">
        <ele>1088.349854</ele>
        <time>2011-05-19T11:36:40Z</time>
      </trkpt>
      <trkpt lat="44.43314" lon="5.14404">
        <ele>1086.907715</ele>
        <time>2011-05-19T11:37:00Z</time>
      </trkpt>
      <trkpt lat="44.43305" lon="5.14395">
        <ele>1086.427246</ele>
        <time>2011-05-19T11:37:13Z</time>
      </trkpt>
      <trkpt lat="44.43289" lon="5.14372">
        <ele>1084.985352</ele>
        <time>2011-05-19T11:37:35Z</time>
      </trkpt>
      <trkpt lat="44.43275" lon="5.14352">
        <ele>1083.542969</ele>
        <time>2011-05-19T11:37:57Z</time>
      </trkpt>
      <trkpt lat="44.43265" lon="5.14339">
        <ele>1081.620361</ele>
        <time>2011-05-19T11:38:22Z</time>
      </trkpt>
      <trkpt lat="44.43265" lon="5.14335">
        <ele>1082.101074</ele>
        <time>2011-05-19T11:38:45Z</time>
      </trkpt>
      <trkpt lat="44.43256" lon="5.14329">
        <ele>1080.178467</ele>
        <time>2011-05-19T11:39:01Z</time>
      </trkpt>
      <trkpt lat="44.43243" lon="5.14309">
        <ele>1077.294678</ele>
        <time>2011-05-19T11:39:21Z</time>
      </trkpt>
      <trkpt lat="44.43229" lon="5.14298">
        <ele>1074.410645</ele>
        <time>2011-05-19T11:39:40Z</time>
      </trkpt>
      <trkpt lat="44.43217" lon="5.14287">
        <ele>1072.488037</ele>
        <time>2011-05-19T11:39:56Z</time>
      </trkpt>
      <trkpt lat="44.43199" lon="5.14279">
        <ele>1070.084717</ele>
        <time>2011-05-19T11:40:18Z</time>
      </trkpt>
      <trkpt lat="44.43196" lon="5.14279">
        <ele>1069.604248</ele>
        <time>2011-05-19T11:40:21Z</time>
      </trkpt>
      <trkpt lat="44.43172" lon="5.14265">
        <ele>1069.604248</ele>
        <time>2011-05-19T11:40:47Z</time>
      </trkpt>
      <trkpt lat="44.4317" lon="5.14261">
        <ele>1070.084717</ele>
        <time>2011-05-19T11:41:09Z</time>
      </trkpt>
      <trkpt lat="44.43161" lon="5.14257">
        <ele>1072.007324</ele>
        <time>2011-05-19T11:41:32Z</time>
      </trkpt>
      <trkpt lat="44.43157" lon="5.14253">
        <ele>1072.96875</ele>
        <time>2011-05-19T11:41:50Z</time>
      </trkpt>
      <trkpt lat="44.43157" lon="5.14254">
        <ele>1072.007324</ele>
        <time>2011-05-19T11:42:08Z</time>
      </trkpt>
      <trkpt lat="44.4315" lon="5.1425">
        <ele>1073.929932</ele>
        <time>2011-05-19T11:42:52Z</time>
      </trkpt>
      <trkpt lat="44.43136" lon="5.14243">
        <ele>1077.294678</ele>
        <time>2011-05-19T11:43:10Z</time>
      </trkpt>
      <trkpt lat="44.43124" lon="5.14237">
        <ele>1080.178467</ele>
        <time>2011-05-19T11:43:25Z</time>
      </trkpt>
      <trkpt lat="44.43111" lon="5.1423">
        <ele>1083.542969</ele>
        <time>2011-05-19T11:43:44Z</time>
      </trkpt>
      <trkpt lat="44.431" lon="5.14224">
        <ele>1086.907715</ele>
        <time>2011-05-19T11:44:01Z</time>
      </trkpt>
      <trkpt lat="44.43087" lon="5.14216">
        <ele>1090.272461</ele>
        <time>2011-05-19T11:44:23Z</time>
      </trkpt>
      <trkpt lat="44.43075" lon="5.14204">
        <ele>1093.15625</ele>
        <time>2011-05-19T11:44:42Z</time>
      </trkpt>
      <trkpt lat="44.43067" lon="5.14203">
        <ele>1096.520996</ele>
        <time>2011-05-19T11:44:56Z</time>
      </trkpt>
      <trkpt lat="44.43059" lon="5.142">
        <ele>1099.885498</ele>
        <time>2011-05-19T11:45:09Z</time>
      </trkpt>
      <trkpt lat="44.43052" lon="5.14198">
        <ele>1102.769531</ele>
        <time>2011-05-19T11:45:23Z</time>
      </trkpt>
      <trkpt lat="44.4304" lon="5.14195">
        <ele>1106.134033</ele>
        <time>2011-05-19T11:45:47Z</time>
      </trkpt>
      <trkpt lat="44.43034" lon="5.14189">
        <ele>1108.537354</ele>
        <time>2011-05-19T11:46:13Z</time>
      </trkpt>
      <trkpt lat="44.43029" lon="5.14186">
        <ele>1110.940674</ele>
        <time>2011-05-19T11:46:40Z</time>
      </trkpt>
      <trkpt lat="44.4302" lon="5.14182">
        <ele>1114.305176</ele>
        <time>2011-05-19T11:47:18Z</time>
      </trkpt>
      <trkpt lat="44.43013" lon="5.14178">
        <ele>1117.669922</ele>
        <time>2011-05-19T11:47:35Z</time>
      </trkpt>
      <trkpt lat="44.43008" lon="5.14175">
        <ele>1119.112061</ele>
        <time>2011-05-19T11:48:01Z</time>
      </trkpt>
      <trkpt lat="44.43008" lon="5.14175">
        <ele>1119.592773</ele>
        <time>2011-05-19T11:48:29Z</time>
      </trkpt>
      <trkpt lat="44.43" lon="5.1417">
        <ele>1122.476563</ele>
        <time>2011-05-19T11:49:02Z</time>
      </trkpt>
      <trkpt lat="44.42993" lon="5.14164">
        <ele>1125.841064</ele>
        <time>2011-05-19T11:49:20Z</time>
      </trkpt>
      <trkpt lat="44.42991" lon="5.14162">
        <ele>1128.244385</ele>
        <time>2011-05-19T11:49:30Z</time>
      </trkpt>
      <trkpt lat="44.42979" lon="5.14166">
        <ele>1131.128418</ele>
        <time>2011-05-19T11:49:52Z</time>
      </trkpt>
      <trkpt lat="44.42972" lon="5.14167">
        <ele>1133.531738</ele>
        <time>2011-05-19T11:50:13Z</time>
      </trkpt>
      <trkpt lat="44.4296" lon="5.14166">
        <ele>1136.415771</ele>
        <time>2011-05-19T11:50:38Z</time>
      </trkpt>
      <trkpt lat="44.42958" lon="5.14167">
        <ele>1138.338379</ele>
        <time>2011-05-19T11:51:14Z</time>
      </trkpt>
      <trkpt lat="44.42948" lon="5.14168">
        <ele>1141.702881</ele>
        <time>2011-05-19T11:51:34Z</time>
      </trkpt>
      <trkpt lat="44.42938" lon="5.14165">
        <ele>1144.106201</ele>
        <time>2011-05-19T11:52:00Z</time>
      </trkpt>
      <trkpt lat="44.42931" lon="5.1416">
        <ele>1146.509521</ele>
        <time>2011-05-19T11:52:35Z</time>
      </trkpt>
      <trkpt lat="44.42923" lon="5.14157">
        <ele>1148.432129</ele>
        <time>2011-05-19T11:52:59Z</time>
      </trkpt>
      <trkpt lat="44.42917" lon="5.14156">
        <ele>1150.35498</ele>
        <time>2011-05-19T11:53:22Z</time>
      </trkpt>
      <trkpt lat="44.42909" lon="5.1415">
        <ele>1152.758057</ele>
        <time>2011-05-19T11:53:47Z</time>
      </trkpt>
      <trkpt lat="44.429" lon="5.14146">
        <ele>1155.64209</ele>
        <time>2011-05-19T11:54:10Z</time>
      </trkpt>
      <trkpt lat="44.42894" lon="5.14146">
        <ele>1158.04541</ele>
        <time>2011-05-19T11:54:32Z</time>
      </trkpt>
      <trkpt lat="44.42887" lon="5.14147">
        <ele>1159.006592</ele>
        <time>2011-05-19T11:54:52Z</time>
      </trkpt>
      <trkpt lat="44.42875" lon="5.14144">
        <ele>1161.409912</ele>
        <time>2011-05-19T11:55:18Z</time>
      </trkpt>
      <trkpt lat="44.4287" lon="5.14145">
        <ele>1162.851807</ele>
        <time>2011-05-19T11:55:39Z</time>
      </trkpt>
      <trkpt lat="44.42865" lon="5.14144">
        <ele>1164.293945</ele>
        <time>2011-05-19T11:56:07Z</time>
      </trkpt>
      <trkpt lat="44.4286" lon="5.14145">
        <ele>1166.216553</ele>
        <time>2011-05-19T11:56:38Z</time>
      </trkpt>
      <trkpt lat="44.42848" lon="5.14146">
        <ele>1169.100586</ele>
        <time>2011-05-19T11:56:56Z</time>
      </trkpt>
      <trkpt lat="44.42842" lon="5.14147">
        <ele>1171.023193</ele>
        <time>2011-05-19T11:57:23Z</time>
      </trkpt>
      <trkpt lat="44.42832" lon="5.14149">
        <ele>1173.426514</ele>
        <time>2011-05-19T11:57:49Z</time>
      </trkpt>
      <trkpt lat="44.42822" lon="5.14154">
        <ele>1176.310303</ele>
        <time>2011-05-19T11:58:08Z</time>
      </trkpt>
      <trkpt lat="44.42818" lon="5.14155">
        <ele>1177.752197</ele>
        <time>2011-05-19T11:58:28Z</time>
      </trkpt>
      <trkpt lat="44.42812" lon="5.14157">
        <ele>1179.674805</ele>
        <time>2011-05-19T11:59:05Z</time>
      </trkpt>
      <trkpt lat="44.42805" lon="5.14161">
        <ele>1181.597656</ele>
        <time>2011-05-19T11:59:29Z</time>
      </trkpt>
      <trkpt lat="44.42804" lon="5.14161">
        <ele>1182.559082</ele>
        <time>2011-05-19T12:00:41Z</time>
      </trkpt>
      <trkpt lat="44.42793" lon="5.1416">
        <ele>1184.962402</ele>
        <time>2011-05-19T12:02:11Z</time>
      </trkpt>
      <trkpt lat="44.42783" lon="5.14161">
        <ele>1188.326904</ele>
        <time>2011-05-19T12:02:28Z</time>
      </trkpt>
      <trkpt lat="44.42774" lon="5.14152">
        <ele>1191.210693</ele>
        <time>2011-05-19T12:02:46Z</time>
      </trkpt>
      <trkpt lat="44.42765" lon="5.14145">
        <ele>1194.094727</ele>
        <time>2011-05-19T12:03:03Z</time>
      </trkpt>
      <trkpt lat="44.42756" lon="5.1414">
        <ele>1196.97876</ele>
        <time>2011-05-19T12:03:30Z</time>
      </trkpt>
      <trkpt lat="44.4275" lon="5.14135">
        <ele>1198.901367</ele>
        <time>2011-05-19T12:03:58Z</time>
      </trkpt>
      <trkpt lat="44.42749" lon="5.14136">
        <ele>1198.901367</ele>
        <time>2011-05-19T12:04:32Z</time>
      </trkpt>
      <trkpt lat="44.42747" lon="5.14134">
        <ele>1199.862793</ele>
        <time>2011-05-19T12:05:48Z</time>
      </trkpt>
      <trkpt lat="44.42737" lon="5.14128">
        <ele>1203.227295</ele>
        <time>2011-05-19T12:06:04Z</time>
      </trkpt>
      <trkpt lat="44.42726" lon="5.14126">
        <ele>1206.111084</ele>
        <time>2011-05-19T12:06:19Z</time>
      </trkpt>
      <trkpt lat="44.42715" lon="5.1413">
        <ele>1208.995117</ele>
        <time>2011-05-19T12:06:35Z</time>
      </trkpt>
      <trkpt lat="44.42714" lon="5.14129">
        <ele>1209.47583</ele>
        <time>2011-05-19T12:06:36Z</time>
      </trkpt>
      <trkpt lat="44.42711" lon="5.14129">
        <ele>1210.437012</ele>
        <time>2011-05-19T12:06:40Z</time>
      </trkpt>
      <trkpt lat="44.42701" lon="5.14135">
        <ele>1212.359863</ele>
        <time>2011-05-19T12:06:52Z</time>
      </trkpt>
      <trkpt lat="44.42697" lon="5.1413">
        <ele>1213.801758</ele>
        <time>2011-05-19T12:07:04Z</time>
      </trkpt>
      <trkpt lat="44.42696" lon="5.14124">
        <ele>1213.801758</ele>
        <time>2011-05-19T12:07:18Z</time>
      </trkpt>
      <trkpt lat="44.42694" lon="5.14122">
        <ele>1213.801758</ele>
        <time>2011-05-19T12:07:58Z</time>
      </trkpt>
      <trkpt lat="44.42695" lon="5.1413">
        <ele>1214.282471</ele>
        <time>2011-05-19T12:09:56Z</time>
      </trkpt>
      <trkpt lat="44.42684" lon="5.1414">
        <ele>1215.243896</ele>
        <time>2011-05-19T12:10:12Z</time>
      </trkpt>
      <trkpt lat="44.42676" lon="5.1414">
        <ele>1215.243896</ele>
        <time>2011-05-19T12:10:34Z</time>
      </trkpt>
      <trkpt lat="44.42675" lon="5.14141">
        <ele>1214.763184</ele>
        <time>2011-05-19T12:11:47Z</time>
      </trkpt>
      <trkpt lat="44.42669" lon="5.14142">
        <ele>1214.763184</ele>
        <time>2011-05-19T12:12:31Z</time>
      </trkpt>
      <trkpt lat="44.42661" lon="5.1415">
        <ele>1211.398438</ele>
        <time>2011-05-19T12:12:53Z</time>
      </trkpt>
      <trkpt lat="44.42653" lon="5.14155">
        <ele>1208.995117</ele>
        <time>2011-05-19T12:13:10Z</time>
      </trkpt>
      <trkpt lat="44.42647" lon="5.14164">
        <ele>1205.630615</ele>
        <time>2011-05-19T12:13:28Z</time>
      </trkpt>
      <trkpt lat="44.42644" lon="5.14168">
        <ele>1205.149902</ele>
        <time>2011-05-19T12:14:03Z</time>
      </trkpt>
      <trkpt lat="44.42638" lon="5.14171">
        <ele>1202.746582</ele>
        <time>2011-05-19T12:14:14Z</time>
      </trkpt>
      <trkpt lat="44.42627" lon="5.14183">
        <ele>1199.862793</ele>
        <time>2011-05-19T12:14:32Z</time>
      </trkpt>
      <trkpt lat="44.42615" lon="5.14191">
        <ele>1196.498291</ele>
        <time>2011-05-19T12:14:51Z</time>
      </trkpt>
      <trkpt lat="44.42604" lon="5.14199">
        <ele>1193.614014</ele>
        <time>2011-05-19T12:15:09Z</time>
      </trkpt>
      <trkpt lat="44.42595" lon="5.142">
        <ele>1190.249512</ele>
        <time>2011-05-19T12:15:26Z</time>
      </trkpt>
      <trkpt lat="44.42589" lon="5.14209">
        <ele>1188.807617</ele>
        <time>2011-05-19T12:15:42Z</time>
      </trkpt>
      <trkpt lat="44.42583" lon="5.14215">
        <ele>1186.404297</ele>
        <time>2011-05-19T12:15:57Z</time>
      </trkpt>
      <trkpt lat="44.42579" lon="5.14219">
        <ele>1184.962402</ele>
        <time>2011-05-19T12:16:10Z</time>
      </trkpt>
      <trkpt lat="44.42575" lon="5.14217">
        <ele>1183.039551</ele>
        <time>2011-05-19T12:16:24Z</time>
      </trkpt>
      <trkpt lat="44.42567" lon="5.14217">
        <ele>1181.117188</ele>
        <time>2011-05-19T12:16:40Z</time>
      </trkpt>
      <trkpt lat="44.42559" lon="5.14221">
        <ele>1178.713623</ele>
        <time>2011-05-19T12:16:55Z</time>
      </trkpt>
      <trkpt lat="44.4255" lon="5.14229">
        <ele>1177.271729</ele>
        <time>2011-05-19T12:17:12Z</time>
      </trkpt>
      <trkpt lat="44.42539" lon="5.14233">
        <ele>1175.82959</ele>
        <time>2011-05-19T12:17:26Z</time>
      </trkpt>
      <trkpt lat="44.42536" lon="5.14243">
        <ele>1176.310303</ele>
        <time>2011-05-19T12:17:33Z</time>
      </trkpt>
      <trkpt lat="44.42531" lon="5.14253">
        <ele>1176.310303</ele>
        <time>2011-05-19T12:17:44Z</time>
      </trkpt>
      <trkpt lat="44.4253" lon="5.14281">
        <ele>1177.752197</ele>
        <time>2011-05-19T12:18:03Z</time>
      </trkpt>
      <trkpt lat="44.42527" lon="5.14299">
        <ele>1180.636475</ele>
        <time>2011-05-19T12:18:24Z</time>
      </trkpt>
      <trkpt lat="44.42521" lon="5.14314">
        <ele>1183.520264</ele>
        <time>2011-05-19T12:18:45Z</time>
      </trkpt>
      <trkpt lat="44.42519" lon="5.14323">
        <ele>1184.481689</ele>
        <time>2011-05-19T12:19:14Z</time>
      </trkpt>
      <trkpt lat="44.42518" lon="5.14337">
        <ele>1186.404297</ele>
        <time>2011-05-19T12:19:35Z</time>
      </trkpt>
      <trkpt lat="44.42516" lon="5.14361">
        <ele>1189.288086</ele>
        <time>2011-05-19T12:19:57Z</time>
      </trkpt>
      <trkpt lat="44.42515" lon="5.14368">
        <ele>1190.249512</ele>
        <time>2011-05-19T12:20:12Z</time>
      </trkpt>
      <trkpt lat="44.42513" lon="5.14381">
        <ele>1191.691406</ele>
        <time>2011-05-19T12:20:31Z</time>
      </trkpt>
      <trkpt lat="44.42508" lon="5.144">
        <ele>1194.575195</ele>
        <time>2011-05-19T12:20:57Z</time>
      </trkpt>
      <trkpt lat="44.42504" lon="5.14418">
        <ele>1197.940186</ele>
        <time>2011-05-19T12:21:20Z</time>
      </trkpt>
      <trkpt lat="44.42505" lon="5.14425">
        <ele>1198.420654</ele>
        <time>2011-05-19T12:21:41Z</time>
      </trkpt>
      <trkpt lat="44.42504" lon="5.14437">
        <ele>1201.7854</ele>
        <time>2011-05-19T12:21:59Z</time>
      </trkpt>
      <trkpt lat="44.42504" lon="5.14449">
        <ele>1204.188721</ele>
        <time>2011-05-19T12:22:27Z</time>
      </trkpt>
      <trkpt lat="44.425" lon="5.14459">
        <ele>1207.553223</ele>
        <time>2011-05-19T12:22:47Z</time>
      </trkpt>
      <trkpt lat="44.42496" lon="5.14476">
        <ele>1209.956299</ele>
        <time>2011-05-19T12:23:12Z</time>
      </trkpt>
      <trkpt lat="44.42496" lon="5.14491">
        <ele>1211.87915</ele>
        <time>2011-05-19T12:23:34Z</time>
      </trkpt>
      <trkpt lat="44.42496" lon="5.14511">
        <ele>1214.763184</ele>
        <time>2011-05-19T12:23:55Z</time>
      </trkpt>
      <trkpt lat="44.42501" lon="5.14525">
        <ele>1215.243896</ele>
        <time>2011-05-19T12:24:16Z</time>
      </trkpt>
      <trkpt lat="44.42501" lon="5.14526">
        <ele>1215.243896</ele>
        <time>2011-05-19T12:24:39Z</time>
      </trkpt>
      <trkpt lat="44.42506" lon="5.14533">
        <ele>1215.724609</ele>
        <time>2011-05-19T12:25:15Z</time>
      </trkpt>
      <trkpt lat="44.42506" lon="5.14539">
        <ele>1215.724609</ele>
        <time>2011-05-19T12:25:34Z</time>
      </trkpt>
      <trkpt lat="44.42507" lon="5.14543">
        <ele>1216.685791</ele>
        <time>2011-05-19T12:25:59Z</time>
      </trkpt>
      <trkpt lat="44.42507" lon="5.14538">
        <ele>1216.685791</ele>
        <time>2011-05-19T12:28:44Z</time>
      </trkpt>
      <trkpt lat="44.42503" lon="5.14525">
        <ele>1217.166504</ele>
        <time>2011-05-19T12:29:06Z</time>
      </trkpt>
      <trkpt lat="44.42501" lon="5.14519">
        <ele>1217.646973</ele>
        <time>2011-05-19T12:29:25Z</time>
      </trkpt>
      <trkpt lat="44.42499" lon="5.14521">
        <ele>1218.127686</ele>
        <time>2011-05-19T12:29:58Z</time>
      </trkpt>
      <trkpt lat="44.42499" lon="5.14521">
        <ele>1217.646973</ele>
        <time>2011-05-19T12:30:50Z</time>
      </trkpt>
      <trkpt lat="44.42498" lon="5.1452">
        <ele>1217.646973</ele>
        <time>2011-05-19T12:31:43Z</time>
      </trkpt>
      <trkpt lat="44.42498" lon="5.1452">
        <ele>1218.608398</ele>
        <time>2011-05-19T12:32:03Z</time>
      </trkpt>
      <trkpt lat="44.42498" lon="5.14518">
        <ele>1218.127686</ele>
        <time>2011-05-19T12:32:23Z</time>
      </trkpt>
      <trkpt lat="44.42497" lon="5.14514">
        <ele>1218.608398</ele>
        <time>2011-05-19T12:32:43Z</time>
      </trkpt>
      <trkpt lat="44.42498" lon="5.14508">
        <ele>1217.166504</ele>
        <time>2011-05-19T12:32:59Z</time>
      </trkpt>
      <trkpt lat="44.42499" lon="5.14499">
        <ele>1214.763184</ele>
        <time>2011-05-19T12:33:13Z</time>
      </trkpt>
      <trkpt lat="44.42498" lon="5.14481">
        <ele>1213.321289</ele>
        <time>2011-05-19T12:33:31Z</time>
      </trkpt>
      <trkpt lat="44.425" lon="5.14466">
        <ele>1211.398438</ele>
        <time>2011-05-19T12:33:49Z</time>
      </trkpt>
      <trkpt lat="44.42498" lon="5.14453">
        <ele>1208.514404</ele>
        <time>2011-05-19T12:34:09Z</time>
      </trkpt>
      <trkpt lat="44.425" lon="5.14435">
        <ele>1205.149902</ele>
        <time>2011-05-19T12:34:32Z</time>
      </trkpt>
      <trkpt lat="44.42493" lon="5.1443">
        <ele>1202.746582</ele>
        <time>2011-05-19T12:34:46Z</time>
      </trkpt>
      <trkpt lat="44.42484" lon="5.14436">
        <ele>1199.38208</ele>
        <time>2011-05-19T12:35:08Z</time>
      </trkpt>
      <trkpt lat="44.42477" lon="5.14435">
        <ele>1196.498291</ele>
        <time>2011-05-19T12:35:27Z</time>
      </trkpt>
      <trkpt lat="44.42472" lon="5.14432">
        <ele>1195.055908</ele>
        <time>2011-05-19T12:35:43Z</time>
      </trkpt>
      <trkpt lat="44.42462" lon="5.14432">
        <ele>1191.691406</ele>
        <time>2011-05-19T12:36:02Z</time>
      </trkpt>
      <trkpt lat="44.42454" lon="5.14435">
        <ele>1189.768799</ele>
        <time>2011-05-19T12:36:21Z</time>
      </trkpt>
      <trkpt lat="44.42445" lon="5.14433">
        <ele>1186.404297</ele>
        <time>2011-05-19T12:36:38Z</time>
      </trkpt>
      <trkpt lat="44.42437" lon="5.14438">
        <ele>1184.481689</ele>
        <time>2011-05-19T12:37:00Z</time>
      </trkpt>
      <trkpt lat="44.42426" lon="5.14437">
        <ele>1182.078369</ele>
        <time>2011-05-19T12:37:21Z</time>
      </trkpt>
      <trkpt lat="44.42415" lon="5.14438">
        <ele>1179.194092</ele>
        <time>2011-05-19T12:37:40Z</time>
      </trkpt>
      <trkpt lat="44.42406" lon="5.14439">
        <ele>1176.310303</ele>
        <time>2011-05-19T12:38:00Z</time>
      </trkpt>
      <trkpt lat="44.42396" lon="5.14447">
        <ele>1174.387695</ele>
        <time>2011-05-19T12:38:15Z</time>
      </trkpt>
      <trkpt lat="44.42386" lon="5.14454">
        <ele>1172.465088</ele>
        <time>2011-05-19T12:38:30Z</time>
      </trkpt>
      <trkpt lat="44.42385" lon="5.14455">
        <ele>1172.465088</ele>
        <time>2011-05-19T12:38:31Z</time>
      </trkpt>
      <trkpt lat="44.42374" lon="5.14463">
        <ele>1171.023193</ele>
        <time>2011-05-19T12:38:50Z</time>
      </trkpt>
      <trkpt lat="44.42363" lon="5.14467">
        <ele>1170.061768</ele>
        <time>2011-05-19T12:39:43Z</time>
      </trkpt>
      <trkpt lat="44.42354" lon="5.14474">
        <ele>1169.581299</ele>
        <time>2011-05-19T12:39:58Z</time>
      </trkpt>
      <trkpt lat="44.42352" lon="5.14478">
        <ele>1168.13916</ele>
        <time>2011-05-19T12:40:19Z</time>
      </trkpt>
      <trkpt lat="44.42355" lon="5.14476">
        <ele>1163.812988</ele>
        <time>2011-05-19T13:04:14Z</time>
      </trkpt>
      <trkpt lat="44.42355" lon="5.14476">
        <ele>1165.255371</ele>
        <time>2011-05-19T13:04:43Z</time>
      </trkpt>
      <trkpt lat="44.42348" lon="5.14476">
        <ele>1165.255371</ele>
        <time>2011-05-19T13:07:58Z</time>
      </trkpt>
      <trkpt lat="44.42351" lon="5.14474">
        <ele>1166.216553</ele>
        <time>2011-05-19T13:22:41Z</time>
      </trkpt>
      <trkpt lat="44.42353" lon="5.14469">
        <ele>1166.216553</ele>
        <time>2011-05-19T13:23:27Z</time>
      </trkpt>
      <trkpt lat="44.42344" lon="5.14464">
        <ele>1165.255371</ele>
        <time>2011-05-19T13:23:44Z</time>
      </trkpt>
      <trkpt lat="44.42335" lon="5.14461">
        <ele>1163.33252</ele>
        <time>2011-05-19T13:24:03Z</time>
      </trkpt>
      <trkpt lat="44.42326" lon="5.1446">
        <ele>1160.929199</ele>
        <time>2011-05-19T13:24:35Z</time>
      </trkpt>
      <trkpt lat="44.42314" lon="5.1446">
        <ele>1158.04541</ele>
        <time>2011-05-19T13:24:51Z</time>
      </trkpt>
      <trkpt lat="44.42306" lon="5.14469">
        <ele>1156.122559</ele>
        <time>2011-05-19T13:25:04Z</time>
      </trkpt>
      <trkpt lat="44.42298" lon="5.14473">
        <ele>1153.719482</ele>
        <time>2011-05-19T13:25:26Z</time>
      </trkpt>
      <trkpt lat="44.42288" lon="5.14472">
        <ele>1151.316162</ele>
        <time>2011-05-19T13:25:47Z</time>
      </trkpt>
      <trkpt lat="44.42276" lon="5.1447">
        <ele>1148.432129</ele>
        <time>2011-05-19T13:26:07Z</time>
      </trkpt>
      <trkpt lat="44.42265" lon="5.14472">
        <ele>1146.509521</ele>
        <time>2011-05-19T13:26:24Z</time>
      </trkpt>
      <trkpt lat="44.42256" lon="5.14474">
        <ele>1144.58667</ele>
        <time>2011-05-19T13:26:38Z</time>
      </trkpt>
      <trkpt lat="44.42247" lon="5.14479">
        <ele>1142.183594</ele>
        <time>2011-05-19T13:26:57Z</time>
      </trkpt>
      <trkpt lat="44.4224" lon="5.14483">
        <ele>1140.260986</ele>
        <time>2011-05-19T13:27:59Z</time>
      </trkpt>
      <trkpt lat="44.42232" lon="5.14483">
        <ele>1137.376953</ele>
        <time>2011-05-19T13:28:14Z</time>
      </trkpt>
      <trkpt lat="44.42225" lon="5.14477">
        <ele>1134.973877</ele>
        <time>2011-05-19T13:28:30Z</time>
      </trkpt>
      <trkpt lat="44.42215" lon="5.1448">
        <ele>1132.089844</ele>
        <time>2011-05-19T13:28:45Z</time>
      </trkpt>
      <trkpt lat="44.42202" lon="5.14489">
        <ele>1129.686279</ele>
        <time>2011-05-19T13:29:04Z</time>
      </trkpt>
      <trkpt lat="44.42181" lon="5.14495">
        <ele>1126.321777</ele>
        <time>2011-05-19T13:29:29Z</time>
      </trkpt>
      <trkpt lat="44.4218" lon="5.14496">
        <ele>1126.321777</ele>
        <time>2011-05-19T13:29:31Z</time>
      </trkpt>
      <trkpt lat="44.42171" lon="5.14502">
        <ele>1124.39917</ele>
        <time>2011-05-19T13:29:46Z</time>
      </trkpt>
      <trkpt lat="44.42159" lon="5.14498">
        <ele>1121.515137</ele>
        <time>2011-05-19T13:30:04Z</time>
      </trkpt>
      <trkpt lat="44.42146" lon="5.145">
        <ele>1118.150635</ele>
        <time>2011-05-19T13:30:23Z</time>
      </trkpt>
      <trkpt lat="44.42136" lon="5.14501">
        <ele>1115.747314</ele>
        <time>2011-05-19T13:30:39Z</time>
      </trkpt>
      <trkpt lat="44.42124" lon="5.14501">
        <ele>1112.382568</ele>
        <time>2011-05-19T13:30:55Z</time>
      </trkpt>
      <trkpt lat="44.42119" lon="5.14502">
        <ele>1111.421387</ele>
        <time>2011-05-19T13:31:20Z</time>
      </trkpt>
      <trkpt lat="44.42112" lon="5.14497">
        <ele>1108.537354</ele>
        <time>2011-05-19T13:31:51Z</time>
      </trkpt>
      <trkpt lat="44.42104" lon="5.14502">
        <ele>1105.172852</ele>
        <time>2011-05-19T13:32:07Z</time>
      </trkpt>
      <trkpt lat="44.42096" lon="5.14499">
        <ele>1102.769531</ele>
        <time>2011-05-19T13:32:23Z</time>
      </trkpt>
      <trkpt lat="44.4209" lon="5.145">
        <ele>1100.846924</ele>
        <time>2011-05-19T13:32:41Z</time>
      </trkpt>
      <trkpt lat="44.42082" lon="5.14499">
        <ele>1097.962891</ele>
        <time>2011-05-19T13:32:54Z</time>
      </trkpt>
      <trkpt lat="44.42079" lon="5.14498">
        <ele>1097.001465</ele>
        <time>2011-05-19T13:32:57Z</time>
      </trkpt>
      <trkpt lat="44.42068" lon="5.14499">
        <ele>1093.636963</ele>
        <time>2011-05-19T13:33:10Z</time>
      </trkpt>
      <trkpt lat="44.42063" lon="5.14497">
        <ele>1092.675781</ele>
        <time>2011-05-19T13:33:15Z</time>
      </trkpt>
      <trkpt lat="44.42052" lon="5.14498">
        <ele>1089.791748</ele>
        <time>2011-05-19T13:33:27Z</time>
      </trkpt>
      <trkpt lat="44.42037" lon="5.14493">
        <ele>1086.427246</ele>
        <time>2011-05-19T13:33:44Z</time>
      </trkpt>
      <trkpt lat="44.42024" lon="5.14492">
        <ele>1084.023926</ele>
        <time>2011-05-19T13:33:58Z</time>
      </trkpt>
      <trkpt lat="44.42022" lon="5.14492">
        <ele>1083.542969</ele>
        <time>2011-05-19T13:33:59Z</time>
      </trkpt>
      <trkpt lat="44.42007" lon="5.14495">
        <ele>1080.65918</ele>
        <time>2011-05-19T13:34:15Z</time>
      </trkpt>
      <trkpt lat="44.42004" lon="5.14497">
        <ele>1079.697754</ele>
        <time>2011-05-19T13:34:18Z</time>
      </trkpt>
      <trkpt lat="44.41992" lon="5.14501">
        <ele>1076.813965</ele>
        <time>2011-05-19T13:34:33Z</time>
      </trkpt>
      <trkpt lat="44.41984" lon="5.14504">
        <ele>1074.891357</ele>
        <time>2011-05-19T13:34:51Z</time>
      </trkpt>
      <trkpt lat="44.41978" lon="5.14503">
        <ele>1073.449463</ele>
        <time>2011-05-19T13:35:10Z</time>
      </trkpt>
      <trkpt lat="44.41968" lon="5.14507">
        <ele>1070.084717</ele>
        <time>2011-05-19T13:35:30Z</time>
      </trkpt>
      <trkpt lat="44.41966" lon="5.14512">
        <ele>1069.604248</ele>
        <time>2011-05-19T13:35:57Z</time>
      </trkpt>
      <trkpt lat="44.41962" lon="5.14513">
        <ele>1069.123535</ele>
        <time>2011-05-19T13:36:17Z</time>
      </trkpt>
      <trkpt lat="44.41951" lon="5.14513">
        <ele>1065.758789</ele>
        <time>2011-05-19T13:36:38Z</time>
      </trkpt>
      <trkpt lat="44.41941" lon="5.14512">
        <ele>1062.874756</ele>
        <time>2011-05-19T13:36:59Z</time>
      </trkpt>
      <trkpt lat="44.41933" lon="5.14517">
        <ele>1059.510254</ele>
        <time>2011-05-19T13:37:16Z</time>
      </trkpt>
      <trkpt lat="44.41926" lon="5.1452">
        <ele>1056.626221</ele>
        <time>2011-05-19T13:37:27Z</time>
      </trkpt>
      <trkpt lat="44.41916" lon="5.14527">
        <ele>1053.261719</ele>
        <time>2011-05-19T13:37:41Z</time>
      </trkpt>
      <trkpt lat="44.41905" lon="5.14536">
        <ele>1050.377686</ele>
        <time>2011-05-19T13:37:55Z</time>
      </trkpt>
      <trkpt lat="44.41895" lon="5.14539">
        <ele>1047.012939</ele>
        <time>2011-05-19T13:38:08Z</time>
      </trkpt>
      <trkpt lat="44.41886" lon="5.14543">
        <ele>1044.12915</ele>
        <time>2011-05-19T13:38:21Z</time>
      </trkpt>
      <trkpt lat="44.41875" lon="5.14551">
        <ele>1040.764404</ele>
        <time>2011-05-19T13:38:36Z</time>
      </trkpt>
      <trkpt lat="44.41865" lon="5.14553">
        <ele>1037.880615</ele>
        <time>2011-05-19T13:38:50Z</time>
      </trkpt>
      <trkpt lat="44.41853" lon="5.14557">
        <ele>1034.515869</ele>
        <time>2011-05-19T13:39:05Z</time>
      </trkpt>
      <trkpt lat="44.41843" lon="5.1456">
        <ele>1031.631836</ele>
        <time>2011-05-19T13:39:19Z</time>
      </trkpt>
      <trkpt lat="44.41832" lon="5.14563">
        <ele>1028.267334</ele>
        <time>2011-05-19T13:39:32Z</time>
      </trkpt>
      <trkpt lat="44.4182" lon="5.14569">
        <ele>1025.383301</ele>
        <time>2011-05-19T13:39:48Z</time>
      </trkpt>
      <trkpt lat="44.41809" lon="5.14572">
        <ele>1022.018799</ele>
        <time>2011-05-19T13:40:03Z</time>
      </trkpt>
      <trkpt lat="44.41795" lon="5.14576">
        <ele>1019.134766</ele>
        <time>2011-05-19T13:40:20Z</time>
      </trkpt>
      <trkpt lat="44.4178" lon="5.14583">
        <ele>1015.770264</ele>
        <time>2011-05-19T13:40:39Z</time>
      </trkpt>
      <trkpt lat="44.41767" lon="5.14587">
        <ele>1012.88623</ele>
        <time>2011-05-19T13:40:57Z</time>
      </trkpt>
      <trkpt lat="44.4176" lon="5.1459">
        <ele>1010.963623</ele>
        <time>2011-05-19T13:41:07Z</time>
      </trkpt>
      <trkpt lat="44.4175" lon="5.14594">
        <ele>1009.521729</ele>
        <time>2011-05-19T13:41:19Z</time>
      </trkpt>
      <trkpt lat="44.41733" lon="5.14603">
        <ele>1006.637695</ele>
        <time>2011-05-19T13:41:43Z</time>
      </trkpt>
      <trkpt lat="44.41722" lon="5.14602">
        <ele>1003.272949</ele>
        <time>2011-05-19T13:42:02Z</time>
      </trkpt>
      <trkpt lat="44.41715" lon="5.146">
        <ele>1000.38916</ele>
        <time>2011-05-19T13:42:23Z</time>
      </trkpt>
      <trkpt lat="44.41707" lon="5.14595">
        <ele>997.024414</ele>
        <time>2011-05-19T13:42:41Z</time>
      </trkpt>
      <trkpt lat="44.417" lon="5.14597">
        <ele>994.621094</ele>
        <time>2011-05-19T13:42:59Z</time>
      </trkpt>
      <trkpt lat="44.41696" lon="5.14593">
        <ele>992.218018</ele>
        <time>2011-05-19T13:43:12Z</time>
      </trkpt>
      <trkpt lat="44.41692" lon="5.14595">
        <ele>991.737305</ele>
        <time>2011-05-19T13:43:33Z</time>
      </trkpt>
      <trkpt lat="44.41691" lon="5.14599">
        <ele>990.775879</ele>
        <time>2011-05-19T13:44:51Z</time>
      </trkpt>
      <trkpt lat="44.4169" lon="5.14607">
        <ele>988.853516</ele>
        <time>2011-05-19T13:45:06Z</time>
      </trkpt>
      <trkpt lat="44.41689" lon="5.14615">
        <ele>986.93042</ele>
        <time>2011-05-19T13:45:26Z</time>
      </trkpt>
      <trkpt lat="44.41688" lon="5.1462">
        <ele>985.488525</ele>
        <time>2011-05-19T13:45:56Z</time>
      </trkpt>
      <trkpt lat="44.41688" lon="5.14627">
        <ele>983.565918</ele>
        <time>2011-05-19T13:46:26Z</time>
      </trkpt>
      <trkpt lat="44.41686" lon="5.14628">
        <ele>982.604736</ele>
        <time>2011-05-19T13:46:54Z</time>
      </trkpt>
      <trkpt lat="44.4168" lon="5.1463">
        <ele>979.720703</ele>
        <time>2011-05-19T13:48:31Z</time>
      </trkpt>
      <trkpt lat="44.41681" lon="5.14638">
        <ele>977.317627</ele>
        <time>2011-05-19T13:48:48Z</time>
      </trkpt>
      <trkpt lat="44.41675" lon="5.14642">
        <ele>974.433594</ele>
        <time>2011-05-19T13:49:13Z</time>
      </trkpt>
      <trkpt lat="44.41669" lon="5.14639">
        <ele>971.068848</ele>
        <time>2011-05-19T13:49:40Z</time>
      </trkpt>
      <trkpt lat="44.4166" lon="5.1464">
        <ele>968.184814</ele>
        <time>2011-05-19T13:49:57Z</time>
      </trkpt>
      <trkpt lat="44.41649" lon="5.14643">
        <ele>964.820313</ele>
        <time>2011-05-19T13:50:20Z</time>
      </trkpt>
      <trkpt lat="44.41647" lon="5.1465">
        <ele>963.858887</ele>
        <time>2011-05-19T13:50:29Z</time>
      </trkpt>
      <trkpt lat="44.41654" lon="5.14658">
        <ele>961.455811</ele>
        <time>2011-05-19T13:50:43Z</time>
      </trkpt>
      <trkpt lat="44.41662" lon="5.14661">
        <ele>959.05249</ele>
        <time>2011-05-19T13:51:02Z</time>
      </trkpt>
      <trkpt lat="44.41671" lon="5.14661">
        <ele>956.64917</ele>
        <time>2011-05-19T13:51:24Z</time>
      </trkpt>
      <trkpt lat="44.41668" lon="5.14663">
        <ele>953.765137</ele>
        <time>2011-05-19T13:51:46Z</time>
      </trkpt>
      <trkpt lat="44.41672" lon="5.1467">
        <ele>952.322998</ele>
        <time>2011-05-19T13:51:59Z</time>
      </trkpt>
      <trkpt lat="44.41676" lon="5.14674">
        <ele>949.439209</ele>
        <time>2011-05-19T13:52:18Z</time>
      </trkpt>
      <trkpt lat="44.41675" lon="5.14681">
        <ele>947.997314</ele>
        <time>2011-05-19T13:52:39Z</time>
      </trkpt>
      <trkpt lat="44.41671" lon="5.14686">
        <ele>945.113281</ele>
        <time>2011-05-19T13:53:04Z</time>
      </trkpt>
      <trkpt lat="44.41675" lon="5.14704">
        <ele>942.229492</ele>
        <time>2011-05-19T13:53:22Z</time>
      </trkpt>
      <trkpt lat="44.4168" lon="5.147">
        <ele>940.306885</ele>
        <time>2011-05-19T13:53:41Z</time>
      </trkpt>
      <trkpt lat="44.41685" lon="5.14697">
        <ele>938.384033</ele>
        <time>2011-05-19T13:53:58Z</time>
      </trkpt>
      <trkpt lat="44.41676" lon="5.14701">
        <ele>935.980713</ele>
        <time>2011-05-19T13:54:24Z</time>
      </trkpt>
      <trkpt lat="44.41681" lon="5.14708">
        <ele>933.577393</ele>
        <time>2011-05-19T13:54:39Z</time>
      </trkpt>
      <trkpt lat="44.41688" lon="5.14711">
        <ele>930.693604</ele>
        <time>2011-05-19T13:55:01Z</time>
      </trkpt>
      <trkpt lat="44.41689" lon="5.14717">
        <ele>927.80957</ele>
        <time>2011-05-19T13:55:19Z</time>
      </trkpt>
      <trkpt lat="44.41698" lon="5.14727">
        <ele>924.445068</ele>
        <time>2011-05-19T13:55:42Z</time>
      </trkpt>
      <trkpt lat="44.41706" lon="5.14731">
        <ele>922.041504</ele>
        <time>2011-05-19T13:56:00Z</time>
      </trkpt>
      <trkpt lat="44.41712" lon="5.14732">
        <ele>920.599609</ele>
        <time>2011-05-19T13:56:23Z</time>
      </trkpt>
      <trkpt lat="44.41701" lon="5.14735">
        <ele>917.235107</ele>
        <time>2011-05-19T13:56:47Z</time>
      </trkpt>
      <trkpt lat="44.41697" lon="5.1474">
        <ele>915.793213</ele>
        <time>2011-05-19T13:57:20Z</time>
      </trkpt>
      <trkpt lat="44.41702" lon="5.14749">
        <ele>912.428467</ele>
        <time>2011-05-19T13:57:46Z</time>
      </trkpt>
      <trkpt lat="44.41704" lon="5.14752">
        <ele>910.505859</ele>
        <time>2011-05-19T13:58:07Z</time>
      </trkpt>
      <trkpt lat="44.41706" lon="5.14754">
        <ele>910.025146</ele>
        <time>2011-05-19T13:58:10Z</time>
      </trkpt>
      <trkpt lat="44.41709" lon="5.14757">
        <ele>909.063965</ele>
        <time>2011-05-19T13:58:13Z</time>
      </trkpt>
      <trkpt lat="44.41711" lon="5.14757">
        <ele>909.063965</ele>
        <time>2011-05-19T13:58:15Z</time>
      </trkpt>
      <trkpt lat="44.41718" lon="5.14766">
        <ele>906.6604</ele>
        <time>2011-05-19T13:58:33Z</time>
      </trkpt>
      <trkpt lat="44.41724" lon="5.14767">
        <ele>905.699219</ele>
        <time>2011-05-19T13:58:49Z</time>
      </trkpt>
      <trkpt lat="44.41725" lon="5.14773">
        <ele>904.737793</ele>
        <time>2011-05-19T13:59:06Z</time>
      </trkpt>
      <trkpt lat="44.41732" lon="5.14777">
        <ele>901.854004</ele>
        <time>2011-05-19T13:59:23Z</time>
      </trkpt>
      <trkpt lat="44.4174" lon="5.14783">
        <ele>898.969971</ele>
        <time>2011-05-19T13:59:39Z</time>
      </trkpt>
      <trkpt lat="44.41745" lon="5.14785">
        <ele>898.008789</ele>
        <time>2011-05-19T13:59:46Z</time>
      </trkpt>
      <trkpt lat="44.41751" lon="5.14794">
        <ele>896.086182</ele>
        <time>2011-05-19T14:00:00Z</time>
      </trkpt>
      <trkpt lat="44.41756" lon="5.14797">
        <ele>895.124756</ele>
        <time>2011-05-19T14:00:07Z</time>
      </trkpt>
      <trkpt lat="44.41772" lon="5.14809">
        <ele>892.240967</ele>
        <time>2011-05-19T14:00:29Z</time>
      </trkpt>
      <trkpt lat="44.41784" lon="5.14808">
        <ele>889.356689</ele>
        <time>2011-05-19T14:00:46Z</time>
      </trkpt>
      <trkpt lat="44.41794" lon="5.14816">
        <ele>885.992188</ele>
        <time>2011-05-19T14:01:06Z</time>
      </trkpt>
      <trkpt lat="44.41808" lon="5.14817">
        <ele>883.108154</ele>
        <time>2011-05-19T14:01:25Z</time>
      </trkpt>
      <trkpt lat="44.41819" lon="5.14826">
        <ele>879.743652</ele>
        <time>2011-05-19T14:01:43Z</time>
      </trkpt>
      <trkpt lat="44.41827" lon="5.14837">
        <ele>878.301758</ele>
        <time>2011-05-19T14:01:59Z</time>
      </trkpt>
      <trkpt lat="44.41837" lon="5.14845">
        <ele>874.937012</ele>
        <time>2011-05-19T14:02:19Z</time>
      </trkpt>
      <trkpt lat="44.41839" lon="5.14854">
        <ele>872.533691</ele>
        <time>2011-05-19T14:02:33Z</time>
      </trkpt>
      <trkpt lat="44.41847" lon="5.14863">
        <ele>869.169189</ele>
        <time>2011-05-19T14:02:50Z</time>
      </trkpt>
      <trkpt lat="44.41851" lon="5.14872">
        <ele>866.285156</ele>
        <time>2011-05-19T14:03:06Z</time>
      </trkpt>
      <trkpt lat="44.41853" lon="5.14881">
        <ele>864.362549</ele>
        <time>2011-05-19T14:03:15Z</time>
      </trkpt>
      <trkpt lat="44.41859" lon="5.14884">
        <ele>862.920654</ele>
        <time>2011-05-19T14:03:25Z</time>
      </trkpt>
      <trkpt lat="44.41873" lon="5.14895">
        <ele>860.036621</ele>
        <time>2011-05-19T14:03:43Z</time>
      </trkpt>
      <trkpt lat="44.41878" lon="5.14901">
        <ele>858.594482</ele>
        <time>2011-05-19T14:03:51Z</time>
      </trkpt>
      <trkpt lat="44.41889" lon="5.14916">
        <ele>855.22998</ele>
        <time>2011-05-19T14:04:10Z</time>
      </trkpt>
      <trkpt lat="44.41899" lon="5.14926">
        <ele>852.345947</ele>
        <time>2011-05-19T14:04:30Z</time>
      </trkpt>
      <trkpt lat="44.41906" lon="5.14938">
        <ele>849.462158</ele>
        <time>2011-05-19T14:04:51Z</time>
      </trkpt>
      <trkpt lat="44.41913" lon="5.14945">
        <ele>846.097656</ele>
        <time>2011-05-19T14:05:07Z</time>
      </trkpt>
      <trkpt lat="44.41919" lon="5.14956">
        <ele>843.694092</ele>
        <time>2011-05-19T14:05:23Z</time>
      </trkpt>
      <trkpt lat="44.41924" lon="5.14965">
        <ele>841.771484</ele>
        <time>2011-05-19T14:05:34Z</time>
      </trkpt>
      <trkpt lat="44.41927" lon="5.14969">
        <ele>838.887695</ele>
        <time>2011-05-19T14:05:52Z</time>
      </trkpt>
      <trkpt lat="44.41934" lon="5.14974">
        <ele>836.003662</ele>
        <time>2011-05-19T14:06:07Z</time>
      </trkpt>
      <trkpt lat="44.41939" lon="5.14988">
        <ele>832.63916</ele>
        <time>2011-05-19T14:06:22Z</time>
      </trkpt>
      <trkpt lat="44.41946" lon="5.15">
        <ele>829.755127</ele>
        <time>2011-05-19T14:06:40Z</time>
      </trkpt>
      <trkpt lat="44.4195" lon="5.15006">
        <ele>828.313232</ele>
        <time>2011-05-19T14:06:48Z</time>
      </trkpt>
      <trkpt lat="44.41959" lon="5.15012">
        <ele>825.909668</ele>
        <time>2011-05-19T14:07:01Z</time>
      </trkpt>
      <trkpt lat="44.41964" lon="5.15015">
        <ele>824.948486</ele>
        <time>2011-05-19T14:07:08Z</time>
      </trkpt>
      <trkpt lat="44.41973" lon="5.15021">
        <ele>822.545166</ele>
        <time>2011-05-19T14:07:23Z</time>
      </trkpt>
      <trkpt lat="44.4198" lon="5.15025">
        <ele>820.141846</ele>
        <time>2011-05-19T14:07:35Z</time>
      </trkpt>
      <trkpt lat="44.41981" lon="5.15027">
        <ele>820.141846</ele>
        <time>2011-05-19T14:07:36Z</time>
      </trkpt>
      <trkpt lat="44.41987" lon="5.15037">
        <ele>816.777344</ele>
        <time>2011-05-19T14:07:54Z</time>
      </trkpt>
      <trkpt lat="44.41996" lon="5.15045">
        <ele>813.412842</ele>
        <time>2011-05-19T14:08:09Z</time>
      </trkpt>
      <trkpt lat="44.42004" lon="5.15057">
        <ele>810.528564</ele>
        <time>2011-05-19T14:08:25Z</time>
      </trkpt>
      <trkpt lat="44.42011" lon="5.15067">
        <ele>808.125488</ele>
        <time>2011-05-19T14:08:40Z</time>
      </trkpt>
      <trkpt lat="44.4202" lon="5.1508">
        <ele>805.722168</ele>
        <time>2011-05-19T14:08:57Z</time>
      </trkpt>
      <trkpt lat="44.42024" lon="5.1509">
        <ele>804.760742</ele>
        <time>2011-05-19T14:09:05Z</time>
      </trkpt>
      <trkpt lat="44.4203" lon="5.15102">
        <ele>802.357422</ele>
        <time>2011-05-19T14:09:20Z</time>
      </trkpt>
      <trkpt lat="44.42032" lon="5.15105">
        <ele>801.876953</ele>
        <time>2011-05-19T14:09:23Z</time>
      </trkpt>
      <trkpt lat="44.42042" lon="5.15114">
        <ele>799.473633</ele>
        <time>2011-05-19T14:09:39Z</time>
      </trkpt>
      <trkpt lat="44.42043" lon="5.15115">
        <ele>798.99292</ele>
        <time>2011-05-19T14:09:41Z</time>
      </trkpt>
      <trkpt lat="44.42049" lon="5.15122">
        <ele>797.070313</ele>
        <time>2011-05-19T14:09:57Z</time>
      </trkpt>
      <trkpt lat="44.42056" lon="5.15139">
        <ele>793.705566</ele>
        <time>2011-05-19T14:10:20Z</time>
      </trkpt>
      <trkpt lat="44.42061" lon="5.15159">
        <ele>790.341064</ele>
        <time>2011-05-19T14:10:43Z</time>
      </trkpt>
      <trkpt lat="44.4206" lon="5.15176">
        <ele>786.976318</ele>
        <time>2011-05-19T14:11:01Z</time>
      </trkpt>
      <trkpt lat="44.42058" lon="5.15194">
        <ele>783.611816</ele>
        <time>2011-05-19T14:11:21Z</time>
      </trkpt>
      <trkpt lat="44.42058" lon="5.152">
        <ele>783.131104</ele>
        <time>2011-05-19T14:11:24Z</time>
      </trkpt>
      <trkpt lat="44.42065" lon="5.15228">
        <ele>781.20874</ele>
        <time>2011-05-19T14:11:44Z</time>
      </trkpt>
      <trkpt lat="44.42064" lon="5.15239">
        <ele>778.324463</ele>
        <time>2011-05-19T14:12:05Z</time>
      </trkpt>
      <trkpt lat="44.42054" lon="5.15255">
        <ele>775.44043</ele>
        <time>2011-05-19T14:12:26Z</time>
      </trkpt>
      <trkpt lat="44.42049" lon="5.15265">
        <ele>773.037354</ele>
        <time>2011-05-19T14:12:42Z</time>
      </trkpt>
      <trkpt lat="44.42041" lon="5.15269">
        <ele>769.672852</ele>
        <time>2011-05-19T14:13:00Z</time>
      </trkpt>
      <trkpt lat="44.42032" lon="5.15273">
        <ele>766.788818</ele>
        <time>2011-05-19T14:13:18Z</time>
      </trkpt>
      <trkpt lat="44.42026" lon="5.15282">
        <ele>763.904541</ele>
        <time>2011-05-19T14:13:34Z</time>
      </trkpt>
      <trkpt lat="44.42022" lon="5.15286">
        <ele>762.943359</ele>
        <time>2011-05-19T14:13:42Z</time>
      </trkpt>
      <trkpt lat="44.42016" lon="5.15302">
        <ele>759.578857</ele>
        <time>2011-05-19T14:14:01Z</time>
      </trkpt>
      <trkpt lat="44.42008" lon="5.15309">
        <ele>756.214111</ele>
        <time>2011-05-19T14:14:18Z</time>
      </trkpt>
      <trkpt lat="44.42" lon="5.15315">
        <ele>753.330322</ele>
        <time>2011-05-19T14:14:38Z</time>
      </trkpt>
      <trkpt lat="44.41991" lon="5.15321">
        <ele>750.446533</ele>
        <time>2011-05-19T14:15:00Z</time>
      </trkpt>
      <trkpt lat="44.41986" lon="5.15325">
        <ele>748.523682</ele>
        <time>2011-05-19T14:15:12Z</time>
      </trkpt>
      <trkpt lat="44.41973" lon="5.15335">
        <ele>745.639648</ele>
        <time>2011-05-19T14:15:31Z</time>
      </trkpt>
      <trkpt lat="44.41965" lon="5.15338">
        <ele>743.717041</ele>
        <time>2011-05-19T14:15:45Z</time>
      </trkpt>
      <trkpt lat="44.4195" lon="5.15332">
        <ele>740.833008</ele>
        <time>2011-05-19T14:16:07Z</time>
      </trkpt>
      <trkpt lat="44.41945" lon="5.15329">
        <ele>739.871826</ele>
        <time>2011-05-19T14:16:15Z</time>
      </trkpt>
      <trkpt lat="44.41936" lon="5.15335">
        <ele>737.949219</ele>
        <time>2011-05-19T14:16:28Z</time>
      </trkpt>
      <trkpt lat="44.4193" lon="5.1534">
        <ele>736.507324</ele>
        <time>2011-05-19T14:16:42Z</time>
      </trkpt>
      <trkpt lat="44.41919" lon="5.1534">
        <ele>734.584717</ele>
        <time>2011-05-19T14:16:58Z</time>
      </trkpt>
      <trkpt lat="44.41904" lon="5.15341">
        <ele>731.700439</ele>
        <time>2011-05-19T14:17:21Z</time>
      </trkpt>
      <trkpt lat="44.41898" lon="5.15346">
        <ele>729.777832</ele>
        <time>2011-05-19T14:17:35Z</time>
      </trkpt>
      <trkpt lat="44.41888" lon="5.15357">
        <ele>726.41333</ele>
        <time>2011-05-19T14:17:52Z</time>
      </trkpt>
      <trkpt lat="44.41876" lon="5.15361">
        <ele>723.529541</ele>
        <time>2011-05-19T14:18:10Z</time>
      </trkpt>
      <trkpt lat="44.41869" lon="5.15356">
        <ele>721.606689</ele>
        <time>2011-05-19T14:18:25Z</time>
      </trkpt>
      <trkpt lat="44.4186" lon="5.1536">
        <ele>718.242188</ele>
        <time>2011-05-19T14:18:42Z</time>
      </trkpt>
      <trkpt lat="44.41856" lon="5.15368">
        <ele>716.800293</ele>
        <time>2011-05-19T14:18:54Z</time>
      </trkpt>
      <trkpt lat="44.41844" lon="5.15372">
        <ele>713.916016</ele>
        <time>2011-05-19T14:19:12Z</time>
      </trkpt>
      <trkpt lat="44.41838" lon="5.15385">
        <ele>711.512939</ele>
        <time>2011-05-19T14:19:25Z</time>
      </trkpt>
      <trkpt lat="44.41828" lon="5.15388">
        <ele>709.590332</ele>
        <time>2011-05-19T14:19:41Z</time>
      </trkpt>
      <trkpt lat="44.41819" lon="5.15395">
        <ele>706.706299</ele>
        <time>2011-05-19T14:20:00Z</time>
      </trkpt>
      <trkpt lat="44.41814" lon="5.15406">
        <ele>704.783691</ele>
        <time>2011-05-19T14:20:16Z</time>
      </trkpt>
      <trkpt lat="44.41807" lon="5.15406">
        <ele>702.380371</ele>
        <time>2011-05-19T14:20:34Z</time>
      </trkpt>
      <trkpt lat="44.41802" lon="5.15411">
        <ele>699.977051</ele>
        <time>2011-05-19T14:20:52Z</time>
      </trkpt>
      <trkpt lat="44.41796" lon="5.15411">
        <ele>698.534912</ele>
        <time>2011-05-19T14:21:10Z</time>
      </trkpt>
      <trkpt lat="44.41788" lon="5.15414">
        <ele>696.131836</ele>
        <time>2011-05-19T14:21:31Z</time>
      </trkpt>
      <trkpt lat="44.41781" lon="5.15417">
        <ele>693.247803</ele>
        <time>2011-05-19T14:21:53Z</time>
      </trkpt>
      <trkpt lat="44.41774" lon="5.15418">
        <ele>690.364014</ele>
        <time>2011-05-19T14:22:12Z</time>
      </trkpt>
      <trkpt lat="44.41764" lon="5.15419">
        <ele>687.47998</ele>
        <time>2011-05-19T14:22:34Z</time>
      </trkpt>
      <trkpt lat="44.41755" lon="5.15424">
        <ele>684.596191</ele>
        <time>2011-05-19T14:22:54Z</time>
      </trkpt>
      <trkpt lat="44.41746" lon="5.15437">
        <ele>681.231445</ele>
        <time>2011-05-19T14:23:15Z</time>
      </trkpt>
      <trkpt lat="44.41737" lon="5.15443">
        <ele>678.347412</ele>
        <time>2011-05-19T14:23:33Z</time>
      </trkpt>
      <trkpt lat="44.41733" lon="5.1545">
        <ele>676.424805</ele>
        <time>2011-05-19T14:23:46Z</time>
      </trkpt>
      <trkpt lat="44.41728" lon="5.15465">
        <ele>673.541016</ele>
        <time>2011-05-19T14:24:07Z</time>
      </trkpt>
      <trkpt lat="44.41719" lon="5.15479">
        <ele>670.17627</ele>
        <time>2011-05-19T14:24:28Z</time>
      </trkpt>
      <trkpt lat="44.41718" lon="5.15492">
        <ele>667.772705</ele>
        <time>2011-05-19T14:24:46Z</time>
      </trkpt>
      <trkpt lat="44.41715" lon="5.155">
        <ele>665.850342</ele>
        <time>2011-05-19T14:24:58Z</time>
      </trkpt>
      <trkpt lat="44.41708" lon="5.15508">
        <ele>663.92749</ele>
        <time>2011-05-19T14:25:15Z</time>
      </trkpt>
      <trkpt lat="44.41705" lon="5.1552">
        <ele>662.005127</ele>
        <time>2011-05-19T14:25:29Z</time>
      </trkpt>
      <trkpt lat="44.417" lon="5.15535">
        <ele>659.121094</ele>
        <time>2011-05-19T14:25:45Z</time>
      </trkpt>
      <trkpt lat="44.41699" lon="5.15551">
        <ele>657.198486</ele>
        <time>2011-05-19T14:26:01Z</time>
      </trkpt>
      <trkpt lat="44.41697" lon="5.15569">
        <ele>654.795166</ele>
        <time>2011-05-19T14:26:19Z</time>
      </trkpt>
      <trkpt lat="44.41694" lon="5.15583">
        <ele>652.391846</ele>
        <time>2011-05-19T14:26:36Z</time>
      </trkpt>
      <trkpt lat="44.41688" lon="5.15594">
        <ele>650.949707</ele>
        <time>2011-05-19T14:26:58Z</time>
      </trkpt>
      <trkpt lat="44.41678" lon="5.15603">
        <ele>648.065918</ele>
        <time>2011-05-19T14:27:22Z</time>
      </trkpt>
      <trkpt lat="44.41674" lon="5.15623">
        <ele>645.181885</ele>
        <time>2011-05-19T14:27:43Z</time>
      </trkpt>
      <trkpt lat="44.41675" lon="5.15635">
        <ele>643.259277</ele>
        <time>2011-05-19T14:28:01Z</time>
      </trkpt>
      <trkpt lat="44.41669" lon="5.15649">
        <ele>641.33667</ele>
        <time>2011-05-19T14:28:18Z</time>
      </trkpt>
      <trkpt lat="44.41666" lon="5.15668">
        <ele>638.933594</ele>
        <time>2011-05-19T14:28:38Z</time>
      </trkpt>
      <trkpt lat="44.41657" lon="5.15681">
        <ele>637.010742</ele>
        <time>2011-05-19T14:28:55Z</time>
      </trkpt>
      <trkpt lat="44.41654" lon="5.15695">
        <ele>634.126709</ele>
        <time>2011-05-19T14:29:14Z</time>
      </trkpt>
      <trkpt lat="44.41647" lon="5.15712">
        <ele>631.723389</ele>
        <time>2011-05-19T14:29:39Z</time>
      </trkpt>
      <trkpt lat="44.41638" lon="5.15727">
        <ele>630.281494</ele>
        <time>2011-05-19T14:30:06Z</time>
      </trkpt>
      <trkpt lat="44.41639" lon="5.15735">
        <ele>627.878174</ele>
        <time>2011-05-19T14:31:47Z</time>
      </trkpt>
      <trkpt lat="44.41651" lon="5.15736">
        <ele>625.474854</ele>
        <time>2011-05-19T14:32:12Z</time>
      </trkpt>
      <trkpt lat="44.41658" lon="5.15734">
        <ele>623.55249</ele>
        <time>2011-05-19T14:32:23Z</time>
      </trkpt>
      <trkpt lat="44.41669" lon="5.1573">
        <ele>621.629639</ele>
        <time>2011-05-19T14:32:40Z</time>
      </trkpt>
      <trkpt lat="44.41689" lon="5.15719">
        <ele>619.226318</ele>
        <time>2011-05-19T14:33:02Z</time>
      </trkpt>
      <trkpt lat="44.41693" lon="5.15715">
        <ele>619.226318</ele>
        <time>2011-05-19T14:33:24Z</time>
      </trkpt>
      <trkpt lat="44.41698" lon="5.15709">
        <ele>619.226318</ele>
        <time>2011-05-19T14:33:48Z</time>
      </trkpt>
      <trkpt lat="44.41708" lon="5.15708">
        <ele>618.264893</ele>
        <time>2011-05-19T14:34:04Z</time>
      </trkpt>
      <trkpt lat="44.41724" lon="5.157">
        <ele>618.264893</ele>
        <time>2011-05-19T14:34:20Z</time>
      </trkpt>
      <trkpt lat="44.41736" lon="5.15703">
        <ele>616.342285</ele>
        <time>2011-05-19T14:34:37Z</time>
      </trkpt>
      <trkpt lat="44.41736" lon="5.15706">
        <ele>616.342285</ele>
        <time>2011-05-19T14:34:41Z</time>
      </trkpt>
      <trkpt lat="44.41727" lon="5.15714">
        <ele>615.381104</ele>
        <time>2011-05-19T14:34:52Z</time>
      </trkpt>
      <trkpt lat="44.4172" lon="5.15735">
        <ele>613.458496</ele>
        <time>2011-05-19T14:35:11Z</time>
      </trkpt>
      <trkpt lat="44.41728" lon="5.15754">
        <ele>610.574463</ele>
        <time>2011-05-19T14:35:28Z</time>
      </trkpt>
      <trkpt lat="44.41735" lon="5.1577">
        <ele>607.690674</ele>
        <time>2011-05-19T14:35:43Z</time>
      </trkpt>
      <trkpt lat="44.41737" lon="5.15775">
        <ele>606.729248</ele>
        <time>2011-05-19T14:35:48Z</time>
      </trkpt>
      <trkpt lat="44.41741" lon="5.15782">
        <ele>605.287354</ele>
        <time>2011-05-19T14:35:55Z</time>
      </trkpt>
      <trkpt lat="44.41746" lon="5.15788">
        <ele>603.845215</ele>
        <time>2011-05-19T14:36:03Z</time>
      </trkpt>
      <trkpt lat="44.4176" lon="5.15796">
        <ele>601.922607</ele>
        <time>2011-05-19T14:36:18Z</time>
      </trkpt>
      <trkpt lat="44.41762" lon="5.158">
        <ele>601.441895</ele>
        <time>2011-05-19T14:36:22Z</time>
      </trkpt>
      <trkpt lat="44.41764" lon="5.15809">
        <ele>600</ele>
        <time>2011-05-19T14:36:30Z</time>
      </trkpt>
      <trkpt lat="44.41755" lon="5.15818">
        <ele>598.557861</ele>
        <time>2011-05-19T14:36:42Z</time>
      </trkpt>
      <trkpt lat="44.41746" lon="5.1582">
        <ele>597.59668</ele>
        <time>2011-05-19T14:36:50Z</time>
      </trkpt>
      <trkpt lat="44.41743" lon="5.15829">
        <ele>596.635498</ele>
        <time>2011-05-19T14:36:56Z</time>
      </trkpt>
      <trkpt lat="44.41743" lon="5.15834">
        <ele>596.154785</ele>
        <time>2011-05-19T14:36:59Z</time>
      </trkpt>
      <trkpt lat="44.41748" lon="5.15855">
        <ele>593.270752</ele>
        <time>2011-05-19T14:37:17Z</time>
      </trkpt>
      <trkpt lat="44.41755" lon="5.15877">
        <ele>590.867432</ele>
        <time>2011-05-19T14:37:34Z</time>
      </trkpt>
      <trkpt lat="44.41755" lon="5.15888">
        <ele>589.90625</ele>
        <time>2011-05-19T14:37:42Z</time>
      </trkpt>
      <trkpt lat="44.41765" lon="5.1591">
        <ele>587.983398</ele>
        <time>2011-05-19T14:38:00Z</time>
      </trkpt>
      <trkpt lat="44.41766" lon="5.15911">
        <ele>587.983398</ele>
        <time>2011-05-19T14:38:01Z</time>
      </trkpt>
      <trkpt lat="44.41773" lon="5.15923">
        <ele>587.021973</ele>
        <time>2011-05-19T14:38:11Z</time>
      </trkpt>
      <trkpt lat="44.41788" lon="5.15943">
        <ele>586.541504</ele>
        <time>2011-05-19T14:38:35Z</time>
      </trkpt>
      <trkpt lat="44.41795" lon="5.15961">
        <ele>586.060791</ele>
        <time>2011-05-19T14:38:53Z</time>
      </trkpt>
      <trkpt lat="44.41801" lon="5.15967">
        <ele>585.580078</ele>
        <time>2011-05-19T14:39:09Z</time>
      </trkpt>
      <trkpt lat="44.41804" lon="5.1597">
        <ele>585.099609</ele>
        <time>2011-05-19T14:39:13Z</time>
      </trkpt>
      <trkpt lat="44.41825" lon="5.15972">
        <ele>584.618896</ele>
        <time>2011-05-19T14:39:38Z</time>
      </trkpt>
      <trkpt lat="44.41838" lon="5.15972">
        <ele>583.657471</ele>
        <time>2011-05-19T14:39:51Z</time>
      </trkpt>
      <trkpt lat="44.41842" lon="5.15974">
        <ele>583.657471</ele>
        <time>2011-05-19T14:39:54Z</time>
      </trkpt>
      <trkpt lat="44.41856" lon="5.15974">
        <ele>582.215576</ele>
        <time>2011-05-19T14:40:07Z</time>
      </trkpt>
      <trkpt lat="44.41871" lon="5.15975">
        <ele>581.734863</ele>
        <time>2011-05-19T14:40:19Z</time>
      </trkpt>
      <trkpt lat="44.41878" lon="5.1598">
        <ele>581.254395</ele>
        <time>2011-05-19T14:40:26Z</time>
      </trkpt>
      <trkpt lat="44.41882" lon="5.15979">
        <ele>581.254395</ele>
        <time>2011-05-19T14:40:30Z</time>
      </trkpt>
      <trkpt lat="44.41885" lon="5.15984">
        <ele>581.254395</ele>
        <time>2011-05-19T14:40:34Z</time>
      </trkpt>
      <trkpt lat="44.41887" lon="5.15984">
        <ele>580.773682</ele>
        <time>2011-05-19T14:40:36Z</time>
      </trkpt>
      <trkpt lat="44.41893" lon="5.15983">
        <ele>580.773682</ele>
        <time>2011-05-19T14:40:42Z</time>
      </trkpt>
      <trkpt lat="44.41898" lon="5.15989">
        <ele>580.773682</ele>
        <time>2011-05-19T14:40:49Z</time>
      </trkpt>
      <trkpt lat="44.41907" lon="5.15994">
        <ele>580.773682</ele>
        <time>2011-05-19T14:40:58Z</time>
      </trkpt>
      <trkpt lat="44.41909" lon="5.15994">
        <ele>580.773682</ele>
        <time>2011-05-19T14:41:00Z</time>
      </trkpt>
      <trkpt lat="44.41913" lon="5.15997">
        <ele>580.773682</ele>
        <time>2011-05-19T14:41:04Z</time>
      </trkpt>
      <trkpt lat="44.4193" lon="5.16007">
        <ele>581.254395</ele>
        <time>2011-05-19T14:41:22Z</time>
      </trkpt>
      <trkpt lat="44.41948" lon="5.16011">
        <ele>580.773682</ele>
        <time>2011-05-19T14:41:40Z</time>
      </trkpt>
      <trkpt lat="44.41961" lon="5.16013">
        <ele>580.773682</ele>
        <time>2011-05-19T14:41:52Z</time>
      </trkpt>
      <trkpt lat="44.41967" lon="5.16016">
        <ele>581.254395</ele>
        <time>2011-05-19T14:41:59Z</time>
      </trkpt>
      <trkpt lat="44.41982" lon="5.16014">
        <ele>582.215576</ele>
        <time>2011-05-19T14:42:13Z</time>
      </trkpt>
      <trkpt lat="44.41989" lon="5.16013">
        <ele>582.696289</ele>
        <time>2011-05-19T14:42:19Z</time>
      </trkpt>
      <trkpt lat="44.42005" lon="5.16026">
        <ele>583.657471</ele>
        <time>2011-05-19T14:42:37Z</time>
      </trkpt>
      <trkpt lat="44.42012" lon="5.16027">
        <ele>585.099609</ele>
        <time>2011-05-19T14:42:52Z</time>
      </trkpt>
      <trkpt lat="44.4201" lon="5.16013">
        <ele>585.580078</ele>
        <time>2011-05-19T14:43:05Z</time>
      </trkpt>
      <trkpt lat="44.42009" lon="5.16009">
        <ele>585.580078</ele>
        <time>2011-05-19T14:43:13Z</time>
      </trkpt>
      <trkpt lat="44.42009" lon="5.15997">
        <ele>586.060791</ele>
        <time>2011-05-19T14:43:24Z</time>
      </trkpt>
      <trkpt lat="44.42006" lon="5.15984">
        <ele>586.541504</ele>
        <time>2011-05-19T14:43:36Z</time>
      </trkpt>
      <trkpt lat="44.42011" lon="5.15972">
        <ele>587.502686</ele>
        <time>2011-05-19T14:43:48Z</time>
      </trkpt>
      <trkpt lat="44.42027" lon="5.15956">
        <ele>589.90625</ele>
        <time>2011-05-19T14:44:07Z</time>
      </trkpt>
      <trkpt lat="44.42038" lon="5.15945">
        <ele>591.828857</ele>
        <time>2011-05-19T14:44:23Z</time>
      </trkpt>
      <trkpt lat="44.42048" lon="5.15939">
        <ele>593.751465</ele>
        <time>2011-05-19T14:44:40Z</time>
      </trkpt>
      <trkpt lat="44.42056" lon="5.15931">
        <ele>595.674072</ele>
        <time>2011-05-19T14:44:55Z</time>
      </trkpt>
      <trkpt lat="44.4206" lon="5.15927">
        <ele>596.154785</ele>
        <time>2011-05-19T14:45:13Z</time>
      </trkpt>
      <trkpt lat="44.42062" lon="5.15922">
        <ele>597.115967</ele>
        <time>2011-05-19T14:45:21Z</time>
      </trkpt>
      <trkpt lat="44.42058" lon="5.15905">
        <ele>599.519287</ele>
        <time>2011-05-19T14:45:37Z</time>
      </trkpt>
      <trkpt lat="44.42048" lon="5.15894">
        <ele>601.441895</ele>
        <time>2011-05-19T14:45:51Z</time>
      </trkpt>
      <trkpt lat="44.42047" lon="5.15886">
        <ele>602.883789</ele>
        <time>2011-05-19T14:45:58Z</time>
      </trkpt>
      <trkpt lat="44.4205" lon="5.1587">
        <ele>604.326172</ele>
        <time>2011-05-19T14:46:14Z</time>
      </trkpt>
      <trkpt lat="44.42053" lon="5.15861">
        <ele>606.248535</ele>
        <time>2011-05-19T14:46:29Z</time>
      </trkpt>
      <trkpt lat="44.42059" lon="5.15856">
        <ele>608.651855</ele>
        <time>2011-05-19T14:46:43Z</time>
      </trkpt>
      <trkpt lat="44.4206" lon="5.15857">
        <ele>609.132568</ele>
        <time>2011-05-19T14:46:44Z</time>
      </trkpt>
      <trkpt lat="44.4207" lon="5.15866">
        <ele>611.535889</ele>
        <time>2011-05-19T14:47:04Z</time>
      </trkpt>
      <trkpt lat="44.42085" lon="5.15868">
        <ele>612.977783</ele>
        <time>2011-05-19T14:47:21Z</time>
      </trkpt>
      <trkpt lat="44.42092" lon="5.15877">
        <ele>613.458496</ele>
        <time>2011-05-19T14:47:32Z</time>
      </trkpt>
      <trkpt lat="44.42106" lon="5.15887">
        <ele>615.381104</ele>
        <time>2011-05-19T14:47:54Z</time>
      </trkpt>
      <trkpt lat="44.42116" lon="5.159">
        <ele>616.342285</ele>
        <time>2011-05-19T14:48:11Z</time>
      </trkpt>
      <trkpt lat="44.42129" lon="5.15909">
        <ele>618.264893</ele>
        <time>2011-05-19T14:48:28Z</time>
      </trkpt>
      <trkpt lat="44.4214" lon="5.15921">
        <ele>619.707031</ele>
        <time>2011-05-19T14:48:46Z</time>
      </trkpt>
      <trkpt lat="44.42155" lon="5.15927">
        <ele>621.14917</ele>
        <time>2011-05-19T14:49:04Z</time>
      </trkpt>
      <trkpt lat="44.4217" lon="5.15932">
        <ele>623.071777</ele>
        <time>2011-05-19T14:49:23Z</time>
      </trkpt>
      <trkpt lat="44.42177" lon="5.15938">
        <ele>623.55249</ele>
        <time>2011-05-19T14:49:32Z</time>
      </trkpt>
      <trkpt lat="44.42188" lon="5.15948">
        <ele>624.032959</ele>
        <time>2011-05-19T14:49:46Z</time>
      </trkpt>
      <trkpt lat="44.422" lon="5.15964">
        <ele>624.513672</ele>
        <time>2011-05-19T14:50:02Z</time>
      </trkpt>
      <trkpt lat="44.42202" lon="5.15967">
        <ele>624.513672</ele>
        <time>2011-05-19T14:50:05Z</time>
      </trkpt>
      <trkpt lat="44.42208" lon="5.15978">
        <ele>624.994385</ele>
        <time>2011-05-19T14:50:15Z</time>
      </trkpt>
      <trkpt lat="44.42215" lon="5.15986">
        <ele>626.436279</ele>
        <time>2011-05-19T14:50:25Z</time>
      </trkpt>
      <trkpt lat="44.42223" lon="5.15984">
        <ele>627.878174</ele>
        <time>2011-05-19T14:50:40Z</time>
      </trkpt>
      <trkpt lat="44.42234" lon="5.15976">
        <ele>629.800781</ele>
        <time>2011-05-19T14:50:55Z</time>
      </trkpt>
      <trkpt lat="44.42249" lon="5.15965">
        <ele>632.684814</ele>
        <time>2011-05-19T14:51:17Z</time>
      </trkpt>
      <trkpt lat="44.42251" lon="5.15963">
        <ele>633.165283</ele>
        <time>2011-05-19T14:51:20Z</time>
      </trkpt>
      <trkpt lat="44.42266" lon="5.15942">
        <ele>635.568604</ele>
        <time>2011-05-19T14:51:42Z</time>
      </trkpt>
      <trkpt lat="44.42267" lon="5.15936">
        <ele>636.049561</ele>
        <time>2011-05-19T14:52:05Z</time>
      </trkpt>
      <trkpt lat="44.42274" lon="5.15927">
        <ele>638.452881</ele>
        <time>2011-05-19T14:53:43Z</time>
      </trkpt>
      <trkpt lat="44.42282" lon="5.15912">
        <ele>640.375488</ele>
        <time>2011-05-19T14:53:58Z</time>
      </trkpt>
      <trkpt lat="44.42289" lon="5.15895">
        <ele>642.778809</ele>
        <time>2011-05-19T14:54:15Z</time>
      </trkpt>
      <trkpt lat="44.42288" lon="5.15878">
        <ele>645.662598</ele>
        <time>2011-05-19T14:54:34Z</time>
      </trkpt>
      <trkpt lat="44.42286" lon="5.15862">
        <ele>648.065918</ele>
        <time>2011-05-19T14:54:50Z</time>
      </trkpt>
      <trkpt lat="44.42276" lon="5.1584">
        <ele>650.469238</ele>
        <time>2011-05-19T14:55:12Z</time>
      </trkpt>
      <trkpt lat="44.42268" lon="5.15821">
        <ele>652.872559</ele>
        <time>2011-05-19T14:55:33Z</time>
      </trkpt>
      <trkpt lat="44.42258" lon="5.15818">
        <ele>653.833984</ele>
        <time>2011-05-19T14:55:44Z</time>
      </trkpt>
      <trkpt lat="44.42245" lon="5.15816">
        <ele>655.275879</ele>
        <time>2011-05-19T14:56:00Z</time>
      </trkpt>
      <trkpt lat="44.42229" lon="5.1581">
        <ele>656.237061</ele>
        <time>2011-05-19T14:56:19Z</time>
      </trkpt>
      <trkpt lat="44.42226" lon="5.15807">
        <ele>657.198486</ele>
        <time>2011-05-19T14:56:26Z</time>
      </trkpt>
      <trkpt lat="44.42224" lon="5.15802">
        <ele>657.679199</ele>
        <time>2011-05-19T14:56:31Z</time>
      </trkpt>
      <trkpt lat="44.42226" lon="5.15789">
        <ele>659.601807</ele>
        <time>2011-05-19T14:56:44Z</time>
      </trkpt>
      <trkpt lat="44.42232" lon="5.15784">
        <ele>660.082275</ele>
        <time>2011-05-19T14:56:56Z</time>
      </trkpt>
      <trkpt lat="44.42243" lon="5.15777">
        <ele>663.447021</ele>
        <time>2011-05-19T14:57:13Z</time>
      </trkpt>
      <trkpt lat="44.42253" lon="5.15773">
        <ele>664.408203</ele>
        <time>2011-05-19T14:57:28Z</time>
      </trkpt>
      <trkpt lat="44.42261" lon="5.15768">
        <ele>665.850342</ele>
        <time>2011-05-19T14:57:39Z</time>
      </trkpt>
      <trkpt lat="44.4227" lon="5.15766">
        <ele>667.292236</ele>
        <time>2011-05-19T14:57:52Z</time>
      </trkpt>
      <trkpt lat="44.42279" lon="5.1576">
        <ele>668.734375</ele>
        <time>2011-05-19T14:58:09Z</time>
      </trkpt>
      <trkpt lat="44.42287" lon="5.15756">
        <ele>670.17627</ele>
        <time>2011-05-19T14:58:22Z</time>
      </trkpt>
      <trkpt lat="44.42291" lon="5.15754">
        <ele>670.656982</ele>
        <time>2011-05-19T14:58:28Z</time>
      </trkpt>
      <trkpt lat="44.42301" lon="5.15757">
        <ele>673.060303</ele>
        <time>2011-05-19T14:58:43Z</time>
      </trkpt>
      <trkpt lat="44.4231" lon="5.15758">
        <ele>674.502197</ele>
        <time>2011-05-19T14:58:58Z</time>
      </trkpt>
      <trkpt lat="44.42317" lon="5.15746">
        <ele>676.424805</ele>
        <time>2011-05-19T14:59:15Z</time>
      </trkpt>
      <trkpt lat="44.42319" lon="5.15727">
        <ele>678.347412</ele>
        <time>2011-05-19T14:59:34Z</time>
      </trkpt>
      <trkpt lat="44.42319" lon="5.15725">
        <ele>678.347412</ele>
        <time>2011-05-19T14:59:36Z</time>
      </trkpt>
      <trkpt lat="44.42306" lon="5.15713">
        <ele>679.789307</ele>
        <time>2011-05-19T14:59:53Z</time>
      </trkpt>
      <trkpt lat="44.42293" lon="5.15704">
        <ele>681.711914</ele>
        <time>2011-05-19T15:00:13Z</time>
      </trkpt>
      <trkpt lat="44.42291" lon="5.15702">
        <ele>681.711914</ele>
        <time>2011-05-19T15:00:15Z</time>
      </trkpt>
      <trkpt lat="44.42285" lon="5.15694">
        <ele>683.634521</ele>
        <time>2011-05-19T15:00:31Z</time>
      </trkpt>
      <trkpt lat="44.42288" lon="5.15689">
        <ele>685.076904</ele>
        <time>2011-05-19T15:00:46Z</time>
      </trkpt>
      <trkpt lat="44.42284" lon="5.15692">
        <ele>685.557373</ele>
        <time>2011-05-19T15:01:05Z</time>
      </trkpt>
      <trkpt lat="44.42296" lon="5.15698">
        <ele>686.518799</ele>
        <time>2011-05-19T15:01:30Z</time>
      </trkpt>
      <trkpt lat="44.42301" lon="5.15699">
        <ele>686.999268</ele>
        <time>2011-05-19T15:01:36Z</time>
      </trkpt>
      <trkpt lat="44.42308" lon="5.15698">
        <ele>687.47998</ele>
        <time>2011-05-19T15:01:43Z</time>
      </trkpt>
      <trkpt lat="44.42315" lon="5.15702">
        <ele>687.960693</ele>
        <time>2011-05-19T15:01:53Z</time>
      </trkpt>
      <trkpt lat="44.42325" lon="5.157">
        <ele>688.441406</ele>
        <time>2011-05-19T15:02:02Z</time>
      </trkpt>
      <trkpt lat="44.42338" lon="5.15701">
        <ele>690.844482</ele>
        <time>2011-05-19T15:02:18Z</time>
      </trkpt>
      <trkpt lat="44.42343" lon="5.15701">
        <ele>690.844482</ele>
        <time>2011-05-19T15:02:23Z</time>
      </trkpt>
      <trkpt lat="44.42357" lon="5.15698">
        <ele>691.805908</ele>
        <time>2011-05-19T15:02:39Z</time>
      </trkpt>
      <trkpt lat="44.42373" lon="5.157">
        <ele>693.247803</ele>
        <time>2011-05-19T15:02:58Z</time>
      </trkpt>
      <trkpt lat="44.42385" lon="5.157">
        <ele>694.689697</ele>
        <time>2011-05-19T15:03:14Z</time>
      </trkpt>
      <trkpt lat="44.42401" lon="5.15697">
        <ele>696.131836</ele>
        <time>2011-05-19T15:03:31Z</time>
      </trkpt>
      <trkpt lat="44.42413" lon="5.15694">
        <ele>696.612549</ele>
        <time>2011-05-19T15:03:45Z</time>
      </trkpt>
      <trkpt lat="44.4242" lon="5.15698">
        <ele>697.093018</ele>
        <time>2011-05-19T15:03:59Z</time>
      </trkpt>
      <trkpt lat="44.42421" lon="5.157">
        <ele>697.093018</ele>
        <time>2011-05-19T15:04:21Z</time>
      </trkpt>
      <trkpt lat="44.42421" lon="5.15701">
        <ele>696.612549</ele>
        <time>2011-05-19T15:05:33Z</time>
      </trkpt>
      <trkpt lat="44.42422" lon="5.15694">
        <ele>695.651123</ele>
        <time>2011-05-19T15:08:19Z</time>
      </trkpt>
      <trkpt lat="44.42424" lon="5.15695">
        <ele>695.651123</ele>
        <time>2011-05-19T15:09:50Z</time>
      </trkpt>
      <trkpt lat="44.42422" lon="5.15684">
        <ele>695.17041</ele>
        <time>2011-05-19T15:11:09Z</time>
      </trkpt>
      <trkpt lat="44.42426" lon="5.15674">
        <ele>695.17041</ele>
        <time>2011-05-19T15:11:25Z</time>
      </trkpt>
      <trkpt lat="44.42427" lon="5.15671">
        <ele>695.17041</ele>
        <time>2011-05-19T15:11:40Z</time>
      </trkpt>
      <trkpt lat="44.42424" lon="5.15674">
        <ele>696.131836</ele>
        <time>2011-05-19T15:11:58Z</time>
      </trkpt>
      <trkpt lat="44.42429" lon="5.15669">
        <ele>695.17041</ele>
        <time>2011-05-19T15:12:13Z</time>
      </trkpt>
      <trkpt lat="44.42433" lon="5.15656">
        <ele>695.17041</ele>
        <time>2011-05-19T15:12:29Z</time>
      </trkpt>
      <trkpt lat="44.42433" lon="5.15652">
        <ele>695.17041</ele>
        <time>2011-05-19T15:12:33Z</time>
      </trkpt>
      <trkpt lat="44.42438" lon="5.15634">
        <ele>696.131836</ele>
        <time>2011-05-19T15:12:48Z</time>
      </trkpt>
      <trkpt lat="44.4244" lon="5.15624">
        <ele>696.612549</ele>
        <time>2011-05-19T15:12:58Z</time>
      </trkpt>
      <trkpt lat="44.42439" lon="5.15614">
        <ele>697.093018</ele>
        <time>2011-05-19T15:13:06Z</time>
      </trkpt>
      <trkpt lat="44.42439" lon="5.15604">
        <ele>697.57373</ele>
        <time>2011-05-19T15:13:13Z</time>
      </trkpt>
      <trkpt lat="44.42441" lon="5.15593">
        <ele>697.57373</ele>
        <time>2011-05-19T15:13:21Z</time>
      </trkpt>
      <trkpt lat="44.4244" lon="5.15585">
        <ele>697.57373</ele>
        <time>2011-05-19T15:13:26Z</time>
      </trkpt>
      <trkpt lat="44.42442" lon="5.15569">
        <ele>697.57373</ele>
        <time>2011-05-19T15:13:39Z</time>
      </trkpt>
      <trkpt lat="44.42446" lon="5.1556">
        <ele>697.57373</ele>
        <time>2011-05-19T15:13:48Z</time>
      </trkpt>
      <trkpt lat="44.42454" lon="5.15554">
        <ele>696.612549</ele>
        <time>2011-05-19T15:13:59Z</time>
      </trkpt>
      <trkpt lat="44.42463" lon="5.15556">
        <ele>696.612549</ele>
        <time>2011-05-19T15:14:08Z</time>
      </trkpt>
      <trkpt lat="44.42467" lon="5.1557">
        <ele>697.093018</ele>
        <time>2011-05-19T15:14:19Z</time>
      </trkpt>
      <trkpt lat="44.42479" lon="5.15576">
        <ele>698.054443</ele>
        <time>2011-05-19T15:14:33Z</time>
      </trkpt>
      <trkpt lat="44.4249" lon="5.15576">
        <ele>698.054443</ele>
        <time>2011-05-19T15:14:45Z</time>
      </trkpt>
      <trkpt lat="44.42495" lon="5.15583">
        <ele>697.57373</ele>
        <time>2011-05-19T15:14:54Z</time>
      </trkpt>
      <trkpt lat="44.425" lon="5.15593">
        <ele>696.612549</ele>
        <time>2011-05-19T15:15:02Z</time>
      </trkpt>
      <trkpt lat="44.42508" lon="5.15607">
        <ele>695.651123</ele>
        <time>2011-05-19T15:15:15Z</time>
      </trkpt>
      <trkpt lat="44.42512" lon="5.15612">
        <ele>695.651123</ele>
        <time>2011-05-19T15:15:20Z</time>
      </trkpt>
      <trkpt lat="44.42515" lon="5.15615">
        <ele>695.17041</ele>
        <time>2011-05-19T15:15:24Z</time>
      </trkpt>
      <trkpt lat="44.4252" lon="5.15624">
        <ele>695.17041</ele>
        <time>2011-05-19T15:15:30Z</time>
      </trkpt>
      <trkpt lat="44.42526" lon="5.15643">
        <ele>694.689697</ele>
        <time>2011-05-19T15:15:45Z</time>
      </trkpt>
      <trkpt lat="44.42539" lon="5.15641">
        <ele>693.728516</ele>
        <time>2011-05-19T15:15:58Z</time>
      </trkpt>
      <trkpt lat="44.4255" lon="5.15636">
        <ele>693.728516</ele>
        <time>2011-05-19T15:16:13Z</time>
      </trkpt>
      <trkpt lat="44.42565" lon="5.15634">
        <ele>692.767334</ele>
        <time>2011-05-19T15:16:32Z</time>
      </trkpt>
      <trkpt lat="44.42568" lon="5.15634">
        <ele>692.286621</ele>
        <time>2011-05-19T15:16:51Z</time>
      </trkpt>
      <trkpt lat="44.42571" lon="5.1564">
        <ele>692.286621</ele>
        <time>2011-05-19T15:17:11Z</time>
      </trkpt>
      <trkpt lat="44.42575" lon="5.15645">
        <ele>692.286621</ele>
        <time>2011-05-19T15:17:37Z</time>
      </trkpt>
      <trkpt lat="44.4258" lon="5.1565">
        <ele>692.286621</ele>
        <time>2011-05-19T15:18:01Z</time>
      </trkpt>
      <trkpt lat="44.42581" lon="5.15652">
        <ele>692.286621</ele>
        <time>2011-05-19T15:18:26Z</time>
      </trkpt>
      <trkpt lat="44.42592" lon="5.15662">
        <ele>692.286621</ele>
        <time>2011-05-19T15:18:43Z</time>
      </trkpt>
      <trkpt lat="44.42611" lon="5.15675">
        <ele>693.247803</ele>
        <time>2011-05-19T15:19:06Z</time>
      </trkpt>
      <trkpt lat="44.42617" lon="5.15685">
        <ele>693.728516</ele>
        <time>2011-05-19T15:19:17Z</time>
      </trkpt>
      <trkpt lat="44.4263" lon="5.15697">
        <ele>694.209229</ele>
        <time>2011-05-19T15:19:35Z</time>
      </trkpt>
      <trkpt lat="44.42643" lon="5.15712">
        <ele>695.651123</ele>
        <time>2011-05-19T15:19:55Z</time>
      </trkpt>
      <trkpt lat="44.42654" lon="5.15724">
        <ele>696.612549</ele>
        <time>2011-05-19T15:20:09Z</time>
      </trkpt>
      <trkpt lat="44.42657" lon="5.15723">
        <ele>696.612549</ele>
        <time>2011-05-19T15:20:13Z</time>
      </trkpt>
      <trkpt lat="44.42666" lon="5.15725">
        <ele>698.054443</ele>
        <time>2011-05-19T15:20:24Z</time>
      </trkpt>
      <trkpt lat="44.42685" lon="5.15731">
        <ele>698.534912</ele>
        <time>2011-05-19T15:20:46Z</time>
      </trkpt>
      <trkpt lat="44.42698" lon="5.15734">
        <ele>698.534912</ele>
        <time>2011-05-19T15:21:00Z</time>
      </trkpt>
      <trkpt lat="44.42712" lon="5.15753">
        <ele>698.534912</ele>
        <time>2011-05-19T15:21:16Z</time>
      </trkpt>
      <trkpt lat="44.42714" lon="5.15758">
        <ele>699.015625</ele>
        <time>2011-05-19T15:21:19Z</time>
      </trkpt>
      <trkpt lat="44.42724" lon="5.15763">
        <ele>698.534912</ele>
        <time>2011-05-19T15:21:27Z</time>
      </trkpt>
      <trkpt lat="44.42746" lon="5.1577">
        <ele>699.015625</ele>
        <time>2011-05-19T15:21:44Z</time>
      </trkpt>
      <trkpt lat="44.42758" lon="5.15776">
        <ele>699.015625</ele>
        <time>2011-05-19T15:21:52Z</time>
      </trkpt>
      <trkpt lat="44.42772" lon="5.15793">
        <ele>698.534912</ele>
        <time>2011-05-19T15:22:05Z</time>
      </trkpt>
      <trkpt lat="44.4278" lon="5.1581">
        <ele>698.534912</ele>
        <time>2011-05-19T15:22:15Z</time>
      </trkpt>
      <trkpt lat="44.42785" lon="5.15817">
        <ele>698.054443</ele>
        <time>2011-05-19T15:22:20Z</time>
      </trkpt>
      <trkpt lat="44.42807" lon="5.15849">
        <ele>698.054443</ele>
        <time>2011-05-19T15:22:42Z</time>
      </trkpt>
      <trkpt lat="44.42814" lon="5.15867">
        <ele>698.054443</ele>
        <time>2011-05-19T15:22:53Z</time>
      </trkpt>
      <trkpt lat="44.42819" lon="5.15876">
        <ele>698.054443</ele>
        <time>2011-05-19T15:22:59Z</time>
      </trkpt>
      <trkpt lat="44.42825" lon="5.15881">
        <ele>698.054443</ele>
        <time>2011-05-19T15:23:04Z</time>
      </trkpt>
      <trkpt lat="44.42843" lon="5.15901">
        <ele>697.093018</ele>
        <time>2011-05-19T15:23:20Z</time>
      </trkpt>
      <trkpt lat="44.42848" lon="5.15902">
        <ele>697.57373</ele>
        <time>2011-05-19T15:23:23Z</time>
      </trkpt>
      <trkpt lat="44.42852" lon="5.15899">
        <ele>696.131836</ele>
        <time>2011-05-19T15:23:28Z</time>
      </trkpt>
      <trkpt lat="44.42871" lon="5.15896">
        <ele>696.612549</ele>
        <time>2011-05-19T15:23:48Z</time>
      </trkpt>
      <trkpt lat="44.429" lon="5.15884">
        <ele>695.17041</ele>
        <time>2011-05-19T15:24:15Z</time>
      </trkpt>
      <trkpt lat="44.42902" lon="5.15878">
        <ele>694.689697</ele>
        <time>2011-05-19T15:24:19Z</time>
      </trkpt>
      <trkpt lat="44.42925" lon="5.15874">
        <ele>692.767334</ele>
        <time>2011-05-19T15:24:40Z</time>
      </trkpt>
      <trkpt lat="44.42947" lon="5.15873">
        <ele>689.402588</ele>
        <time>2011-05-19T15:24:59Z</time>
      </trkpt>
      <trkpt lat="44.42972" lon="5.15872">
        <ele>687.47998</ele>
        <time>2011-05-19T15:25:18Z</time>
      </trkpt>
      <trkpt lat="44.42985" lon="5.15856">
        <ele>685.557373</ele>
        <time>2011-05-19T15:25:36Z</time>
      </trkpt>
      <trkpt lat="44.42985" lon="5.1584">
        <ele>682.67334</ele>
        <time>2011-05-19T15:25:50Z</time>
      </trkpt>
      <trkpt lat="44.42992" lon="5.15831">
        <ele>682.192627</ele>
        <time>2011-05-19T15:25:58Z</time>
      </trkpt>
      <trkpt lat="44.43014" lon="5.15836">
        <ele>680.750732</ele>
        <time>2011-05-19T15:26:14Z</time>
      </trkpt>
      <trkpt lat="44.43016" lon="5.15837">
        <ele>680.750732</ele>
        <time>2011-05-19T15:26:16Z</time>
      </trkpt>
      <trkpt lat="44.4302" lon="5.15836">
        <ele>680.750732</ele>
        <time>2011-05-19T15:26:19Z</time>
      </trkpt>
      <trkpt lat="44.43036" lon="5.15834">
        <ele>679.789307</ele>
        <time>2011-05-19T15:26:41Z</time>
      </trkpt>
      <trkpt lat="44.43047" lon="5.15833">
        <ele>678.828125</ele>
        <time>2011-05-19T15:26:53Z</time>
      </trkpt>
      <trkpt lat="44.43051" lon="5.15831">
        <ele>678.347412</ele>
        <time>2011-05-19T15:27:14Z</time>
      </trkpt>
      <trkpt lat="44.43062" lon="5.15834">
        <ele>679.308594</ele>
        <time>2011-05-19T15:27:29Z</time>
      </trkpt>
      <trkpt lat="44.43063" lon="5.15834">
        <ele>679.308594</ele>
        <time>2011-05-19T15:27:30Z</time>
      </trkpt>
      <trkpt lat="44.4308" lon="5.15833">
        <ele>680.27002</ele>
        <time>2011-05-19T15:27:46Z</time>
      </trkpt>
      <trkpt lat="44.43088" lon="5.15829">
        <ele>680.750732</ele>
        <time>2011-05-19T15:27:56Z</time>
      </trkpt>
      <trkpt lat="44.431" lon="5.15825">
        <ele>680.750732</ele>
        <time>2011-05-19T15:28:08Z</time>
      </trkpt>
      <trkpt lat="44.43101" lon="5.15825">
        <ele>680.750732</ele>
        <time>2011-05-19T15:28:09Z</time>
      </trkpt>
      <trkpt lat="44.43112" lon="5.15822">
        <ele>680.27002</ele>
        <time>2011-05-19T15:28:17Z</time>
      </trkpt>
      <trkpt lat="44.43117" lon="5.15822">
        <ele>680.27002</ele>
        <time>2011-05-19T15:28:20Z</time>
      </trkpt>
      <trkpt lat="44.43122" lon="5.15823">
        <ele>680.27002</ele>
        <time>2011-05-19T15:28:25Z</time>
      </trkpt>
      <trkpt lat="44.43142" lon="5.15821">
        <ele>680.27002</ele>
        <time>2011-05-19T15:28:41Z</time>
      </trkpt>
      <trkpt lat="44.43153" lon="5.15819">
        <ele>679.789307</ele>
        <time>2011-05-19T15:28:48Z</time>
      </trkpt>
      <trkpt lat="44.43163" lon="5.15818">
        <ele>680.27002</ele>
        <time>2011-05-19T15:29:00Z</time>
      </trkpt>
      <trkpt lat="44.4317" lon="5.15811">
        <ele>680.750732</ele>
        <time>2011-05-19T15:29:24Z</time>
      </trkpt>
      <trkpt lat="44.43179" lon="5.15803">
        <ele>683.153809</ele>
        <time>2011-05-19T15:29:40Z</time>
      </trkpt>
      <trkpt lat="44.43192" lon="5.15799">
        <ele>684.115479</ele>
        <time>2011-05-19T15:29:55Z</time>
      </trkpt>
      <trkpt lat="44.432" lon="5.1579">
        <ele>683.634521</ele>
        <time>2011-05-19T15:30:08Z</time>
      </trkpt>
      <trkpt lat="44.4321" lon="5.15788">
        <ele>683.634521</ele>
        <time>2011-05-19T15:30:18Z</time>
      </trkpt>
      <trkpt lat="44.43221" lon="5.15785">
        <ele>682.192627</ele>
        <time>2011-05-19T15:30:33Z</time>
      </trkpt>
      <trkpt lat="44.43231" lon="5.15786">
        <ele>682.192627</ele>
        <time>2011-05-19T15:30:43Z</time>
      </trkpt>
      <trkpt lat="44.43247" lon="5.1578">
        <ele>682.67334</ele>
        <time>2011-05-19T15:30:59Z</time>
      </trkpt>
      <trkpt lat="44.43259" lon="5.15781">
        <ele>681.231445</ele>
        <time>2011-05-19T15:31:13Z</time>
      </trkpt>
      <trkpt lat="44.43264" lon="5.15774">
        <ele>680.27002</ele>
        <time>2011-05-19T15:31:24Z</time>
      </trkpt>
      <trkpt lat="44.43269" lon="5.1576">
        <ele>679.789307</ele>
        <time>2011-05-19T15:31:39Z</time>
      </trkpt>
      <trkpt lat="44.43277" lon="5.15764">
        <ele>680.27002</ele>
        <time>2011-05-19T15:31:49Z</time>
      </trkpt>
      <trkpt lat="44.43285" lon="5.15755">
        <ele>679.789307</ele>
        <time>2011-05-19T15:32:06Z</time>
      </trkpt>
      <trkpt lat="44.43288" lon="5.15752">
        <ele>679.789307</ele>
        <time>2011-05-19T15:32:09Z</time>
      </trkpt>
      <trkpt lat="44.43295" lon="5.15745">
        <ele>679.308594</ele>
        <time>2011-05-19T15:32:16Z</time>
      </trkpt>
      <trkpt lat="44.43304" lon="5.15745">
        <ele>679.308594</ele>
        <time>2011-05-19T15:32:21Z</time>
      </trkpt>
      <trkpt lat="44.43317" lon="5.15756">
        <ele>679.308594</ele>
        <time>2011-05-19T15:32:35Z</time>
      </trkpt>
      <trkpt lat="44.43325" lon="5.15761">
        <ele>680.750732</ele>
        <time>2011-05-19T15:32:46Z</time>
      </trkpt>
      <trkpt lat="44.43335" lon="5.15757">
        <ele>682.192627</ele>
        <time>2011-05-19T15:33:01Z</time>
      </trkpt>
      <trkpt lat="44.4334" lon="5.15757">
        <ele>683.634521</ele>
        <time>2011-05-19T15:33:14Z</time>
      </trkpt>
      <trkpt lat="44.43343" lon="5.15759">
        <ele>683.634521</ele>
        <time>2011-05-19T15:33:31Z</time>
      </trkpt>
      <trkpt lat="44.43345" lon="5.15759">
        <ele>683.634521</ele>
        <time>2011-05-19T15:33:56Z</time>
      </trkpt>
      <trkpt lat="44.43345" lon="5.15759">
        <ele>685.076904</ele>
        <time>2011-05-19T15:36:48Z</time>
      </trkpt>
      <trkpt lat="44.43345" lon="5.1576">
        <ele>684.115479</ele>
        <time>2011-05-19T15:37:26Z</time>
      </trkpt>
      <trkpt lat="44.4335" lon="5.15759">
        <ele>685.557373</ele>
        <time>2011-05-19T15:37:46Z</time>
      </trkpt>
      <trkpt lat="44.4336" lon="5.15759">
        <ele>688.441406</ele>
        <time>2011-05-19T15:38:06Z</time>
      </trkpt>
      <trkpt lat="44.43366" lon="5.15756">
        <ele>690.844482</ele>
        <time>2011-05-19T15:38:23Z</time>
      </trkpt>
      <trkpt lat="44.43375" lon="5.15747">
        <ele>692.767334</ele>
        <time>2011-05-19T15:38:38Z</time>
      </trkpt>
      <trkpt lat="44.43379" lon="5.15736">
        <ele>694.209229</ele>
        <time>2011-05-19T15:38:50Z</time>
      </trkpt>
      <trkpt lat="44.43379" lon="5.15734">
        <ele>694.689697</ele>
        <time>2011-05-19T15:38:54Z</time>
      </trkpt>
      <trkpt lat="44.43381" lon="5.1572">
        <ele>694.209229</ele>
        <time>2011-05-19T15:39:09Z</time>
      </trkpt>
      <trkpt lat="44.43385" lon="5.15709">
        <ele>694.209229</ele>
        <time>2011-05-19T15:39:19Z</time>
      </trkpt>
      <trkpt lat="44.43389" lon="5.1571">
        <ele>694.689697</ele>
        <time>2011-05-19T15:39:24Z</time>
      </trkpt>
      <trkpt lat="44.43406" lon="5.15711">
        <ele>694.689697</ele>
        <time>2011-05-19T15:39:42Z</time>
      </trkpt>
      <trkpt lat="44.43416" lon="5.15707">
        <ele>693.728516</ele>
        <time>2011-05-19T15:39:55Z</time>
      </trkpt>
      <trkpt lat="44.43418" lon="5.15705">
        <ele>693.728516</ele>
        <time>2011-05-19T15:39:58Z</time>
      </trkpt>
      <trkpt lat="44.43434" lon="5.15703">
        <ele>692.767334</ele>
        <time>2011-05-19T15:40:15Z</time>
      </trkpt>
      <trkpt lat="44.43442" lon="5.15707">
        <ele>693.728516</ele>
        <time>2011-05-19T15:40:32Z</time>
      </trkpt>
      <trkpt lat="44.43445" lon="5.15706">
        <ele>693.728516</ele>
        <time>2011-05-19T15:40:50Z</time>
      </trkpt>
      <trkpt lat="44.43451" lon="5.15707">
        <ele>693.728516</ele>
        <time>2011-05-19T15:41:08Z</time>
      </trkpt>
      <trkpt lat="44.43463" lon="5.15706">
        <ele>693.247803</ele>
        <time>2011-05-19T15:41:26Z</time>
      </trkpt>
      <trkpt lat="44.43467" lon="5.15702">
        <ele>693.728516</ele>
        <time>2011-05-19T15:41:47Z</time>
      </trkpt>
      <trkpt lat="44.43476" lon="5.15684">
        <ele>693.247803</ele>
        <time>2011-05-19T15:42:03Z</time>
      </trkpt>
      <trkpt lat="44.43489" lon="5.15698">
        <ele>692.767334</ele>
        <time>2011-05-19T15:42:18Z</time>
      </trkpt>
      <trkpt lat="44.43504" lon="5.157">
        <ele>692.767334</ele>
        <time>2011-05-19T15:42:35Z</time>
      </trkpt>
      <trkpt lat="44.43523" lon="5.157">
        <ele>691.805908</ele>
        <time>2011-05-19T15:42:54Z</time>
      </trkpt>
      <trkpt lat="44.43537" lon="5.15699">
        <ele>691.805908</ele>
        <time>2011-05-19T15:43:10Z</time>
      </trkpt>
      <trkpt lat="44.43546" lon="5.15701">
        <ele>690.364014</ele>
        <time>2011-05-19T15:43:20Z</time>
      </trkpt>
      <trkpt lat="44.43561" lon="5.15703">
        <ele>690.364014</ele>
        <time>2011-05-19T15:43:36Z</time>
      </trkpt>
      <trkpt lat="44.43574" lon="5.15702">
        <ele>689.883301</ele>
        <time>2011-05-19T15:43:49Z</time>
      </trkpt>
      <trkpt lat="44.43589" lon="5.15702">
        <ele>688.922119</ele>
        <time>2011-05-19T15:44:04Z</time>
      </trkpt>
      <trkpt lat="44.43602" lon="5.157">
        <ele>688.441406</ele>
        <time>2011-05-19T15:44:20Z</time>
      </trkpt>
      <trkpt lat="44.43617" lon="5.15706">
        <ele>687.960693</ele>
        <time>2011-05-19T15:44:38Z</time>
      </trkpt>
      <trkpt lat="44.43624" lon="5.15703">
        <ele>687.47998</ele>
        <time>2011-05-19T15:44:46Z</time>
      </trkpt>
      <trkpt lat="44.43638" lon="5.157">
        <ele>687.47998</ele>
        <time>2011-05-19T15:45:00Z</time>
      </trkpt>
      <trkpt lat="44.43649" lon="5.15697">
        <ele>686.518799</ele>
        <time>2011-05-19T15:45:16Z</time>
      </trkpt>
      <trkpt lat="44.43666" lon="5.15699">
        <ele>686.038086</ele>
        <time>2011-05-19T15:45:36Z</time>
      </trkpt>
      <trkpt lat="44.43681" lon="5.15705">
        <ele>686.038086</ele>
        <time>2011-05-19T15:45:53Z</time>
      </trkpt>
      <trkpt lat="44.43696" lon="5.1571">
        <ele>685.076904</ele>
        <time>2011-05-19T15:46:11Z</time>
      </trkpt>
      <trkpt lat="44.43711" lon="5.15713">
        <ele>684.115479</ele>
        <time>2011-05-19T15:46:28Z</time>
      </trkpt>
      <trkpt lat="44.43723" lon="5.15715">
        <ele>683.634521</ele>
        <time>2011-05-19T15:46:42Z</time>
      </trkpt>
      <trkpt lat="44.43741" lon="5.15719">
        <ele>682.192627</ele>
        <time>2011-05-19T15:47:05Z</time>
      </trkpt>
      <trkpt lat="44.43751" lon="5.15721">
        <ele>681.231445</ele>
        <time>2011-05-19T15:47:17Z</time>
      </trkpt>
      <trkpt lat="44.43761" lon="5.15724">
        <ele>680.27002</ele>
        <time>2011-05-19T15:47:29Z</time>
      </trkpt>
      <trkpt lat="44.43769" lon="5.15718">
        <ele>680.750732</ele>
        <time>2011-05-19T15:47:36Z</time>
      </trkpt>
      <trkpt lat="44.43778" lon="5.15689">
        <ele>682.192627</ele>
        <time>2011-05-19T15:47:59Z</time>
      </trkpt>
      <trkpt lat="44.43782" lon="5.15675">
        <ele>682.192627</ele>
        <time>2011-05-19T15:48:07Z</time>
      </trkpt>
      <trkpt lat="44.4378" lon="5.15652">
        <ele>682.67334</ele>
        <time>2011-05-19T15:48:22Z</time>
      </trkpt>
      <trkpt lat="44.43775" lon="5.15638">
        <ele>683.153809</ele>
        <time>2011-05-19T15:48:34Z</time>
      </trkpt>
      <trkpt lat="44.43781" lon="5.15616">
        <ele>684.115479</ele>
        <time>2011-05-19T15:48:52Z</time>
      </trkpt>
      <trkpt lat="44.43787" lon="5.156">
        <ele>686.038086</ele>
        <time>2011-05-19T15:49:12Z</time>
      </trkpt>
      <trkpt lat="44.4378" lon="5.15593">
        <ele>687.960693</ele>
        <time>2011-05-19T15:49:27Z</time>
      </trkpt>
      <trkpt lat="44.43775" lon="5.15579">
        <ele>690.364014</ele>
        <time>2011-05-19T15:49:46Z</time>
      </trkpt>
      <trkpt lat="44.43766" lon="5.1557">
        <ele>692.767334</ele>
        <time>2011-05-19T15:50:05Z</time>
      </trkpt>
      <trkpt lat="44.43757" lon="5.15563">
        <ele>696.131836</ele>
        <time>2011-05-19T15:50:28Z</time>
      </trkpt>
      <trkpt lat="44.4375" lon="5.15557">
        <ele>698.054443</ele>
        <time>2011-05-19T15:50:45Z</time>
      </trkpt>
      <trkpt lat="44.43742" lon="5.1555">
        <ele>700.458008</ele>
        <time>2011-05-19T15:51:01Z</time>
      </trkpt>
      <trkpt lat="44.43744" lon="5.15533">
        <ele>702.861084</ele>
        <time>2011-05-19T15:51:24Z</time>
      </trkpt>
      <trkpt lat="44.43746" lon="5.15509">
        <ele>705.264404</ele>
        <time>2011-05-19T15:51:45Z</time>
      </trkpt>
      <trkpt lat="44.4374" lon="5.15491">
        <ele>704.783691</ele>
        <time>2011-05-19T15:52:03Z</time>
      </trkpt>
      <trkpt lat="44.43737" lon="5.15469">
        <ele>704.783691</ele>
        <time>2011-05-19T15:52:23Z</time>
      </trkpt>
      <trkpt lat="44.43742" lon="5.1545">
        <ele>704.303223</ele>
        <time>2011-05-19T15:52:40Z</time>
      </trkpt>
      <trkpt lat="44.43743" lon="5.15437">
        <ele>704.303223</ele>
        <time>2011-05-19T15:52:49Z</time>
      </trkpt>
      <trkpt lat="44.43744" lon="5.15415">
        <ele>703.82251</ele>
        <time>2011-05-19T15:53:06Z</time>
      </trkpt>
      <trkpt lat="44.43737" lon="5.15393">
        <ele>702.380371</ele>
        <time>2011-05-19T15:53:25Z</time>
      </trkpt>
      <trkpt lat="44.43742" lon="5.15396">
        <ele>701.899902</ele>
        <time>2011-05-19T15:53:42Z</time>
      </trkpt>
      <trkpt lat="44.43745" lon="5.15397">
        <ele>701.419189</ele>
        <time>2011-05-19T15:53:47Z</time>
      </trkpt>
      <trkpt lat="44.43751" lon="5.15401">
        <ele>703.341797</ele>
        <time>2011-05-19T15:54:01Z</time>
      </trkpt>
      <trkpt lat="44.43753" lon="5.15402">
        <ele>703.341797</ele>
        <time>2011-05-19T15:54:02Z</time>
      </trkpt>
      <trkpt lat="44.43764" lon="5.15402">
        <ele>704.783691</ele>
        <time>2011-05-19T15:54:15Z</time>
      </trkpt>
      <trkpt lat="44.43773" lon="5.15403">
        <ele>707.187012</ele>
        <time>2011-05-19T15:54:29Z</time>
      </trkpt>
      <trkpt lat="44.43781" lon="5.15406">
        <ele>709.109619</ele>
        <time>2011-05-19T15:54:47Z</time>
      </trkpt>
      <trkpt lat="44.43786" lon="5.15402">
        <ele>710.070801</ele>
        <time>2011-05-19T15:55:03Z</time>
      </trkpt>
      <trkpt lat="44.43786" lon="5.15401">
        <ele>710.070801</ele>
        <time>2011-05-19T15:55:05Z</time>
      </trkpt>
      <trkpt lat="44.43797" lon="5.15418">
        <ele>711.993652</ele>
        <time>2011-05-19T15:55:25Z</time>
      </trkpt>
      <trkpt lat="44.43809" lon="5.15421">
        <ele>712.954834</ele>
        <time>2011-05-19T15:55:36Z</time>
      </trkpt>
      <trkpt lat="44.43821" lon="5.15429">
        <ele>714.396729</ele>
        <time>2011-05-19T15:55:51Z</time>
      </trkpt>
      <trkpt lat="44.43821" lon="5.15432">
        <ele>714.396729</ele>
        <time>2011-05-19T15:55:56Z</time>
      </trkpt>
      <trkpt lat="44.43822" lon="5.15433">
        <ele>715.358154</ele>
        <time>2011-05-19T15:56:05Z</time>
      </trkpt>
      <trkpt lat="44.43832" lon="5.15443">
        <ele>716.31958</ele>
        <time>2011-05-19T15:56:21Z</time>
      </trkpt>
      <trkpt lat="44.43841" lon="5.15447">
        <ele>718.242188</ele>
        <time>2011-05-19T15:56:36Z</time>
      </trkpt>
      <trkpt lat="44.43848" lon="5.15452">
        <ele>720.164795</ele>
        <time>2011-05-19T15:56:53Z</time>
      </trkpt>
      <trkpt lat="44.43859" lon="5.15456">
        <ele>721.606689</ele>
        <time>2011-05-19T15:57:12Z</time>
      </trkpt>
      <trkpt lat="44.43864" lon="5.15455">
        <ele>722.568115</ele>
        <time>2011-05-19T15:57:20Z</time>
      </trkpt>
      <trkpt lat="44.43875" lon="5.1545">
        <ele>724.01001</ele>
        <time>2011-05-19T15:57:36Z</time>
      </trkpt>
      <trkpt lat="44.43886" lon="5.15448">
        <ele>725.451904</ele>
        <time>2011-05-19T15:57:52Z</time>
      </trkpt>
      <trkpt lat="44.43892" lon="5.15456">
        <ele>725.932617</ele>
        <time>2011-05-19T15:58:02Z</time>
      </trkpt>
      <trkpt lat="44.43902" lon="5.15461">
        <ele>727.855225</ele>
        <time>2011-05-19T15:58:20Z</time>
      </trkpt>
      <trkpt lat="44.43907" lon="5.15466">
        <ele>728.81665</ele>
        <time>2011-05-19T15:58:31Z</time>
      </trkpt>
      <trkpt lat="44.43918" lon="5.1547">
        <ele>730.258545</ele>
        <time>2011-05-19T15:58:46Z</time>
      </trkpt>
      <trkpt lat="44.4393" lon="5.15479">
        <ele>732.181396</ele>
        <time>2011-05-19T15:59:04Z</time>
      </trkpt>
      <trkpt lat="44.4394" lon="5.15486">
        <ele>734.104004</ele>
        <time>2011-05-19T15:59:21Z</time>
      </trkpt>
      <trkpt lat="44.43949" lon="5.15492">
        <ele>735.545898</ele>
        <time>2011-05-19T15:59:35Z</time>
      </trkpt>
      <trkpt lat="44.43948" lon="5.15504">
        <ele>736.507324</ele>
        <time>2011-05-19T15:59:50Z</time>
      </trkpt>
      <trkpt lat="44.43951" lon="5.15519">
        <ele>737.949219</ele>
        <time>2011-05-19T16:00:08Z</time>
      </trkpt>
      <trkpt lat="44.43951" lon="5.15526">
        <ele>738.910645</ele>
        <time>2011-05-19T16:00:17Z</time>
      </trkpt>
      <trkpt lat="44.43955" lon="5.15533">
        <ele>739.391113</ele>
        <time>2011-05-19T16:00:23Z</time>
      </trkpt>
      <trkpt lat="44.43966" lon="5.15538">
        <ele>741.313721</ele>
        <time>2011-05-19T16:00:42Z</time>
      </trkpt>
      <trkpt lat="44.43972" lon="5.15536">
        <ele>742.275146</ele>
        <time>2011-05-19T16:00:53Z</time>
      </trkpt>
      <trkpt lat="44.43977" lon="5.1555">
        <ele>742.275146</ele>
        <time>2011-05-19T16:01:09Z</time>
      </trkpt>
      <trkpt lat="44.43977" lon="5.15552">
        <ele>742.275146</ele>
        <time>2011-05-19T16:01:10Z</time>
      </trkpt>
      <trkpt lat="44.43981" lon="5.15568">
        <ele>742.275146</ele>
        <time>2011-05-19T16:01:24Z</time>
      </trkpt>
      <trkpt lat="44.43985" lon="5.15584">
        <ele>742.755859</ele>
        <time>2011-05-19T16:01:39Z</time>
      </trkpt>
      <trkpt lat="44.43993" lon="5.156">
        <ele>744.197754</ele>
        <time>2011-05-19T16:02:00Z</time>
      </trkpt>
      <trkpt lat="44.43996" lon="5.15611">
        <ele>744.197754</ele>
        <time>2011-05-19T16:02:18Z</time>
      </trkpt>
      <trkpt lat="44.44003" lon="5.15632">
        <ele>744.197754</ele>
        <time>2011-05-19T16:02:37Z</time>
      </trkpt>
      <trkpt lat="44.44009" lon="5.15643">
        <ele>744.197754</ele>
        <time>2011-05-19T16:02:51Z</time>
      </trkpt>
      <trkpt lat="44.44017" lon="5.15663">
        <ele>744.678223</ele>
        <time>2011-05-19T16:03:10Z</time>
      </trkpt>
      <trkpt lat="44.4402" lon="5.15666">
        <ele>745.158936</ele>
        <time>2011-05-19T16:03:14Z</time>
      </trkpt>
      <trkpt lat="44.44029" lon="5.15677">
        <ele>746.120361</ele>
        <time>2011-05-19T16:03:27Z</time>
      </trkpt>
      <trkpt lat="44.44041" lon="5.15689">
        <ele>747.081543</ele>
        <time>2011-05-19T16:03:43Z</time>
      </trkpt>
      <trkpt lat="44.44053" lon="5.15698">
        <ele>748.043213</ele>
        <time>2011-05-19T16:03:58Z</time>
      </trkpt>
      <trkpt lat="44.44064" lon="5.15705">
        <ele>749.485107</ele>
        <time>2011-05-19T16:04:15Z</time>
      </trkpt>
      <trkpt lat="44.4407" lon="5.15722">
        <ele>750.446533</ele>
        <time>2011-05-19T16:04:30Z</time>
      </trkpt>
      <trkpt lat="44.44081" lon="5.15732">
        <ele>751.407715</ele>
        <time>2011-05-19T16:04:44Z</time>
      </trkpt>
      <trkpt lat="44.44089" lon="5.15743">
        <ele>752.849609</ele>
        <time>2011-05-19T16:05:00Z</time>
      </trkpt>
      <trkpt lat="44.44094" lon="5.15747">
        <ele>753.330322</ele>
        <time>2011-05-19T16:05:08Z</time>
      </trkpt>
      <trkpt lat="44.441" lon="5.15756">
        <ele>754.772217</ele>
        <time>2011-05-19T16:05:23Z</time>
      </trkpt>
      <trkpt lat="44.44108" lon="5.15774">
        <ele>756.214111</ele>
        <time>2011-05-19T16:05:40Z</time>
      </trkpt>
      <trkpt lat="44.44117" lon="5.15784">
        <ele>757.175537</ele>
        <time>2011-05-19T16:05:55Z</time>
      </trkpt>
      <trkpt lat="44.44124" lon="5.15797">
        <ele>758.617432</ele>
        <time>2011-05-19T16:06:14Z</time>
      </trkpt>
      <trkpt lat="44.44131" lon="5.15815">
        <ele>759.578857</ele>
        <time>2011-05-19T16:06:29Z</time>
      </trkpt>
      <trkpt lat="44.44135" lon="5.15827">
        <ele>760.540039</ele>
        <time>2011-05-19T16:06:44Z</time>
      </trkpt>
      <trkpt lat="44.44136" lon="5.15842">
        <ele>761.501465</ele>
        <time>2011-05-19T16:06:57Z</time>
      </trkpt>
      <trkpt lat="44.44138" lon="5.15856">
        <ele>762.943359</ele>
        <time>2011-05-19T16:07:21Z</time>
      </trkpt>
      <trkpt lat="44.44136" lon="5.15873">
        <ele>763.904541</ele>
        <time>2011-05-19T16:07:36Z</time>
      </trkpt>
      <trkpt lat="44.44139" lon="5.15888">
        <ele>764.385498</ele>
        <time>2011-05-19T16:07:50Z</time>
      </trkpt>
      <trkpt lat="44.44139" lon="5.15896">
        <ele>764.866211</ele>
        <time>2011-05-19T16:08:16Z</time>
      </trkpt>
      <trkpt lat="44.44143" lon="5.15916">
        <ele>767.269531</ele>
        <time>2011-05-19T16:08:35Z</time>
      </trkpt>
      <trkpt lat="44.44151" lon="5.15938">
        <ele>768.230713</ele>
        <time>2011-05-19T16:08:52Z</time>
      </trkpt>
      <trkpt lat="44.44156" lon="5.15949">
        <ele>768.711426</ele>
        <time>2011-05-19T16:09:09Z</time>
      </trkpt>
      <trkpt lat="44.44161" lon="5.15953">
        <ele>768.230713</ele>
        <time>2011-05-19T16:09:39Z</time>
      </trkpt>
      <trkpt lat="44.44168" lon="5.15956">
        <ele>767.269531</ele>
        <time>2011-05-19T16:09:56Z</time>
      </trkpt>
      <trkpt lat="44.44171" lon="5.15958">
        <ele>767.75</ele>
        <time>2011-05-19T16:10:01Z</time>
      </trkpt>
      <trkpt lat="44.44186" lon="5.15968">
        <ele>764.866211</ele>
        <time>2011-05-19T16:10:20Z</time>
      </trkpt>
      <trkpt lat="44.44199" lon="5.15974">
        <ele>763.424072</ele>
        <time>2011-05-19T16:10:33Z</time>
      </trkpt>
      <trkpt lat="44.44218" lon="5.15977">
        <ele>761.982178</ele>
        <time>2011-05-19T16:10:52Z</time>
      </trkpt>
      <trkpt lat="44.44237" lon="5.15981">
        <ele>761.501465</ele>
        <time>2011-05-19T16:11:09Z</time>
      </trkpt>
      <trkpt lat="44.44253" lon="5.15984">
        <ele>760.540039</ele>
        <time>2011-05-19T16:11:24Z</time>
      </trkpt>
      <trkpt lat="44.4426" lon="5.15988">
        <ele>759.578857</ele>
        <time>2011-05-19T16:11:39Z</time>
      </trkpt>
      <trkpt lat="44.44275" lon="5.15993">
        <ele>758.617432</ele>
        <time>2011-05-19T16:11:58Z</time>
      </trkpt>
      <trkpt lat="44.44277" lon="5.15993">
        <ele>758.617432</ele>
        <time>2011-05-19T16:12:01Z</time>
      </trkpt>
      <trkpt lat="44.44289" lon="5.15992">
        <ele>757.65625</ele>
        <time>2011-05-19T16:12:13Z</time>
      </trkpt>
      <trkpt lat="44.44297" lon="5.15993">
        <ele>757.175537</ele>
        <time>2011-05-19T16:12:20Z</time>
      </trkpt>
      <trkpt lat="44.44306" lon="5.15993">
        <ele>756.214111</ele>
        <time>2011-05-19T16:12:30Z</time>
      </trkpt>
      <trkpt lat="44.44309" lon="5.15994">
        <ele>755.733643</ele>
        <time>2011-05-19T16:12:33Z</time>
      </trkpt>
      <trkpt lat="44.44316" lon="5.15989">
        <ele>754.772217</ele>
        <time>2011-05-19T16:12:43Z</time>
      </trkpt>
      <trkpt lat="44.44324" lon="5.15969">
        <ele>753.811035</ele>
        <time>2011-05-19T16:12:58Z</time>
      </trkpt>
      <trkpt lat="44.44325" lon="5.15966">
        <ele>753.811035</ele>
        <time>2011-05-19T16:13:01Z</time>
      </trkpt>
      <trkpt lat="44.44329" lon="5.15964">
        <ele>753.811035</ele>
        <time>2011-05-19T16:13:04Z</time>
      </trkpt>
      <trkpt lat="44.44332" lon="5.15958">
        <ele>753.811035</ele>
        <time>2011-05-19T16:13:10Z</time>
      </trkpt>
      <trkpt lat="44.44345" lon="5.15947">
        <ele>753.330322</ele>
        <time>2011-05-19T16:13:27Z</time>
      </trkpt>
      <trkpt lat="44.44349" lon="5.15946">
        <ele>753.330322</ele>
        <time>2011-05-19T16:13:32Z</time>
      </trkpt>
      <trkpt lat="44.44362" lon="5.15945">
        <ele>753.811035</ele>
        <time>2011-05-19T16:13:47Z</time>
      </trkpt>
      <trkpt lat="44.44377" lon="5.15935">
        <ele>754.291748</ele>
        <time>2011-05-19T16:14:04Z</time>
      </trkpt>
      <trkpt lat="44.44391" lon="5.15932">
        <ele>755.25293</ele>
        <time>2011-05-19T16:14:17Z</time>
      </trkpt>
      <trkpt lat="44.44412" lon="5.15931">
        <ele>756.694824</ele>
        <time>2011-05-19T16:14:34Z</time>
      </trkpt>
      <trkpt lat="44.44425" lon="5.1593">
        <ele>756.694824</ele>
        <time>2011-05-19T16:14:49Z</time>
      </trkpt>
      <trkpt lat="44.44437" lon="5.15926">
        <ele>756.694824</ele>
        <time>2011-05-19T16:15:01Z</time>
      </trkpt>
      <trkpt lat="44.44453" lon="5.15917">
        <ele>757.65625</ele>
        <time>2011-05-19T16:15:18Z</time>
      </trkpt>
      <trkpt lat="44.44469" lon="5.15915">
        <ele>758.617432</ele>
        <time>2011-05-19T16:15:34Z</time>
      </trkpt>
      <trkpt lat="44.44477" lon="5.15914">
        <ele>758.617432</ele>
        <time>2011-05-19T16:15:42Z</time>
      </trkpt>
      <trkpt lat="44.44486" lon="5.15921">
        <ele>758.617432</ele>
        <time>2011-05-19T16:15:55Z</time>
      </trkpt>
      <trkpt lat="44.44495" lon="5.15926">
        <ele>758.136963</ele>
        <time>2011-05-19T16:16:02Z</time>
      </trkpt>
      <trkpt lat="44.44498" lon="5.15929">
        <ele>757.65625</ele>
        <time>2011-05-19T16:16:06Z</time>
      </trkpt>
      <trkpt lat="44.445" lon="5.15931">
        <ele>757.65625</ele>
        <time>2011-05-19T16:16:10Z</time>
      </trkpt>
      <trkpt lat="44.445" lon="5.15935">
        <ele>757.65625</ele>
        <time>2011-05-19T16:16:13Z</time>
      </trkpt>
      <trkpt lat="44.44504" lon="5.15944">
        <ele>758.136963</ele>
        <time>2011-05-19T16:16:21Z</time>
      </trkpt>
      <trkpt lat="44.44507" lon="5.15947">
        <ele>758.136963</ele>
        <time>2011-05-19T16:16:24Z</time>
      </trkpt>
      <trkpt lat="44.44508" lon="5.1595">
        <ele>758.617432</ele>
        <time>2011-05-19T16:16:26Z</time>
      </trkpt>
      <trkpt lat="44.44514" lon="5.15954">
        <ele>758.617432</ele>
        <time>2011-05-19T16:16:34Z</time>
      </trkpt>
      <trkpt lat="44.44515" lon="5.15958">
        <ele>758.136963</ele>
        <time>2011-05-19T16:16:37Z</time>
      </trkpt>
      <trkpt lat="44.44512" lon="5.15962">
        <ele>758.136963</ele>
        <time>2011-05-19T16:16:43Z</time>
      </trkpt>
      <trkpt lat="44.44519" lon="5.15978">
        <ele>758.136963</ele>
        <time>2011-05-19T16:16:59Z</time>
      </trkpt>
      <trkpt lat="44.44523" lon="5.15993">
        <ele>759.098145</ele>
        <time>2011-05-19T16:17:12Z</time>
      </trkpt>
      <trkpt lat="44.44533" lon="5.16011">
        <ele>759.578857</ele>
        <time>2011-05-19T16:17:30Z</time>
      </trkpt>
      <trkpt lat="44.44544" lon="5.16033">
        <ele>761.020752</ele>
        <time>2011-05-19T16:17:51Z</time>
      </trkpt>
      <trkpt lat="44.44548" lon="5.16038">
        <ele>761.982178</ele>
        <time>2011-05-19T16:17:58Z</time>
      </trkpt>
      <trkpt lat="44.44559" lon="5.16046">
        <ele>762.462646</ele>
        <time>2011-05-19T16:18:12Z</time>
      </trkpt>
      <trkpt lat="44.44576" lon="5.16049">
        <ele>763.904541</ele>
        <time>2011-05-19T16:18:33Z</time>
      </trkpt>
      <trkpt lat="44.44591" lon="5.16048">
        <ele>766.308105</ele>
        <time>2011-05-19T16:18:53Z</time>
      </trkpt>
      <trkpt lat="44.44596" lon="5.16048">
        <ele>766.788818</ele>
        <time>2011-05-19T16:19:01Z</time>
      </trkpt>
      <trkpt lat="44.44615" lon="5.16051">
        <ele>767.75</ele>
        <time>2011-05-19T16:19:22Z</time>
      </trkpt>
      <trkpt lat="44.44624" lon="5.16054">
        <ele>768.230713</ele>
        <time>2011-05-19T16:19:32Z</time>
      </trkpt>
      <trkpt lat="44.44639" lon="5.16053">
        <ele>769.192139</ele>
        <time>2011-05-19T16:19:46Z</time>
      </trkpt>
      <trkpt lat="44.44647" lon="5.16055">
        <ele>769.672852</ele>
        <time>2011-05-19T16:19:56Z</time>
      </trkpt>
      <trkpt lat="44.44657" lon="5.16054">
        <ele>770.15332</ele>
        <time>2011-05-19T16:20:07Z</time>
      </trkpt>
      <trkpt lat="44.44675" lon="5.16055">
        <ele>772.556641</ele>
        <time>2011-05-19T16:20:31Z</time>
      </trkpt>
      <trkpt lat="44.44682" lon="5.1606">
        <ele>773.037354</ele>
        <time>2011-05-19T16:20:40Z</time>
      </trkpt>
      <trkpt lat="44.44699" lon="5.16072">
        <ele>774.959961</ele>
        <time>2011-05-19T16:21:04Z</time>
      </trkpt>
      <trkpt lat="44.447" lon="5.16076">
        <ele>774.959961</ele>
        <time>2011-05-19T16:21:21Z</time>
      </trkpt>
      <trkpt lat="44.44702" lon="5.16078">
        <ele>774.959961</ele>
        <time>2011-05-19T16:21:37Z</time>
      </trkpt>
      <trkpt lat="44.44704" lon="5.16078">
        <ele>775.44043</ele>
        <time>2011-05-19T16:22:24Z</time>
      </trkpt>
      <trkpt lat="44.44708" lon="5.1608">
        <ele>774.479248</ele>
        <time>2011-05-19T16:22:40Z</time>
      </trkpt>
      <trkpt lat="44.44708" lon="5.16079">
        <ele>774.959961</ele>
        <time>2011-05-19T16:23:21Z</time>
      </trkpt>
      <trkpt lat="44.44708" lon="5.16078">
        <ele>772.556641</ele>
        <time>2011-05-19T16:31:10Z</time>
      </trkpt>
      <trkpt lat="44.44708" lon="5.16076">
        <ele>773.998535</ele>
        <time>2011-05-19T16:33:49Z</time>
      </trkpt>
      <trkpt lat="44.44707" lon="5.16075">
        <ele>774.959961</ele>
        <time>2011-05-19T16:43:37Z</time>
      </trkpt>
      <trkpt lat="44.44708" lon="5.16077">
        <ele>773.037354</ele>
        <time>2011-05-19T16:44:51Z</time>
      </trkpt>
      <trkpt lat="44.44708" lon="5.16077">
        <ele>773.037354</ele>
        <time>2011-05-19T16:50:52Z</time>
      </trkpt>
      <trkpt lat="44.44708" lon="5.16077">
        <ele>773.037354</ele>
        <time>2011-05-19T16:51:55Z</time>
      </trkpt>
      <trkpt lat="44.44708" lon="5.16077">
        <ele>772.556641</ele>
        <time>2011-05-19T16:52:30Z</time>
      </trkpt>
      <trkpt lat="44.44707" lon="5.16076">
        <ele>772.556641</ele>
        <time>2011-05-19T16:53:47Z</time>
      </trkpt>
      <trkpt lat="44.44704" lon="5.16063">
        <ele>771.114746</ele>
        <time>2011-05-19T16:54:05Z</time>
      </trkpt>
      <trkpt lat="44.44713" lon="5.16061">
        <ele>770.15332</ele>
        <time>2011-05-19T16:54:20Z</time>
      </trkpt>
      <trkpt lat="44.44726" lon="5.16054">
        <ele>766.788818</ele>
        <time>2011-05-19T16:54:40Z</time>
      </trkpt>
      <trkpt lat="44.44735" lon="5.16043">
        <ele>765.346924</ele>
        <time>2011-05-19T16:54:56Z</time>
      </trkpt>
      <trkpt lat="44.44749" lon="5.16024">
        <ele>762.462646</ele>
        <time>2011-05-19T16:55:21Z</time>
      </trkpt>
      <trkpt lat="44.44766" lon="5.16011">
        <ele>760.540039</ele>
        <time>2011-05-19T16:55:42Z</time>
      </trkpt>
      <trkpt lat="44.44775" lon="5.16007">
        <ele>758.617432</ele>
        <time>2011-05-19T16:55:55Z</time>
      </trkpt>
      <trkpt lat="44.44788" lon="5.16">
        <ele>756.694824</ele>
        <time>2011-05-19T16:56:13Z</time>
      </trkpt>
      <trkpt lat="44.44799" lon="5.15993">
        <ele>754.772217</ele>
        <time>2011-05-19T16:56:29Z</time>
      </trkpt>
      <trkpt lat="44.44809" lon="5.15999">
        <ele>753.330322</ele>
        <time>2011-05-19T16:56:42Z</time>
      </trkpt>
      <trkpt lat="44.44822" lon="5.16011">
        <ele>750.446533</ele>
        <time>2011-05-19T16:57:03Z</time>
      </trkpt>
      <trkpt lat="44.44834" lon="5.16015">
        <ele>748.043213</ele>
        <time>2011-05-19T16:57:22Z</time>
      </trkpt>
      <trkpt lat="44.44845" lon="5.16028">
        <ele>745.639648</ele>
        <time>2011-05-19T16:57:36Z</time>
      </trkpt>
      <trkpt lat="44.44853" lon="5.16043">
        <ele>743.717041</ele>
        <time>2011-05-19T16:57:50Z</time>
      </trkpt>
      <trkpt lat="44.44854" lon="5.16044">
        <ele>743.236328</ele>
        <time>2011-05-19T16:57:51Z</time>
      </trkpt>
      <trkpt lat="44.44857" lon="5.16053">
        <ele>742.755859</ele>
        <time>2011-05-19T16:57:58Z</time>
      </trkpt>
      <trkpt lat="44.4487" lon="5.16053">
        <ele>739.871826</ele>
        <time>2011-05-19T16:58:13Z</time>
      </trkpt>
      <trkpt lat="44.44872" lon="5.16051">
        <ele>738.910645</ele>
        <time>2011-05-19T16:58:16Z</time>
      </trkpt>
      <trkpt lat="44.44877" lon="5.16035">
        <ele>736.987793</ele>
        <time>2011-05-19T16:58:30Z</time>
      </trkpt>
      <trkpt lat="44.44886" lon="5.16017">
        <ele>734.584717</ele>
        <time>2011-05-19T16:58:48Z</time>
      </trkpt>
      <trkpt lat="44.44894" lon="5.16005">
        <ele>733.142578</ele>
        <time>2011-05-19T16:59:01Z</time>
      </trkpt>
      <trkpt lat="44.44911" lon="5.16006">
        <ele>733.142578</ele>
        <time>2011-05-19T16:59:18Z</time>
      </trkpt>
      <trkpt lat="44.44916" lon="5.16001">
        <ele>732.181396</ele>
        <time>2011-05-19T16:59:25Z</time>
      </trkpt>
      <trkpt lat="44.44918" lon="5.15996">
        <ele>731.700439</ele>
        <time>2011-05-19T16:59:29Z</time>
      </trkpt>
      <trkpt lat="44.44924" lon="5.15986">
        <ele>729.777832</ele>
        <time>2011-05-19T16:59:41Z</time>
      </trkpt>
      <trkpt lat="44.44924" lon="5.15984">
        <ele>729.297119</ele>
        <time>2011-05-19T16:59:43Z</time>
      </trkpt>
      <trkpt lat="44.4493" lon="5.15969">
        <ele>726.41333</ele>
        <time>2011-05-19T16:59:58Z</time>
      </trkpt>
      <trkpt lat="44.44937" lon="5.15949">
        <ele>724.490723</ele>
        <time>2011-05-19T17:00:11Z</time>
      </trkpt>
      <trkpt lat="44.44944" lon="5.15943">
        <ele>723.048828</ele>
        <time>2011-05-19T17:00:18Z</time>
      </trkpt>
      <trkpt lat="44.44955" lon="5.15937">
        <ele>721.606689</ele>
        <time>2011-05-19T17:00:28Z</time>
      </trkpt>
      <trkpt lat="44.44964" lon="5.15922">
        <ele>720.164795</ele>
        <time>2011-05-19T17:00:39Z</time>
      </trkpt>
      <trkpt lat="44.44967" lon="5.1592">
        <ele>719.684326</ele>
        <time>2011-05-19T17:00:42Z</time>
      </trkpt>
      <trkpt lat="44.44969" lon="5.15918">
        <ele>719.203613</ele>
        <time>2011-05-19T17:00:45Z</time>
      </trkpt>
      <trkpt lat="44.44972" lon="5.1591">
        <ele>718.242188</ele>
        <time>2011-05-19T17:00:51Z</time>
      </trkpt>
      <trkpt lat="44.44975" lon="5.15907">
        <ele>718.242188</ele>
        <time>2011-05-19T17:00:54Z</time>
      </trkpt>
      <trkpt lat="44.44976" lon="5.15902">
        <ele>717.281006</ele>
        <time>2011-05-19T17:00:58Z</time>
      </trkpt>
      <trkpt lat="44.44983" lon="5.15894">
        <ele>716.31958</ele>
        <time>2011-05-19T17:01:07Z</time>
      </trkpt>
      <trkpt lat="44.44987" lon="5.15888">
        <ele>715.358154</ele>
        <time>2011-05-19T17:01:12Z</time>
      </trkpt>
      <trkpt lat="44.44994" lon="5.15887">
        <ele>715.358154</ele>
        <time>2011-05-19T17:01:17Z</time>
      </trkpt>
      <trkpt lat="44.45008" lon="5.15889">
        <ele>713.435547</ele>
        <time>2011-05-19T17:01:32Z</time>
      </trkpt>
      <trkpt lat="44.45015" lon="5.15894">
        <ele>712.474121</ele>
        <time>2011-05-19T17:01:40Z</time>
      </trkpt>
      <trkpt lat="44.45025" lon="5.15892">
        <ele>711.512939</ele>
        <time>2011-05-19T17:01:53Z</time>
      </trkpt>
      <trkpt lat="44.45038" lon="5.15883">
        <ele>709.590332</ele>
        <time>2011-05-19T17:02:08Z</time>
      </trkpt>
      <trkpt lat="44.45049" lon="5.15875">
        <ele>707.667725</ele>
        <time>2011-05-19T17:02:18Z</time>
      </trkpt>
      <trkpt lat="44.45059" lon="5.1587">
        <ele>706.225586</ele>
        <time>2011-05-19T17:02:27Z</time>
      </trkpt>
      <trkpt lat="44.45064" lon="5.15866">
        <ele>705.745117</ele>
        <time>2011-05-19T17:02:31Z</time>
      </trkpt>
      <trkpt lat="44.4507" lon="5.15857">
        <ele>705.264404</ele>
        <time>2011-05-19T17:02:37Z</time>
      </trkpt>
      <trkpt lat="44.45073" lon="5.15856">
        <ele>704.783691</ele>
        <time>2011-05-19T17:02:40Z</time>
      </trkpt>
      <trkpt lat="44.45084" lon="5.1584">
        <ele>703.341797</ele>
        <time>2011-05-19T17:02:55Z</time>
      </trkpt>
      <trkpt lat="44.45094" lon="5.15815">
        <ele>700.938477</ele>
        <time>2011-05-19T17:03:14Z</time>
      </trkpt>
      <trkpt lat="44.45098" lon="5.15811">
        <ele>700.938477</ele>
        <time>2011-05-19T17:03:18Z</time>
      </trkpt>
      <trkpt lat="44.4511" lon="5.158">
        <ele>699.015625</ele>
        <time>2011-05-19T17:03:33Z</time>
      </trkpt>
      <trkpt lat="44.45113" lon="5.15798">
        <ele>698.534912</ele>
        <time>2011-05-19T17:03:37Z</time>
      </trkpt>
      <trkpt lat="44.45118" lon="5.15798">
        <ele>698.054443</ele>
        <time>2011-05-19T17:03:41Z</time>
      </trkpt>
      <trkpt lat="44.45129" lon="5.15792">
        <ele>696.131836</ele>
        <time>2011-05-19T17:03:54Z</time>
      </trkpt>
      <trkpt lat="44.45141" lon="5.15789">
        <ele>694.689697</ele>
        <time>2011-05-19T17:04:08Z</time>
      </trkpt>
      <trkpt lat="44.45154" lon="5.15783">
        <ele>693.728516</ele>
        <time>2011-05-19T17:04:23Z</time>
      </trkpt>
      <trkpt lat="44.45167" lon="5.15782">
        <ele>693.247803</ele>
        <time>2011-05-19T17:04:32Z</time>
      </trkpt>
      <trkpt lat="44.45171" lon="5.15781">
        <ele>692.767334</ele>
        <time>2011-05-19T17:04:35Z</time>
      </trkpt>
      <trkpt lat="44.45175" lon="5.1578">
        <ele>692.286621</ele>
        <time>2011-05-19T17:04:41Z</time>
      </trkpt>
      <trkpt lat="44.45187" lon="5.15777">
        <ele>690.844482</ele>
        <time>2011-05-19T17:04:55Z</time>
      </trkpt>
      <trkpt lat="44.45201" lon="5.15776">
        <ele>688.441406</ele>
        <time>2011-05-19T17:05:10Z</time>
      </trkpt>
      <trkpt lat="44.45211" lon="5.15771">
        <ele>686.999268</ele>
        <time>2011-05-19T17:05:24Z</time>
      </trkpt>
      <trkpt lat="44.45226" lon="5.15767">
        <ele>683.634521</ele>
        <time>2011-05-19T17:05:41Z</time>
      </trkpt>
      <trkpt lat="44.45239" lon="5.15762">
        <ele>680.750732</ele>
        <time>2011-05-19T17:06:00Z</time>
      </trkpt>
      <trkpt lat="44.45254" lon="5.15752">
        <ele>677.866699</ele>
        <time>2011-05-19T17:06:21Z</time>
      </trkpt>
      <trkpt lat="44.45263" lon="5.15747">
        <ele>675.944092</ele>
        <time>2011-05-19T17:06:33Z</time>
      </trkpt>
      <trkpt lat="44.45263" lon="5.15744">
        <ele>675.944092</ele>
        <time>2011-05-19T17:06:40Z</time>
      </trkpt>
      <trkpt lat="44.45274" lon="5.15734">
        <ele>673.541016</ele>
        <time>2011-05-19T17:06:54Z</time>
      </trkpt>
      <trkpt lat="44.4528" lon="5.15731">
        <ele>673.060303</ele>
        <time>2011-05-19T17:06:59Z</time>
      </trkpt>
      <trkpt lat="44.45281" lon="5.1573">
        <ele>672.57959</ele>
        <time>2011-05-19T17:07:01Z</time>
      </trkpt>
      <trkpt lat="44.45293" lon="5.15723">
        <ele>670.656982</ele>
        <time>2011-05-19T17:07:15Z</time>
      </trkpt>
      <trkpt lat="44.45298" lon="5.15721">
        <ele>670.17627</ele>
        <time>2011-05-19T17:07:21Z</time>
      </trkpt>
      <trkpt lat="44.45305" lon="5.15719">
        <ele>669.215088</ele>
        <time>2011-05-19T17:07:26Z</time>
      </trkpt>
      <trkpt lat="44.45312" lon="5.15712">
        <ele>667.772705</ele>
        <time>2011-05-19T17:07:38Z</time>
      </trkpt>
      <trkpt lat="44.45322" lon="5.15702">
        <ele>664.888916</ele>
        <time>2011-05-19T17:07:53Z</time>
      </trkpt>
      <trkpt lat="44.45329" lon="5.15691">
        <ele>662.005127</ele>
        <time>2011-05-19T17:08:10Z</time>
      </trkpt>
      <trkpt lat="44.45337" lon="5.15677">
        <ele>659.121094</ele>
        <time>2011-05-19T17:08:27Z</time>
      </trkpt>
      <trkpt lat="44.45341" lon="5.15669">
        <ele>657.198486</ele>
        <time>2011-05-19T17:08:43Z</time>
      </trkpt>
      <trkpt lat="44.45349" lon="5.15651">
        <ele>654.314697</ele>
        <time>2011-05-19T17:09:01Z</time>
      </trkpt>
      <trkpt lat="44.4535" lon="5.15642">
        <ele>652.872559</ele>
        <time>2011-05-19T17:09:09Z</time>
      </trkpt>
      <trkpt lat="44.45342" lon="5.1562">
        <ele>649.507813</ele>
        <time>2011-05-19T17:09:28Z</time>
      </trkpt>
      <trkpt lat="44.45343" lon="5.1561">
        <ele>648.065918</ele>
        <time>2011-05-19T17:09:35Z</time>
      </trkpt>
      <trkpt lat="44.45355" lon="5.15596">
        <ele>645.181885</ele>
        <time>2011-05-19T17:09:50Z</time>
      </trkpt>
      <trkpt lat="44.45356" lon="5.15596">
        <ele>644.701172</ele>
        <time>2011-05-19T17:09:51Z</time>
      </trkpt>
      <trkpt lat="44.4536" lon="5.15592">
        <ele>643.73999</ele>
        <time>2011-05-19T17:09:56Z</time>
      </trkpt>
      <trkpt lat="44.45373" lon="5.15581">
        <ele>640.375488</ele>
        <time>2011-05-19T17:10:10Z</time>
      </trkpt>
      <trkpt lat="44.45373" lon="5.1558">
        <ele>639.894775</ele>
        <time>2011-05-19T17:10:11Z</time>
      </trkpt>
      <trkpt lat="44.45372" lon="5.15577">
        <ele>639.414063</ele>
        <time>2011-05-19T17:10:13Z</time>
      </trkpt>
      <trkpt lat="44.45357" lon="5.15569">
        <ele>637.010742</ele>
        <time>2011-05-19T17:10:25Z</time>
      </trkpt>
      <trkpt lat="44.45341" lon="5.15563">
        <ele>633.645996</ele>
        <time>2011-05-19T17:10:38Z</time>
      </trkpt>
      <trkpt lat="44.45339" lon="5.15562">
        <ele>633.165283</ele>
        <time>2011-05-19T17:10:39Z</time>
      </trkpt>
      <trkpt lat="44.45328" lon="5.15547">
        <ele>630.281494</ele>
        <time>2011-05-19T17:10:53Z</time>
      </trkpt>
      <trkpt lat="44.45324" lon="5.1553">
        <ele>628.358887</ele>
        <time>2011-05-19T17:11:01Z</time>
      </trkpt>
      <trkpt lat="44.45318" lon="5.15527">
        <ele>628.358887</ele>
        <time>2011-05-19T17:11:16Z</time>
      </trkpt>
      <trkpt lat="44.45315" lon="5.15525">
        <ele>627.878174</ele>
        <time>2011-05-19T17:11:46Z</time>
      </trkpt>
      <trkpt lat="44.45314" lon="5.15524">
        <ele>626.916992</ele>
        <time>2011-05-19T17:13:42Z</time>
      </trkpt>
    </trkseg>
  </trk>
</gpx>